LS1402 / G-JZHW 7700 Squawk Report (26th of June, 2022)

Aircraft B738 Reg No. G-JZHW Age 5 years old
Model 737 Jet engines 2 First flight 27-02-17
Registered 17-03-17 Rollout N/A Delivered 17-03-17
Construction No. 63153 Line No. 6311 Series 800
ADSHEX 4070EA Airline name Jet2 Owner N/A
Airfield based Leeds-Bradford~Yorks~G First tracked N/A

Flight history for G-JZHW

Route Flight No Date Playback
Gran Canaria (LPA) - Glasgow (GLA) LS144 2022-08-12 01:16:00
Glasgow (GLA) - Gran Canaria (LPA) LS143 2022-08-11 20:08:00
Luqa (MLA) - Glasgow (GLA) LS132 2022-08-11 14:14:00
Glasgow (GLA) - Luqa (MLA) LS131 2022-08-11 10:33:00
Pafos Intl (PFO) - Glasgow (GLA) LS158 2022-08-11 02:36:00
Glasgow (GLA) - Pafos Intl (PFO) LS157 2022-08-10 20:24:00
Ibiza (IBZ) - Glasgow (GLA) LS120 2022-08-10 15:19:00
Glasgow (GLA) - Ibiza (IBZ) LS119 2022-08-10 10:43:00
Tenerife Sur (TFS) - Glasgow (GLA) LS156 2022-08-10 00:18:00
Glasgow (GLA) - Tenerife Sur (TFS) LS155 2022-08-09 18:57:00
Menorca (MAH) - Glasgow (GLA) LS146 2022-08-09 12:38:00
Glasgow (GLA) - Menorca (MAH) LS145 2022-08-09 09:51:00
Tenerife Sur (TFS) - Glasgow (GLA) LS156 2022-08-09 00:29:00
Glasgow (GLA) - Tenerife Sur (TFS) LS155 2022-08-08 19:00:00
Faro (FAO) - Glasgow (GLA) LS174 2022-08-08 13:08:00
Glasgow (GLA) - Faro (FAO) LS173 2022-08-08 08:43:00
Antalya (AYT) - Glasgow (GLA) LS110 2022-08-08 01:35:00
Glasgow (GLA) - Antalya (AYT) LS109 2022-08-07 19:35:00
Alicante (ALC) - Glasgow (GLA) LS178 2022-08-07 13:38:00
Glasgow (GLA) - Alicante (ALC) LS177 2022-08-07 10:26:00
Time Lat Lon Altitude Heading Speed Vertical Rate
2022-06-26 14:18:07 GMT 51.889240 0.255506 0 222 0 0
2022-06-26 14:17:52 GMT 51.889240 0.255508 0 222 0 0
2022-06-26 14:17:43 GMT 51.889256 0.255508 0 222 2 0
2022-06-26 14:17:25 GMT 51.889526 0.255915 0 199 6 0
2022-06-26 14:17:22 GMT 51.889584 0.255989 0 174 6 0
2022-06-26 14:17:11 GMT 51.889893 0.255661 0 132 16 0
2022-06-26 14:16:58 GMT 51.890629 0.254383 0 224 141 0
2022-06-26 14:16:50 GMT 51.891033 0.253658 0 135 15 0
2022-06-26 14:16:49 GMT 51.891186 0.253410 0 135 15 0
2022-06-26 14:16:47 GMT 51.891186 0.253410 0 132 15 0
2022-06-26 14:16:45 GMT 51.891361 0.253105 0 126 14 0
2022-06-26 14:16:43 GMT 51.891403 0.253020 0 118 13 0
2022-06-26 14:16:41 GMT 51.891476 0.252438 0 67 13 0
2022-06-26 14:16:35 GMT 51.891476 0.252438 0 64 13 0
2022-06-26 14:16:31 GMT 51.891335 0.252110 0 42 18 0
2022-06-26 14:16:25 GMT 51.890755 0.251255 0 42 28 0
2022-06-26 14:16:23 GMT 51.890755 0.251255 0 42 28 0
2022-06-26 14:16:19 GMT 51.890259 0.250514 0 45 28 0
2022-06-26 14:16:13 GMT 51.889915 0.249995 0 42 29 0
2022-06-26 14:16:11 GMT 51.889721 0.249716 0 45 29 0
2022-06-26 14:16:08 GMT 51.889427 0.249271 0 45 29 0
2022-06-26 14:16:07 GMT 51.889301 0.249062 0 45 29 0
2022-06-26 14:16:03 GMT 51.888897 0.248473 0 42 29 0
2022-06-26 14:16:00 GMT 51.888649 0.248089 0 42 29 0
2022-06-26 14:15:55 GMT 51.888165 0.247359 0 45 29 0
2022-06-26 14:15:51 GMT 51.887592 0.246506 0 42 30 0
2022-06-26 14:15:44 GMT 51.887043 0.245686 0 42 30 0
2022-06-26 14:15:42 GMT 51.886787 0.245304 0 42 30 0
2022-06-26 14:15:38 GMT 51.886391 0.244706 0 224 141 0
2022-06-26 14:15:35 GMT 51.886139 0.244334 0 42 30 0
2022-06-26 14:15:33 GMT 51.885933 0.244019 0 45 29 0
2022-06-26 14:15:31 GMT 51.885750 0.243740 0 45 29 0
2022-06-26 14:15:29 GMT 51.885460 0.243320 0 45 29 0
2022-06-26 14:15:28 GMT 51.885460 0.243320 0 45 29 0
2022-06-26 14:15:27 GMT 51.885212 0.242924 0 42 29 0
2022-06-26 14:15:21 GMT 51.884720 0.242200 0 42 29 0
2022-06-26 14:15:17 GMT 51.884239 0.241477 0 42 28 0
2022-06-26 14:15:16 GMT 51.884239 0.241477 0 42 27 0
2022-06-26 14:15:12 GMT 51.883919 0.240994 0 42 27 0
2022-06-26 14:15:10 GMT 51.883713 0.240679 0 42 27 0
2022-06-26 14:15:09 GMT 51.883644 0.240586 0 42 27 0
2022-06-26 14:15:07 GMT 51.883450 0.240307 0 42 26 0
2022-06-26 14:15:05 GMT 51.883308 0.240078 0 42 26 0
2022-06-26 14:15:02 GMT 51.883049 0.239695 0 42 25 0
2022-06-26 14:15:01 GMT 51.882912 0.239487 0 42 24 0
2022-06-26 14:14:59 GMT 51.882694 0.239157 0 42 23 0
2022-06-26 14:14:55 GMT 51.882431 0.238767 0 42 21 0
2022-06-26 14:14:51 GMT 51.882156 0.238361 0 42 19 0
2022-06-26 14:14:50 GMT 51.882008 0.238136 0 42 18 0
2022-06-26 14:14:47 GMT 51.881851 0.237904 0 42 16 0
2022-06-26 14:14:41 GMT 51.881630 0.237542 0 59 15 0
2022-06-26 14:14:39 GMT 51.881516 0.236893 0 115 16 0
2022-06-26 14:14:35 GMT 51.881516 0.236893 0 115 16 0
2022-06-26 14:14:34 GMT 51.881538 0.236835 0 120 16 0
2022-06-26 14:14:31 GMT 51.881641 0.236549 0 132 16 0
2022-06-26 14:14:29 GMT 51.881714 0.236416 0 135 17 0
2022-06-26 14:14:28 GMT 51.881813 0.236243 0 135 19 0
2022-06-26 14:14:24 GMT 51.882061 0.235825 0 132 17 0
2022-06-26 14:14:23 GMT 51.882107 0.235729 0 132 17 0
2022-06-26 14:14:21 GMT 51.882156 0.235631 0 132 17 0
2022-06-26 14:14:19 GMT 51.882271 0.235443 0 135 18 0
2022-06-26 14:14:17 GMT 51.882374 0.235260 0 137 19 0
2022-06-26 14:14:15 GMT 51.882465 0.235130 0 149 19 0
2022-06-26 14:14:14 GMT 51.882557 0.235018 0 160 20 0
2022-06-26 14:14:13 GMT 51.882702 0.234966 0 171 21 0
2022-06-26 14:14:11 GMT 51.883026 0.234947 0 191 26 0
2022-06-26 14:14:09 GMT 51.883026 0.234947 0 191 26 0
2022-06-26 14:14:05 GMT 51.884045 0.235315 0 194 38 0
2022-06-26 14:14:02 GMT 51.884045 0.235315 0 191 40 0
2022-06-26 14:13:58 GMT 51.884697 0.235557 0 194 42 0
2022-06-26 14:13:56 GMT 51.885590 0.236092 0 205 47 0
2022-06-26 14:13:52 GMT 51.885784 0.236263 0 208 49 0
2022-06-26 14:13:47 GMT 51.887466 0.238526 0 222 84 0
2022-06-26 14:13:44 GMT 51.887466 0.238526 0 222 84 0
2022-06-26 14:13:38 GMT 51.889435 0.241402 325 223 142 -384
2022-06-26 14:13:35 GMT 51.891174 0.243988 325 223 142 -384
2022-06-26 14:13:34 GMT 51.891174 0.243988 325 223 142 -384
2022-06-26 14:13:28 GMT 51.893780 0.247977 375 223 142 -384
2022-06-26 14:13:25 GMT 51.895523 0.250626 425 224 143 -640
2022-06-26 14:13:24 GMT 51.896027 0.251312 425 224 143 -640
2022-06-26 14:13:22 GMT 51.896942 0.252762 450 224 145 -576
2022-06-26 14:13:21 GMT 51.897400 0.253448 475 224 145 -576
2022-06-26 14:13:18 GMT 51.898903 0.255668 500 223 144 -576
2022-06-26 14:13:17 GMT 51.899647 0.256766 500 224 143 -640
2022-06-26 14:13:15 GMT 51.900513 0.258102 525 224 144 -704
2022-06-26 14:13:13 GMT 51.901463 0.259513 550 224 144 -832
2022-06-26 14:13:11 GMT 51.902161 0.260611 575 224 142 -768
2022-06-26 14:13:10 GMT 51.902950 0.261789 600 223 140 -704
2022-06-26 14:13:09 GMT 51.903465 0.262573 600 223 140 -704
2022-06-26 14:13:07 GMT 51.904358 0.263901 625 223 139 -768
2022-06-26 14:13:06 GMT 51.905838 0.266105 675 223 138 -960
2022-06-26 14:13:04 GMT 51.905838 0.266105 675 223 137 -1024
2022-06-26 14:13:02 GMT 51.906769 0.267517 700 223 137 -1088
2022-06-26 14:13:01 GMT 51.907333 0.268402 725 223 139 -1088
2022-06-26 14:12:59 GMT 51.908157 0.269623 775 223 140 -960
2022-06-26 14:12:57 GMT 51.909164 0.271149 800 223 141 -832
2022-06-26 14:12:55 GMT 51.910076 0.272461 800 223 145 -512
2022-06-26 14:12:53 GMT 51.911098 0.274030 825 224 145 -704
2022-06-26 14:12:51 GMT 51.912094 0.275497 850 224 144 -768
2022-06-26 14:12:49 GMT 51.913605 0.277786 900 224 141 -640
2022-06-26 14:12:47 GMT 51.914566 0.279236 925 224 140 -832
2022-06-26 14:12:42 GMT 51.915802 0.281067 950 224 141 -704
2022-06-26 14:12:41 GMT 51.916443 0.282135 975 223 140 -768
2022-06-26 14:12:39 GMT 51.917404 0.283508 1,000 223 141 -832
2022-06-26 14:12:38 GMT 51.918320 0.284882 1,025 223 142 -960
2022-06-26 14:12:36 GMT 51.918777 0.285645 1,025 224 143 -1024
2022-06-26 14:12:34 GMT 51.919758 0.287057 1,075 224 143 -960
2022-06-26 14:12:33 GMT 51.920830 0.288705 1,100 224 142 -832
2022-06-26 14:12:31 GMT 51.921387 0.289536 1,125 223 141 -832
2022-06-26 14:12:30 GMT 51.922318 0.290902 1,150 223 140 -832
2022-06-26 14:12:26 GMT 51.923622 0.292864 1,175 224 141 -704
2022-06-26 14:12:24 GMT 51.925140 0.295181 1,200 224 143 -576
2022-06-26 14:12:21 GMT 51.926086 0.296709 1,250 224 143 -832
2022-06-26 14:12:20 GMT 51.926559 0.297318 1,250 224 143 -832
2022-06-26 14:12:17 GMT 51.928070 0.299606 1,300 223 142 -384
2022-06-26 14:12:15 GMT 51.929394 0.301653 1,300 223 142 -384
2022-06-26 14:12:14 GMT 51.929951 0.302438 1,325 223 142 -704
2022-06-26 14:12:11 GMT 51.931229 0.304260 1,350 223 140 -640
2022-06-26 14:12:09 GMT 51.932140 0.305655 1,350 223 140 -576
2022-06-26 14:12:08 GMT 51.932831 0.306702 1,375 224 138 -576
2022-06-26 14:12:06 GMT 51.933395 0.307539 1,400 224 138 -576
2022-06-26 14:12:05 GMT 51.933838 0.308228 1,400 224 137 -640
2022-06-26 14:12:04 GMT 51.935440 0.310669 1,425 223 136 -704
2022-06-26 14:12:02 GMT 51.935440 0.310669 1,450 223 136 -704
2022-06-26 14:12:00 GMT 51.936844 0.312718 1,475 223 135 -640
2022-06-26 14:11:57 GMT 51.937363 0.313492 1,475 223 136 -640
2022-06-26 14:11:56 GMT 51.938099 0.314601 1,500 223 138 -640
2022-06-26 14:11:54 GMT 51.939030 0.316014 1,525 223 138 -704
2022-06-26 14:11:52 GMT 51.940006 0.317426 1,550 223 140 -832
2022-06-26 14:11:51 GMT 51.940521 0.318133 1,550 223 141 -832
2022-06-26 14:11:49 GMT 51.941574 0.319748 1,600 224 142 -768
2022-06-26 14:11:48 GMT 51.942032 0.320435 1,600 224 144 -704
2022-06-26 14:11:45 GMT 51.943451 0.322571 1,625 224 145 -640
2022-06-26 14:11:44 GMT 51.943909 0.323334 1,650 224 146 -768
2022-06-26 14:11:43 GMT 51.944336 0.324018 1,650 224 146 -768
2022-06-26 14:11:40 GMT 51.946289 0.326920 1,700 224 147 -832
2022-06-26 14:11:37 GMT 51.947037 0.328099 1,725 223 150 -704
2022-06-26 14:11:36 GMT 51.947735 0.329119 1,750 223 150 -704
2022-06-26 14:11:35 GMT 51.948257 0.329895 1,750 223 150 -768
2022-06-26 14:11:34 GMT 51.949631 0.331955 1,800 223 153 -832
2022-06-26 14:11:31 GMT 51.950363 0.333023 1,800 223 153 -832
2022-06-26 14:11:30 GMT 51.950867 0.333786 1,825 223 155 -768
2022-06-26 14:11:28 GMT 51.951923 0.335397 1,825 224 156 -768
2022-06-26 14:11:26 GMT 51.953228 0.337359 1,875 224 158 -1088
2022-06-26 14:11:24 GMT 51.954346 0.339085 1,925 224 159 -768
2022-06-26 14:11:22 GMT 51.955124 0.340271 1,925 224 159 -768
2022-06-26 14:11:21 GMT 51.955948 0.341568 1,950 224 160 -896
2022-06-26 14:11:19 GMT 51.957001 0.343166 2,000 223 160 -1024
2022-06-26 14:11:17 GMT 51.957733 0.344238 2,000 223 159 -960
2022-06-26 14:11:15 GMT 51.959061 0.346298 2,050 223 158 -960
2022-06-26 14:11:12 GMT 51.960350 0.348188 2,100 223 156 -896
2022-06-26 14:11:09 GMT 51.961945 0.350571 2,125 223 155 -768
2022-06-26 14:11:08 GMT 51.962494 0.351410 2,150 224 154 -640
2022-06-26 14:11:06 GMT 51.964073 0.353760 2,175 224 154 -768
2022-06-26 14:11:05 GMT 51.964493 0.354388 2,175 224 154 -768
2022-06-26 14:11:03 GMT 51.965565 0.356036 2,200 223 154 -768
2022-06-26 14:11:02 GMT 51.966019 0.356750 2,225 223 154 -768
2022-06-26 14:10:59 GMT 51.969429 0.361843 2,300 223 153 -768
2022-06-26 14:10:55 GMT 51.969429 0.361843 2,300 223 152 -704
2022-06-26 14:10:54 GMT 51.970139 0.362930 2,325 223 152 -704
2022-06-26 14:10:53 GMT 51.971569 0.365060 2,350 223 152 -704
2022-06-26 14:10:51 GMT 51.971569 0.365060 2,350 223 152 -704
2022-06-26 14:10:49 GMT 51.972290 0.366135 2,425 224 152 -768
2022-06-26 14:10:46 GMT 51.974304 0.369186 2,425 224 152 -832
2022-06-26 14:10:43 GMT 51.975769 0.371399 2,450 223 152 -832
2022-06-26 14:10:41 GMT 51.977142 0.373535 2,500 223 152 -896
2022-06-26 14:10:39 GMT 51.977623 0.374241 2,525 223 153 -896
2022-06-26 14:10:38 GMT 51.978424 0.375443 2,525 223 154 -960
2022-06-26 14:10:34 GMT 51.980183 0.378087 2,600 223 155 -960
2022-06-26 14:10:30 GMT 51.982368 0.381383 2,650 223 155 -832
2022-06-26 14:10:28 GMT 51.982929 0.382167 2,675 224 156 -896
2022-06-26 14:10:26 GMT 51.985703 0.386429 2,725 223 157 -832
2022-06-26 14:10:24 GMT 51.985703 0.386429 2,750 223 158 -832
2022-06-26 14:10:22 GMT 51.986664 0.387878 2,775 223 159 -832
2022-06-26 14:10:20 GMT 51.988129 0.390091 2,800 223 159 -832
2022-06-26 14:10:17 GMT 51.989227 0.391693 2,825 223 159 -768
2022-06-26 14:10:14 GMT 51.991123 0.394488 2,900 224 164 -640
2022-06-26 14:10:10 GMT 51.994987 0.400452 2,975 225 167 -1216
2022-06-26 14:10:07 GMT 51.994987 0.400452 2,975 224 167 -1088
2022-06-26 14:10:06 GMT 51.995544 0.401315 3,000 224 167 -1088
2022-06-26 14:10:04 GMT 51.996689 0.403061 3,025 224 167 -1088
2022-06-26 14:10:02 GMT 51.997501 0.404375 3,050 225 166 -1152
2022-06-26 14:10:01 GMT 51.998337 0.405631 3,075 223 167 -960
2022-06-26 14:09:59 GMT 51.999130 0.406887 3,100 223 167 -960
2022-06-26 14:09:56 GMT 52.001129 0.409869 3,175 224 167 -1344
2022-06-26 14:09:55 GMT 52.002823 0.412369 3,225 225 166 -1408
2022-06-26 14:09:53 GMT 52.002823 0.412369 3,250 225 167 -1280
2022-06-26 14:09:51 GMT 52.004105 0.414429 3,300 225 166 -1536
2022-06-26 14:09:48 GMT 52.005203 0.416183 3,350 225 166 -1536
2022-06-26 14:09:46 GMT 52.006298 0.417951 3,450 224 166 -1472
2022-06-26 14:09:44 GMT 52.007812 0.420303 3,500 224 168 -1408
2022-06-26 14:09:41 GMT 52.009277 0.422581 3,550 223 169 -1152
2022-06-26 14:09:39 GMT 52.010605 0.424576 3,575 222 171 -640
2022-06-26 14:09:36 GMT 52.013260 0.428467 3,625 222 171 -640
2022-06-26 14:09:34 GMT 52.013260 0.428467 3,625 222 170 -640
2022-06-26 14:09:32 GMT 52.014816 0.430743 3,650 221 172 -768
2022-06-26 14:09:30 GMT 52.015961 0.432358 3,700 221 173 -1024
2022-06-26 14:09:28 GMT 52.019054 0.436628 3,775 215 176 -1152
2022-06-26 14:09:25 GMT 52.019054 0.436628 3,775 215 176 -1152
2022-06-26 14:09:24 GMT 52.019844 0.437570 3,800 213 177 -1280
2022-06-26 14:09:23 GMT 52.020496 0.438354 3,825 213 177 -1280
2022-06-26 14:09:20 GMT 52.022171 0.440238 3,875 209 175 -1408
2022-06-26 14:09:17 GMT 52.024567 0.442200 4,025 197 176 -1728
2022-06-26 14:09:14 GMT 52.027359 0.443497 4,075 187 180 -1728
2022-06-26 14:09:10 GMT 52.030701 0.443878 4,175 171 184 -1728
2022-06-26 14:09:08 GMT 52.031525 0.443802 4,225 165 186 -1920
2022-06-26 14:09:06 GMT 52.033253 0.443377 4,275 160 188 -2176
2022-06-26 14:09:05 GMT 52.034271 0.442963 4,300 158 188 -2304
2022-06-26 14:09:02 GMT 52.036469 0.441666 4,400 153 188 -1920
2022-06-26 14:09:01 GMT 52.038208 0.440369 4,550 140 188 -1024
2022-06-26 14:08:58 GMT 52.039673 0.439072 4,525 136 190 -640
2022-06-26 14:08:56 GMT 52.041092 0.437546 4,600 136 190 -640
2022-06-26 14:08:53 GMT 52.042831 0.435410 4,600 136 190 -640
2022-06-26 14:08:52 GMT 52.043819 0.433803 4,600 132 192 -384
2022-06-26 14:08:50 GMT 52.045853 0.430145 4,625 129 194 -384
2022-06-26 14:08:47 GMT 52.046379 0.429173 4,625 128 195 -448
2022-06-26 14:08:45 GMT 52.047821 0.426178 4,675 128 199 -384
2022-06-26 14:08:43 GMT 52.049126 0.423523 4,725 129 200 -576
2022-06-26 14:08:41 GMT 52.051407 0.418971 4,725 129 201 -832
2022-06-26 14:08:38 GMT 52.052059 0.417716 4,725 130 209 -960
2022-06-26 14:08:36 GMT 52.054573 0.412929 4,775 130 209 -960
2022-06-26 14:08:34 GMT 52.054573 0.412929 4,825 130 209 -960
2022-06-26 14:08:31 GMT 52.059036 0.404282 4,900 130 210 -1152
2022-06-26 14:08:28 GMT 52.059036 0.404282 4,950 130 216 -896
2022-06-26 14:08:25 GMT 52.060318 0.401917 4,975 130 216 -896
2022-06-26 14:08:23 GMT 52.061234 0.400162 5,050 130 216 -896
2022-06-26 14:08:21 GMT 52.063110 0.396576 5,050 129 219 -1280
2022-06-26 14:08:19 GMT 52.064396 0.394095 5,075 129 219 -1280
2022-06-26 14:08:17 GMT 52.065281 0.392369 5,100 128 219 -1408
2022-06-26 14:08:16 GMT 52.066864 0.389328 5,125 127 222 -1536
2022-06-26 14:08:14 GMT 52.067459 0.388031 5,200 125 223 -1600
2022-06-26 14:08:13 GMT 52.068649 0.385513 5,225 124 224 -1600
2022-06-26 14:08:11 GMT 52.069328 0.384051 5,275 121 228 -1472
2022-06-26 14:08:08 GMT 52.070755 0.380249 5,325 117 230 -896
2022-06-26 14:08:06 GMT 52.071625 0.377884 5,325 111 236 -448
2022-06-26 14:08:05 GMT 52.072540 0.374791 5,350 109 237 -512
2022-06-26 14:08:02 GMT 52.073380 0.371259 5,350 105 239 -832
2022-06-26 14:08:01 GMT 52.073914 0.368729 5,400 100 241 -1088
2022-06-26 14:07:59 GMT 52.074406 0.365217 5,425 98 242 -1280
2022-06-26 14:07:58 GMT 52.074589 0.363412 5,450 94 244 -1792
2022-06-26 14:07:55 GMT 52.074917 0.357762 5,550 88 248 -2048
2022-06-26 14:07:54 GMT 52.074963 0.354231 5,625 82 250 -1984
2022-06-26 14:07:51 GMT 52.074821 0.350464 5,675 82 250 -1984
2022-06-26 14:07:50 GMT 52.074600 0.348053 5,725 78 252 -1856
2022-06-26 14:07:48 GMT 52.074265 0.344657 5,775 74 254 -1984
2022-06-26 14:07:46 GMT 52.073891 0.342067 5,825 72 254 -2112
2022-06-26 14:07:45 GMT 52.073334 0.338928 5,900 68 255 -2112
2022-06-26 14:07:43 GMT 52.072540 0.335312 5,950 64 256 -2112
2022-06-26 14:07:42 GMT 52.072083 0.333557 6,000 62 257 -2112
2022-06-26 14:07:40 GMT 52.071053 0.330061 6,075 58 258 -2176
2022-06-26 14:07:38 GMT 52.069656 0.326215 6,150 54 260 -2112
2022-06-26 14:07:35 GMT 52.068008 0.322189 6,250 49 263 -2176
2022-06-26 14:07:34 GMT 52.067184 0.320511 6,275 49 263 -2176
2022-06-26 14:07:33 GMT 52.066769 0.319702 6,325 49 263 -2112
2022-06-26 14:07:30 GMT 52.064758 0.315781 6,375 47 265 -1408
2022-06-26 14:07:29 GMT 52.063477 0.313416 6,400 47 265 -1408
2022-06-26 14:07:28 GMT 52.062489 0.311698 6,425 47 267 -896
2022-06-26 14:07:27 GMT 52.061554 0.310059 6,450 47 268 -832
2022-06-26 14:07:26 GMT 52.059906 0.307083 6,475 47 270 -1088
2022-06-26 14:07:23 GMT 52.058624 0.304794 6,500 48 271 -1280
2022-06-26 14:07:22 GMT 52.056976 0.301819 6,550 48 272 -1728
2022-06-26 14:07:21 GMT 52.055595 0.299377 6,600 48 273 -1664
2022-06-26 14:07:19 GMT 52.054760 0.297808 6,625 48 274 -1856
2022-06-26 14:07:18 GMT 52.053589 0.295715 6,675 48 275 -1856
2022-06-26 14:07:16 GMT 52.051037 0.291059 6,750 48 276 -1728
2022-06-26 14:07:14 GMT 52.051037 0.291059 6,825 48 277 -1664
2022-06-26 14:07:12 GMT 52.049500 0.288313 6,825 48 278 -1664
2022-06-26 14:07:10 GMT 52.047356 0.284389 6,900 48 279 -1856
2022-06-26 14:07:09 GMT 52.046585 0.282974 6,925 48 279 -1984
2022-06-26 14:07:07 GMT 52.044891 0.279837 7,000 48 279 -2368
2022-06-26 14:07:05 GMT 52.043076 0.276542 7,075 48 280 -2432
2022-06-26 14:07:04 GMT 52.041458 0.273590 7,375 48 281 -2496
2022-06-26 14:07:01 GMT 52.039536 0.270107 7,375 48 281 -2496
2022-06-26 14:06:59 GMT 52.038235 0.267753 7,375 48 281 -2496
2022-06-26 14:06:57 GMT 52.036240 0.264206 7,400 48 281 -2496
2022-06-26 14:06:55 GMT 52.034508 0.261004 7,525 48 281 -2624
2022-06-26 14:06:54 GMT 52.033577 0.259277 7,525 48 281 -2688
2022-06-26 14:06:52 GMT 52.031483 0.255511 7,650 48 281 -2816
2022-06-26 14:06:51 GMT 52.029667 0.252215 7,750 48 281 -2816
2022-06-26 14:06:49 GMT 52.028969 0.250959 7,775 48 280 -2816
2022-06-26 14:06:48 GMT 52.028183 0.249557 7,825 48 279 -2816
2022-06-26 14:06:45 GMT 52.025291 0.244210 8,000 48 279 -2944
2022-06-26 14:06:42 GMT 52.023376 0.240784 8,100 48 279 -3008
2022-06-26 14:06:40 GMT 52.020905 0.236282 8,225 48 279 -3008
2022-06-26 14:06:39 GMT 52.018982 0.232849 8,325 48 279 -3008
2022-06-26 14:06:36 GMT 52.018250 0.231476 8,475 48 278 -2944
2022-06-26 14:06:35 GMT 52.016922 0.229111 8,525 48 278 -2880
2022-06-26 14:06:33 GMT 52.015549 0.226669 8,550 48 278 -2816
2022-06-26 14:06:31 GMT 52.013855 0.223541 8,675 48 278 -2816
2022-06-26 14:06:29 GMT 52.011520 0.219345 8,775 48 277 -2752
2022-06-26 14:06:27 GMT 52.010239 0.217056 8,825 48 277 -2816
2022-06-26 14:06:26 GMT 52.008453 0.213776 9,000 48 277 -2752
2022-06-26 14:06:23 GMT 52.007183 0.211487 9,000 48 277 -2688
2022-06-26 14:06:21 GMT 52.005226 0.207955 9,100 48 277 -2560
2022-06-26 14:06:20 GMT 52.004341 0.206386 9,150 48 278 -2496
2022-06-26 14:06:19 GMT 52.003410 0.204660 9,175 48 278 -2432
2022-06-26 14:06:17 GMT 52.001690 0.201521 9,275 48 278 -2432
2022-06-26 14:06:16 GMT 52.000759 0.199873 9,325 48 278 -2432
2022-06-26 14:06:14 GMT 51.999222 0.197048 9,375 48 279 -2432
2022-06-26 14:06:13 GMT 51.996338 0.191711 9,525 48 279 -2304
2022-06-26 14:06:11 GMT 51.995453 0.190142 9,550 48 280 -2176
2022-06-26 14:06:09 GMT 51.993759 0.186996 9,625 48 281 -2240
2022-06-26 14:06:06 GMT 51.992020 0.183868 9,725 48 281 -2368
2022-06-26 14:06:03 GMT 51.987213 0.175018 9,875 48 284 -2560
2022-06-26 14:06:00 GMT 51.987213 0.175018 10,100 48 284 -2560
2022-06-26 14:05:57 GMT 51.984417 0.169896 10,075 48 284 -2496
2022-06-26 14:05:55 GMT 51.982277 0.165894 10,600 49 292 -1408
2022-06-26 14:05:52 GMT 51.980484 0.162506 10,600 49 292 -1408
2022-06-26 14:05:49 GMT 51.976685 0.155411 10,600 49 292 -1408
2022-06-26 14:05:46 GMT 51.974854 0.152054 10,600 49 292 -1408
2022-06-26 14:05:43 GMT 51.972015 0.146790 10,600 49 292 -1408
2022-06-26 14:05:40 GMT 51.969894 0.142822 10,625 49 292 -1344
2022-06-26 14:05:38 GMT 51.967705 0.138742 10,700 49 294 -1344
2022-06-26 14:05:36 GMT 51.966076 0.135681 10,700 49 294 -1344
2022-06-26 14:05:33 GMT 51.963409 0.130692 10,775 49 299 -1024
2022-06-26 14:05:31 GMT 51.961048 0.126343 10,875 49 299 -1024
2022-06-26 14:05:28 GMT 51.958817 0.122105 10,875 48 301 -1088
2022-06-26 14:05:26 GMT 51.956818 0.118408 10,900 48 301 -1088
2022-06-26 14:05:23 GMT 51.954067 0.113316 10,950 48 302 -1152
2022-06-26 14:05:21 GMT 51.952251 0.109942 11,025 48 306 -512
2022-06-26 14:05:18 GMT 51.946850 0.099976 11,050 48 307 -320
2022-06-26 14:05:15 GMT 51.946850 0.099976 11,050 48 308 -320
2022-06-26 14:05:13 GMT 51.945545 0.097543 11,050 48 308 -384
2022-06-26 14:05:11 GMT 51.940426 0.088126 11,100 48 311 -640
2022-06-26 14:05:08 GMT 51.937180 0.082169 11,175 48 316 -576
2022-06-26 14:05:05 GMT 51.937180 0.082169 11,175 48 316 -576
2022-06-26 14:05:02 GMT 51.934700 0.077611 11,175 48 316 -576
2022-06-26 14:05:00 GMT 51.929485 0.067958 11,225 48 320 -896
2022-06-26 14:04:57 GMT 51.928024 0.065231 11,300 48 320 -896
2022-06-26 14:04:55 GMT 51.928024 0.065231 11,300 48 320 -896
2022-06-26 14:04:52 GMT 51.924690 0.059169 11,300 48 323 -1472
2022-06-26 14:04:50 GMT 51.922714 0.055542 11,350 48 323 -1472
2022-06-26 14:04:47 GMT 51.920654 0.051727 11,425 48 323 -1472
2022-06-26 14:04:45 GMT 51.917633 0.046082 11,475 48 323 -1408
2022-06-26 14:04:43 GMT 51.915848 0.042877 11,475 48 328 -640
2022-06-26 14:04:39 GMT 51.911983 0.035784 11,550 48 328 -640
2022-06-26 14:04:37 GMT 51.910027 0.032096 11,575 48 328 -640
2022-06-26 14:04:35 GMT 51.906910 0.026367 11,650 48 330 -512
2022-06-26 14:04:31 GMT 51.904163 0.021423 11,650 48 334 -384
2022-06-26 14:04:29 GMT 51.900284 0.014343 11,650 47 335 -320
2022-06-26 14:04:26 GMT 51.896111 0.006906 11,700 47 338 -384
2022-06-26 14:04:24 GMT 51.896111 0.006906 11,700 45 339 -448
2022-06-26 14:04:21 GMT 51.893738 0.002823 11,700 42 341 -576
2022-06-26 14:04:19 GMT 51.891499 -0.000763 11,725 39 343 -704
2022-06-26 14:04:16 GMT 51.887375 -0.006384 11,750 33 346 -832
2022-06-26 14:04:14 GMT 51.885590 -0.008537 11,775 29 348 -832
2022-06-26 14:04:11 GMT 51.876789 -0.017166 11,850 27 351 -704
2022-06-26 14:04:08 GMT 51.876789 -0.017166 11,850 26 351 -576
2022-06-26 14:04:05 GMT 51.872406 -0.020562 11,900 23 356 -640
2022-06-26 14:04:02 GMT 51.868504 -0.023346 11,925 23 354 -576
2022-06-26 14:04:00 GMT 51.864899 -0.025907 11,950 23 357 -704
2022-06-26 14:03:57 GMT 51.860962 -0.028654 12,150 23 360 -704
2022-06-26 14:03:55 GMT 51.857483 -0.031177 12,150 23 364 -896
2022-06-26 14:03:53 GMT 51.853794 -0.033722 12,150 23 364 -896
2022-06-26 14:03:50 GMT 51.850845 -0.035780 12,150 23 366 -1280
2022-06-26 14:03:48 GMT 51.845924 -0.039291 12,150 23 366 -1280
2022-06-26 14:03:45 GMT 51.842514 -0.041718 12,150 23 366 -1280
2022-06-26 14:03:43 GMT 51.838943 -0.044242 12,300 23 368 -1536
2022-06-26 14:03:41 GMT 51.835499 -0.046616 12,300 23 368 -1600
2022-06-26 14:03:40 GMT 51.834091 -0.047583 12,325 23 368 -1664
2022-06-26 14:03:39 GMT 51.832378 -0.048828 12,350 23 369 -1792
2022-06-26 14:03:37 GMT 51.829239 -0.050997 12,425 23 369 -1856
2022-06-26 14:03:35 GMT 51.826126 -0.053224 12,425 23 369 -1920
2022-06-26 14:03:34 GMT 51.824387 -0.054412 12,500 23 369 -1920
2022-06-26 14:03:33 GMT 51.822975 -0.055389 12,550 23 371 -1536
2022-06-26 14:03:31 GMT 51.820648 -0.057068 12,700 23 371 -1536
2022-06-26 14:03:29 GMT 51.816879 -0.059682 12,700 23 371 -1536
2022-06-26 14:03:26 GMT 51.812454 -0.062714 12,700 23 372 -1536
2022-06-26 14:03:24 GMT 51.805378 -0.067673 12,825 23 373 -1664
2022-06-26 14:03:22 GMT 51.805378 -0.067673 12,825 23 373 -1728
2022-06-26 14:03:19 GMT 51.797279 -0.073318 12,950 23 374 -1664
2022-06-26 14:03:16 GMT 51.797279 -0.073318 13,075 23 374 -1600
2022-06-26 14:03:14 GMT 51.788177 -0.079651 13,075 23 378 -1280
2022-06-26 14:03:11 GMT 51.788177 -0.079651 13,125 23 378 -1280
2022-06-26 14:03:08 GMT 51.784988 -0.081940 13,125 23 378 -1216
2022-06-26 14:03:07 GMT 51.782593 -0.083585 13,225 23 378 -1216
2022-06-26 14:03:05 GMT 51.777924 -0.086851 13,225 23 378 -1216
2022-06-26 14:03:02 GMT 51.775352 -0.088654 13,275 23 378 -1088
2022-06-26 14:03:00 GMT 51.772018 -0.091008 13,375 23 378 -1024
2022-06-26 14:02:58 GMT 51.764969 -0.095982 13,375 23 378 -960
2022-06-26 14:02:54 GMT 51.762039 -0.098060 13,425 23 379 -896
2022-06-26 14:02:52 GMT 51.756920 -0.101700 13,500 23 380 -960
2022-06-26 14:02:49 GMT 51.754169 -0.103607 13,500 23 380 -1024
2022-06-26 14:02:48 GMT 51.752586 -0.104752 13,550 23 380 -1088
2022-06-26 14:02:45 GMT 51.748585 -0.107574 13,550 23 380 -1152
2022-06-26 14:02:44 GMT 51.744370 -0.110606 13,650 23 380 -1216
2022-06-26 14:02:43 GMT 51.744370 -0.110606 13,650 23 380 -1216
2022-06-26 14:02:42 GMT 51.739746 -0.113872 13,700 23 380 -1216
2022-06-26 14:02:40 GMT 51.738098 -0.115060 13,700 23 381 -1152
2022-06-26 14:02:37 GMT 51.733780 -0.118103 13,800 23 381 -1152
2022-06-26 14:02:34 GMT 51.728943 -0.121518 13,825 23 381 -1088
2022-06-26 14:02:31 GMT 51.724098 -0.124969 13,850 23 381 -1024
2022-06-26 14:02:28 GMT 51.719925 -0.127976 13,925 23 381 -1088
2022-06-26 14:02:26 GMT 51.716034 -0.130648 13,975 23 381 -1280
2022-06-26 14:02:24 GMT 51.712788 -0.132980 14,000 23 381 -1280
2022-06-26 14:02:22 GMT 51.710365 -0.134659 14,025 23 381 -1344
2022-06-26 14:02:21 GMT 51.708298 -0.136141 14,050 23 381 -1344
2022-06-26 14:02:20 GMT 51.706650 -0.137255 14,075 23 381 -1280
2022-06-26 14:02:19 GMT 51.701660 -0.140839 14,125 23 381 -1216
2022-06-26 14:02:17 GMT 51.701660 -0.140839 14,200 23 381 -1216
2022-06-26 14:02:14 GMT 51.696819 -0.144272 14,200 23 383 -960
2022-06-26 14:02:12 GMT 51.693420 -0.146637 14,225 23 383 -960
2022-06-26 14:02:11 GMT 51.690350 -0.148773 14,250 23 383 -1024
2022-06-26 14:02:09 GMT 51.688568 -0.150097 14,300 23 383 -1088
2022-06-26 14:02:08 GMT 51.685135 -0.152472 14,325 23 383 -1152
2022-06-26 14:02:05 GMT 51.682068 -0.154625 14,350 23 383 -1152
2022-06-26 14:02:03 GMT 51.678989 -0.156784 14,400 23 384 -1152
2022-06-26 14:02:02 GMT 51.677353 -0.157966 14,425 23 384 -1088
2022-06-26 14:01:59 GMT 51.672180 -0.161603 14,475 23 384 -1024
2022-06-26 14:01:57 GMT 51.668934 -0.163879 14,500 23 384 -1024
2022-06-26 14:01:55 GMT 51.665489 -0.166321 14,550 23 385 -1024
2022-06-26 14:01:53 GMT 51.662231 -0.168610 14,575 23 385 -1024
2022-06-26 14:01:52 GMT 51.660278 -0.169991 14,600 23 385 -1024
2022-06-26 14:01:51 GMT 51.658833 -0.171051 14,600 23 385 -1024
2022-06-26 14:01:49 GMT 51.655563 -0.173332 14,650 23 385 -1024
2022-06-26 14:01:48 GMT 51.651489 -0.176152 14,675 23 385 -1088
2022-06-26 14:01:45 GMT 51.650639 -0.176773 14,700 23 386 -1088
2022-06-26 14:01:43 GMT 51.646587 -0.179672 14,825 23 386 -1088
2022-06-26 14:01:41 GMT 51.642632 -0.182419 14,825 23 386 -1088
2022-06-26 14:01:38 GMT 51.638908 -0.185089 14,825 23 386 -1088
2022-06-26 14:01:37 GMT 51.637070 -0.186322 14,900 23 387 -1088
2022-06-26 14:01:35 GMT 51.633507 -0.188904 14,900 23 387 -1088
2022-06-26 14:01:34 GMT 51.632675 -0.189440 14,900 23 387 -1088
2022-06-26 14:01:33 GMT 51.630890 -0.190702 14,925 23 387 -1088
2022-06-26 14:01:31 GMT 51.626770 -0.193597 14,950 23 388 -1024
2022-06-26 14:01:28 GMT 51.619400 -0.198793 15,025 23 388 -832
2022-06-26 14:01:26 GMT 51.619400 -0.198793 15,025 23 389 -768
2022-06-26 14:01:24 GMT 51.614594 -0.202134 15,075 23 389 -704
2022-06-26 14:01:22 GMT 51.612305 -0.203767 15,075 23 391 -960
2022-06-26 14:01:20 GMT 51.608139 -0.206662 15,125 23 391 -960
2022-06-26 14:01:17 GMT 51.603855 -0.209732 15,175 23 391 -1024
2022-06-26 14:01:15 GMT 51.597244 -0.214382 15,250 23 391 -1088
2022-06-26 14:01:13 GMT 51.595570 -0.215530 15,250 23 392 -896
2022-06-26 14:01:10 GMT 51.592075 -0.217972 15,275 23 392 -896
2022-06-26 14:01:09 GMT 51.590401 -0.219116 15,300 23 393 -832
2022-06-26 14:01:06 GMT 51.584255 -0.223465 15,350 23 394 -832
2022-06-26 14:01:03 GMT 51.576714 -0.228653 15,400 23 395 -960
2022-06-26 14:01:01 GMT 51.576714 -0.228653 15,400 23 395 -960
2022-06-26 14:00:59 GMT 51.573715 -0.230787 15,475 23 395 -960
2022-06-26 14:00:57 GMT 51.569687 -0.233612 15,475 23 395 -1024
2022-06-26 14:00:55 GMT 51.566528 -0.235835 15,500 23 395 -1024
2022-06-26 14:00:52 GMT 51.562317 -0.238730 15,575 23 396 -1024
2022-06-26 14:00:50 GMT 51.556274 -0.242961 15,625 23 396 -1024
2022-06-26 14:00:48 GMT 51.555439 -0.243530 15,675 23 397 -1024
2022-06-26 14:00:46 GMT 51.551205 -0.246429 15,675 23 397 -1088
2022-06-26 14:00:43 GMT 51.548176 -0.248566 15,700 23 397 -1152
2022-06-26 14:00:41 GMT 51.543476 -0.251846 15,750 23 398 -1088
2022-06-26 14:00:39 GMT 51.536041 -0.256991 15,800 23 398 -1088
2022-06-26 14:00:37 GMT 51.536041 -0.256991 15,875 23 398 -1024
2022-06-26 14:00:34 GMT 51.533001 -0.259094 15,950 23 399 -1024
2022-06-26 14:00:32 GMT 51.527893 -0.262633 16,000 23 399 -1088
2022-06-26 14:00:29 GMT 51.522675 -0.266270 15,975 23 399 -1216
2022-06-26 14:00:27 GMT 51.519966 -0.268173 16,100 23 399 -1216
2022-06-26 14:00:24 GMT 51.515217 -0.271454 16,100 23 399 -1216
2022-06-26 14:00:22 GMT 51.511635 -0.273895 16,200 23 400 -1408
2022-06-26 14:00:19 GMT 51.505875 -0.277924 16,200 23 400 -1408
2022-06-26 14:00:16 GMT 51.499763 -0.282211 16,300 23 401 -1408
2022-06-26 14:00:13 GMT 51.495346 -0.285273 16,350 23 400 -1344
2022-06-26 14:00:10 GMT 51.485657 -0.291977 16,475 23 399 -1792
2022-06-26 14:00:07 GMT 51.481049 -0.295181 16,525 23 400 -1600
2022-06-26 14:00:04 GMT 51.481049 -0.295181 16,675 23 399 -1920
2022-06-26 14:00:01 GMT 51.475136 -0.299301 16,700 23 399 -1920
2022-06-26 13:59:58 GMT 51.470062 -0.302887 16,750 23 400 -1920
2022-06-26 13:59:55 GMT 51.463963 -0.307083 16,875 23 401 -2048
2022-06-26 13:59:52 GMT 51.460052 -0.309844 16,925 23 401 -2048
2022-06-26 13:59:49 GMT 51.453278 -0.314521 17,100 23 402 -2112
2022-06-26 13:59:46 GMT 51.443390 -0.321350 17,175 23 402 -2048
2022-06-26 13:59:43 GMT 51.440002 -0.323726 17,300 23 402 -2048
2022-06-26 13:59:40 GMT 51.440002 -0.323726 17,325 23 403 -1984
2022-06-26 13:59:38 GMT 51.433334 -0.328369 18,300 23 404 -2304
2022-06-26 13:59:34 GMT 51.429749 -0.330852 17,600 23 404 -2304
2022-06-26 13:59:32 GMT 51.426304 -0.333252 17,675 23 405 -2112
2022-06-26 13:59:29 GMT 51.421188 -0.336790 17,700 23 404 -2304
2022-06-26 13:59:27 GMT 51.417572 -0.339314 17,775 23 404 -2304
2022-06-26 13:59:25 GMT 51.414154 -0.341721 17,850 23 405 -2112
2022-06-26 13:59:22 GMT 51.408325 -0.345772 18,000 23 404 -2176
2022-06-26 13:59:19 GMT 51.404205 -0.348667 18,075 23 405 -2112
2022-06-26 13:59:17 GMT 51.397209 -0.353546 18,175 23 405 -2112
2022-06-26 13:59:15 GMT 51.392181 -0.356979 18,225 23 406 -2112
2022-06-26 13:59:13 GMT 51.392181 -0.356979 18,375 23 407 -2176
2022-06-26 13:59:10 GMT 51.388409 -0.359650 18,375 23 406 -2176
2022-06-26 13:59:08 GMT 51.384781 -0.362091 18,450 23 406 -2240
2022-06-26 13:59:06 GMT 51.382553 -0.363662 18,500 23 407 -2176
2022-06-26 13:59:04 GMT 51.377377 -0.367279 18,900 23 407 -2112
2022-06-26 13:59:01 GMT 51.372395 -0.370712 18,900 23 407 -1408
2022-06-26 13:58:58 GMT 51.363365 -0.376968 18,875 23 407 -1600
2022-06-26 13:58:55 GMT 51.363365 -0.376968 18,925 23 407 -1408
2022-06-26 13:58:52 GMT 51.357361 -0.381165 18,975 23 407 -1024
2022-06-26 13:58:50 GMT 51.353897 -0.383556 18,975 23 407 -704
2022-06-26 13:58:47 GMT 51.349548 -0.386526 19,000 23 407 -320
2022-06-26 13:58:45 GMT 51.341446 -0.392167 19,000 23 407 0
2022-06-26 13:58:42 GMT 51.341446 -0.392167 19,000 23 407 0
2022-06-26 13:58:40 GMT 51.338333 -0.394320 19,000 23 407 64
2022-06-26 13:58:38 GMT 51.332977 -0.398032 19,000 23 407 64
2022-06-26 13:58:36 GMT 51.329197 -0.400696 19,000 23 407 64
2022-06-26 13:58:33 GMT 51.323841 -0.404358 19,000 23 408 0
2022-06-26 13:58:30 GMT 51.313461 -0.411530 19,000 23 407 64
2022-06-26 13:58:27 GMT 51.309631 -0.414140 19,000 23 407 0
2022-06-26 13:58:24 GMT 51.309631 -0.414140 19,000 23 408 0
2022-06-26 13:58:21 GMT 51.303589 -0.418371 19,000 23 408 0
2022-06-26 13:58:18 GMT 51.299263 -0.421371 19,000 23 408 0
2022-06-26 13:58:16 GMT 51.295807 -0.423716 19,000 23 408 0
2022-06-26 13:58:13 GMT 51.289719 -0.427873 19,000 23 408 0
2022-06-26 13:58:10 GMT 51.283855 -0.431976 19,000 23 408 -64
2022-06-26 13:58:07 GMT 51.280380 -0.434331 19,000 23 408 -64
2022-06-26 13:58:05 GMT 51.275024 -0.438043 19,000 23 407 0
2022-06-26 13:58:02 GMT 51.270168 -0.441437 19,000 23 407 0
2022-06-26 13:57:59 GMT 51.265141 -0.444870 19,000 23 407 0
2022-06-26 13:57:56 GMT 51.260487 -0.448074 19,000 23 407 0
2022-06-26 13:57:54 GMT 51.256165 -0.451108 19,000 23 407 0
2022-06-26 13:57:51 GMT 51.251862 -0.454077 19,000 23 407 0
2022-06-26 13:57:49 GMT 51.248753 -0.456238 19,000 23 407 0
2022-06-26 13:57:47 GMT 51.245270 -0.458605 19,000 23 407 0
2022-06-26 13:57:45 GMT 51.240967 -0.461574 19,000 23 407 0
2022-06-26 13:57:43 GMT 51.237167 -0.464247 19,000 23 406 0
2022-06-26 13:57:40 GMT 51.232319 -0.467606 19,000 23 406 0
2022-06-26 13:57:37 GMT 51.224762 -0.472783 19,000 23 406 64
2022-06-26 13:57:32 GMT 51.215103 -0.479464 19,000 23 406 0
2022-06-26 13:57:30 GMT 51.215103 -0.479464 19,000 23 406 0
2022-06-26 13:57:27 GMT 51.209930 -0.483017 19,000 23 406 0
2022-06-26 13:57:24 GMT 51.203876 -0.487213 19,000 23 406 0
2022-06-26 13:57:21 GMT 51.200455 -0.489560 19,000 23 406 0
2022-06-26 13:57:19 GMT 51.196663 -0.492172 19,000 23 406 0
2022-06-26 13:57:17 GMT 51.193039 -0.494682 19,000 23 406 0
2022-06-26 13:57:15 GMT 51.189587 -0.497055 19,000 23 406 0
2022-06-26 13:57:12 GMT 51.186127 -0.499433 19,000 23 406 0
2022-06-26 13:57:10 GMT 51.181297 -0.502777 19,000 23 406 0
2022-06-26 13:57:07 GMT 51.176319 -0.506210 19,000 23 406 0
2022-06-26 13:57:05 GMT 51.166809 -0.512720 19,000 23 406 0
2022-06-26 13:57:02 GMT 51.161453 -0.516432 19,000 23 406 0
2022-06-26 13:56:59 GMT 51.161453 -0.516432 19,000 23 406 0
2022-06-26 13:56:56 GMT 51.156998 -0.519485 19,000 23 406 0
2022-06-26 13:56:54 GMT 51.148682 -0.525191 19,000 23 406 0
2022-06-26 13:56:51 GMT 51.148682 -0.525191 19,000 23 407 64
2022-06-26 13:56:47 GMT 51.141449 -0.530165 19,000 23 407 64
2022-06-26 13:56:45 GMT 51.138016 -0.532540 19,000 23 407 64
2022-06-26 13:56:42 GMT 51.132660 -0.536177 19,000 23 407 0
2022-06-26 13:56:39 GMT 51.127483 -0.539780 19,000 23 407 -64
2022-06-26 13:56:37 GMT 51.124008 -0.542116 19,000 23 407 -64
2022-06-26 13:56:35 GMT 51.121059 -0.544128 19,000 23 407 0
2022-06-26 13:56:32 GMT 51.115219 -0.548203 19,000 23 407 0
2022-06-26 13:56:30 GMT 51.110870 -0.551172 19,000 23 407 0
2022-06-26 13:56:27 GMT 51.106770 -0.553970 19,000 23 407 0
2022-06-26 13:56:25 GMT 51.102951 -0.556591 19,000 23 407 0
2022-06-26 13:56:22 GMT 51.097786 -0.560150 19,000 23 407 0
2022-06-26 13:56:19 GMT 51.094666 -0.562286 19,000 23 407 0
2022-06-26 13:56:17 GMT 51.090179 -0.565351 19,000 23 407 0
2022-06-26 13:56:15 GMT 51.085831 -0.568320 19,000 23 407 -64
2022-06-26 13:56:13 GMT 51.079956 -0.572357 19,000 23 407 -64
2022-06-26 13:56:11 GMT 51.079956 -0.572357 19,000 23 407 -64
2022-06-26 13:56:08 GMT 51.070496 -0.578861 19,000 23 407 0
2022-06-26 13:56:06 GMT 51.070496 -0.578861 19,000 23 407 0
2022-06-26 13:56:04 GMT 51.066177 -0.581818 19,000 23 407 0
2022-06-26 13:56:01 GMT 51.063034 -0.583908 19,000 23 407 0
2022-06-26 13:55:59 GMT 51.057842 -0.587463 19,000 23 407 0
2022-06-26 13:55:56 GMT 51.050766 -0.592346 19,000 23 407 0
2022-06-26 13:55:54 GMT 51.050766 -0.592346 19,000 23 407 0
2022-06-26 13:55:51 GMT 51.044037 -0.596899 19,000 23 407 0
2022-06-26 13:55:48 GMT 51.040558 -0.599275 19,000 23 407 0
2022-06-26 13:55:46 GMT 51.037128 -0.601654 19,000 23 407 0
2022-06-26 13:55:44 GMT 51.029663 -0.606698 19,000 23 408 0
2022-06-26 13:55:42 GMT 51.029663 -0.606698 19,000 23 408 0
2022-06-26 13:55:40 GMT 51.025360 -0.609667 19,000 23 408 0
2022-06-26 13:55:37 GMT 51.020321 -0.613098 19,000 23 408 0
2022-06-26 13:55:33 GMT 51.015152 -0.616645 19,000 23 408 0
2022-06-26 13:55:31 GMT 51.011490 -0.619094 19,000 23 408 0
2022-06-26 13:55:29 GMT 51.001980 -0.625610 19,000 23 408 0
2022-06-26 13:55:26 GMT 51.001980 -0.625610 19,000 23 408 0
2022-06-26 13:55:24 GMT 50.997803 -0.628448 19,000 23 408 0
2022-06-26 13:55:21 GMT 50.994347 -0.630875 19,000 23 408 0
2022-06-26 13:55:19 GMT 50.989334 -0.634312 19,000 23 408 0
2022-06-26 13:55:16 GMT 50.985176 -0.637131 19,000 23 408 -64
2022-06-26 13:55:14 GMT 50.980801 -0.640106 19,000 23 409 -64
2022-06-26 13:55:12 GMT 50.975967 -0.643443 19,000 23 409 -64
2022-06-26 13:55:09 GMT 50.972511 -0.645828 19,000 23 409 -64
2022-06-26 13:55:07 GMT 50.970043 -0.647507 19,000 23 409 -64
2022-06-26 13:55:05 GMT 50.965389 -0.650711 19,000 23 409 -64
2022-06-26 13:55:03 GMT 50.962273 -0.652847 19,000 23 409 0
2022-06-26 13:55:01 GMT 50.958801 -0.655245 19,000 23 409 0
2022-06-26 13:54:59 GMT 50.950104 -0.661110 19,000 23 409 0
2022-06-26 13:54:56 GMT 50.945930 -0.663986 19,000 23 409 0
2022-06-26 13:54:54 GMT 50.945930 -0.663986 19,000 23 410 0
2022-06-26 13:54:50 GMT 50.938110 -0.669327 19,000 23 409 0
2022-06-26 13:54:47 GMT 50.935501 -0.671082 19,000 23 409 0
2022-06-26 13:54:45 GMT 50.930428 -0.674438 19,000 23 409 0
2022-06-26 13:54:42 GMT 50.924332 -0.678635 19,000 23 409 0
2022-06-26 13:54:39 GMT 50.920532 -0.681227 19,000 23 409 0
2022-06-26 13:54:37 GMT 50.916512 -0.683899 19,000 23 409 0
2022-06-26 13:54:35 GMT 50.912132 -0.686874 19,000 23 409 -64
2022-06-26 13:54:32 GMT 50.907806 -0.689774 19,000 23 409 -64
2022-06-26 13:54:30 GMT 50.905338 -0.691452 19,000 22 410 0
2022-06-26 13:54:28 GMT 50.901855 -0.693772 19,000 22 410 0
2022-06-26 13:54:27 GMT 50.894909 -0.698471 19,000 22 410 0
2022-06-26 13:54:25 GMT 50.891560 -0.700684 19,000 22 410 0
2022-06-26 13:54:23 GMT 50.891560 -0.700684 19,000 22 410 0
2022-06-26 13:54:21 GMT 50.888626 -0.702667 19,000 22 410 0
2022-06-26 13:54:17 GMT 50.882526 -0.706787 19,000 22 410 0
2022-06-26 13:54:15 GMT 50.877453 -0.710144 19,000 22 410 0
2022-06-26 13:54:13 GMT 50.874664 -0.712033 19,000 22 410 0
2022-06-26 13:54:11 GMT 50.870655 -0.714722 19,000 23 410 0
2022-06-26 13:54:09 GMT 50.867157 -0.717081 19,000 23 410 64
2022-06-26 13:54:06 GMT 50.862808 -0.719976 19,000 23 410 64
2022-06-26 13:54:04 GMT 50.860336 -0.721683 19,000 23 410 64
2022-06-26 13:54:02 GMT 50.856503 -0.724258 19,000 22 410 64
2022-06-26 13:54:00 GMT 50.852005 -0.727325 19,000 21 411 64
2022-06-26 13:53:57 GMT 50.847797 -0.730133 19,000 19 411 64
2022-06-26 13:53:55 GMT 50.844269 -0.732298 19,000 20 411 64
2022-06-26 13:53:53 GMT 50.834949 -0.737457 19,000 15 412 64
2022-06-26 13:53:50 GMT 50.834949 -0.737457 19,000 16 411 64
2022-06-26 13:53:48 GMT 50.827103 -0.741132 19,000 13 413 64
2022-06-26 13:53:46 GMT 50.827103 -0.741132 19,000 13 413 64
2022-06-26 13:53:42 GMT 50.819679 -0.744095 19,000 12 413 0
2022-06-26 13:53:40 GMT 50.812225 -0.746476 19,000 9 412 0
2022-06-26 13:53:35 GMT 50.806778 -0.747887 19,000 7 412 -64
2022-06-26 13:53:33 GMT 50.801853 -0.748901 19,000 5 413 -192
2022-06-26 13:53:30 GMT 50.793148 -0.750275 19,050 3 413 -576
2022-06-26 13:53:28 GMT 50.793148 -0.750275 19,050 2 413 -704
2022-06-26 13:53:25 GMT 50.788540 -0.750656 19,100 1 414 -960
2022-06-26 13:53:23 GMT 50.783417 -0.750885 19,100 359 414 -1472
2022-06-26 13:53:20 GMT 50.777458 -0.750809 19,175 357 414 -1856
2022-06-26 13:53:18 GMT 50.769825 -0.750122 19,325 356 415 -2048
2022-06-26 13:53:14 GMT 50.766586 -0.749743 19,375 356 415 -1856
2022-06-26 13:53:12 GMT 50.763725 -0.749359 19,525 356 416 -1792
2022-06-26 13:53:10 GMT 50.758556 -0.748672 19,525 356 416 -1792
2022-06-26 13:53:08 GMT 50.751251 -0.747664 19,575 356 418 -1856
2022-06-26 13:53:06 GMT 50.751251 -0.747664 19,625 356 418 -1856
2022-06-26 13:53:04 GMT 50.746269 -0.746994 19,675 356 418 -1856
2022-06-26 13:53:01 GMT 50.742599 -0.746551 19,800 356 419 -1856
2022-06-26 13:52:59 GMT 50.738354 -0.746002 19,800 356 419 -1856
2022-06-26 13:52:57 GMT 50.733719 -0.745363 19,950 356 421 -1856
2022-06-26 13:52:55 GMT 50.730240 -0.744843 19,950 356 421 -1856
2022-06-26 13:52:53 GMT 50.726944 -0.744472 20,000 356 421 -1856
2022-06-26 13:52:51 GMT 50.722294 -0.743790 20,275 356 424 -2048
2022-06-26 13:52:49 GMT 50.715088 -0.742839 20,300 356 424 -2048
2022-06-26 13:52:47 GMT 50.708084 -0.741948 20,300 356 424 -2048
2022-06-26 13:52:44 GMT 50.704559 -0.741429 20,350 356 424 -2048
2022-06-26 13:52:42 GMT 50.704559 -0.741429 20,400 356 425 -2048
2022-06-26 13:52:39 GMT 50.698883 -0.740686 20,450 356 425 -2048
2022-06-26 13:52:37 GMT 50.695946 -0.740280 20,600 356 426 -1920
2022-06-26 13:52:34 GMT 50.684738 -0.738756 20,675 356 428 -1792
2022-06-26 13:52:32 GMT 50.684738 -0.738756 20,750 356 428 -1792
2022-06-26 13:52:29 GMT 50.675091 -0.737457 20,825 356 429 -1792
2022-06-26 13:52:27 GMT 50.675091 -0.737457 20,925 356 430 -1920
2022-06-26 13:52:24 GMT 50.666943 -0.736455 21,000 356 432 -1984
2022-06-26 13:52:21 GMT 50.662987 -0.735936 21,050 356 432 -2048
2022-06-26 13:52:19 GMT 50.659378 -0.735433 21,125 356 432 -2048
2022-06-26 13:52:17 GMT 50.655025 -0.734896 21,225 356 433 -2048
2022-06-26 13:52:15 GMT 50.650230 -0.734302 21,450 356 435 -1984
2022-06-26 13:52:12 GMT 50.645248 -0.733634 21,350 356 434 -1984
2022-06-26 13:52:09 GMT 50.639431 -0.732892 21,450 356 435 -2048
2022-06-26 13:52:06 GMT 50.628799 -0.731603 21,575 356 436 -2112
2022-06-26 13:52:04 GMT 50.628799 -0.731603 21,600 356 436 -2112
2022-06-26 13:52:02 GMT 50.626007 -0.731241 21,700 356 437 -2112
2022-06-26 13:52:01 GMT 50.622162 -0.730808 21,725 356 437 -2112
2022-06-26 13:51:59 GMT 50.620148 -0.730519 21,800 356 438 -2112
2022-06-26 13:51:58 GMT 50.616119 -0.730085 21,875 356 438 -2112
2022-06-26 13:51:56 GMT 50.613689 -0.729774 21,900 356 439 -2112
2022-06-26 13:51:55 GMT 50.611450 -0.729507 21,975 356 439 -2176
2022-06-26 13:51:54 GMT 50.609032 -0.729255 22,000 356 439 -2176
2022-06-26 13:51:52 GMT 50.604813 -0.728712 22,075 356 440 -2240
2022-06-26 13:51:50 GMT 50.600967 -0.728278 22,125 356 440 -2240
2022-06-26 13:51:46 GMT 50.590210 -0.727049 22,300 356 441 -2112
2022-06-26 13:51:44 GMT 50.590210 -0.727049 22,900 356 442 -2048
2022-06-26 13:51:42 GMT 50.584076 -0.726399 22,900 357 448 -2048
2022-06-26 13:51:40 GMT 50.573685 -0.725242 22,525 356 444 -1920
2022-06-26 13:51:37 GMT 50.573685 -0.725242 22,600 356 444 -1984
2022-06-26 13:51:35 GMT 50.565880 -0.724355 22,675 357 445 -2112
2022-06-26 13:51:33 GMT 50.565880 -0.724355 22,725 357 446 -2112
2022-06-26 13:51:31 GMT 50.562805 -0.723984 22,750 357 446 -2112
2022-06-26 13:51:29 GMT 50.558899 -0.723580 22,850 357 446 -2112
2022-06-26 13:51:25 GMT 50.549057 -0.722496 23,000 357 448 -2048
2022-06-26 13:51:21 GMT 50.540367 -0.721609 23,175 357 448 -2176
2022-06-26 13:51:18 GMT 50.535416 -0.721122 23,250 357 448 -2176
2022-06-26 13:51:16 GMT 50.529194 -0.720421 23,350 357 450 -2240
2022-06-26 13:51:13 GMT 50.524658 -0.719966 23,425 357 449 -2240
2022-06-26 13:51:11 GMT 50.521561 -0.719679 23,550 357 450 -2304
2022-06-26 13:51:08 GMT 50.514671 -0.719011 23,625 357 450 -2304
2022-06-26 13:51:06 GMT 50.508667 -0.718417 23,825 357 451 -2240
2022-06-26 13:51:03 GMT 50.500763 -0.717653 23,825 357 451 -2240
2022-06-26 13:51:01 GMT 50.500763 -0.717653 23,875 357 452 -2240
2022-06-26 13:50:58 GMT 50.493851 -0.717002 24,000 357 452 -2240
2022-06-26 13:50:55 GMT 50.487396 -0.716424 24,150 357 453 -2304
2022-06-26 13:50:52 GMT 50.482178 -0.715991 24,175 357 453 -2304
2022-06-26 13:50:50 GMT 50.477325 -0.715557 24,250 357 454 -2304
2022-06-26 13:50:47 GMT 50.466862 -0.714705 24,525 358 455 -2176
2022-06-26 13:50:45 GMT 50.466862 -0.714705 24,525 358 455 -2176
2022-06-26 13:50:43 GMT 50.462860 -0.714400 24,825 358 460 -2240
2022-06-26 13:50:40 GMT 50.456108 -0.713889 24,675 358 457 -2240
2022-06-26 13:50:37 GMT 50.450008 -0.713369 24,775 358 458 -2368
2022-06-26 13:50:34 GMT 50.443867 -0.712924 24,875 358 458 -2368
2022-06-26 13:50:32 GMT 50.438606 -0.712552 24,975 358 458 -2368
2022-06-26 13:50:29 GMT 50.433746 -0.712160 25,275 358 460 -2240
2022-06-26 13:50:27 GMT 50.426968 -0.711662 25,325 358 460 -2240
2022-06-26 13:50:24 GMT 50.422077 -0.711291 25,275 358 460 -2240
2022-06-26 13:50:22 GMT 50.419327 -0.711076 25,300 358 460 -2240
2022-06-26 13:50:20 GMT 50.414631 -0.710697 26,475 359 462 -2240
2022-06-26 13:50:17 GMT 50.408020 -0.710325 25,525 0 462 -2240
2022-06-26 13:50:15 GMT 50.403786 -0.710177 25,925 0 463 -2304
2022-06-26 13:50:13 GMT 50.397766 -0.710136 25,725 0 464 -2304
2022-06-26 13:50:10 GMT 50.384697 -0.710325 25,825 0 464 -2304
2022-06-26 13:50:07 GMT 50.380417 -0.710497 26,000 2 466 -2240
2022-06-26 13:50:04 GMT 50.380417 -0.710497 26,050 2 466 -2240
2022-06-26 13:50:02 GMT 50.376968 -0.710697 26,075 2 466 -2240
2022-06-26 13:50:00 GMT 50.370941 -0.711076 26,300 3 466 -2368
2022-06-26 13:49:57 GMT 50.364029 -0.711582 26,325 3 467 -2432
2022-06-26 13:49:54 GMT 50.357555 -0.712181 26,450 3 467 -2368
2022-06-26 13:49:52 GMT 50.350250 -0.712810 26,800 18 474 -2496
2022-06-26 13:49:50 GMT 50.344849 -0.713316 26,775 11 472 -2176
2022-06-26 13:49:48 GMT 50.344849 -0.713316 26,675 5 469 -2304
2022-06-26 13:49:46 GMT 50.336609 -0.714408 26,800 9 471 -2304
2022-06-26 13:49:44 GMT 50.331024 -0.715629 26,825 8 470 -2368
2022-06-26 13:49:42 GMT 50.331024 -0.715629 27,325 11 472 -2176
2022-06-26 13:49:39 GMT 50.327133 -0.716569 27,000 12 472 -2176
2022-06-26 13:49:37 GMT 50.321571 -0.718343 27,075 15 474 -2240
2022-06-26 13:49:35 GMT 50.316925 -0.720183 27,150 19 475 -2560
2022-06-26 13:49:33 GMT 50.312916 -0.722054 27,200 18 474 -2496
2022-06-26 13:49:31 GMT 50.309376 -0.723910 27,300 21 475 -2624
2022-06-26 13:49:29 GMT 50.299274 -0.729923 27,675 23 477 -2560
2022-06-26 13:49:27 GMT 50.299274 -0.729923 27,525 23 478 -2496
2022-06-26 13:49:24 GMT 50.294449 -0.733265 27,625 24 479 -2496
2022-06-26 13:49:22 GMT 50.290382 -0.736084 27,825 24 481 -2560
2022-06-26 13:49:19 GMT 50.284744 -0.740059 27,825 24 480 -2560
2022-06-26 13:49:17 GMT 50.280716 -0.742878 27,875 24 481 -2560
2022-06-26 13:49:15 GMT 50.272366 -0.748703 28,050 24 483 -2560
2022-06-26 13:49:13 GMT 50.272366 -0.748703 28,150 24 483 -2496
2022-06-26 13:49:11 GMT 50.264034 -0.754568 28,975 24 484 -2432
2022-06-26 13:49:09 GMT 50.264034 -0.754568 28,200 24 484 -2432
2022-06-26 13:49:06 GMT 50.253605 -0.761917 28,375 24 487 -2304
2022-06-26 13:49:04 GMT 50.249542 -0.764779 28,475 24 487 -2304
2022-06-26 13:49:02 GMT 50.249542 -0.764779 28,525 24 489 -2368
2022-06-26 13:48:59 GMT 50.243786 -0.768820 28,750 24 490 -2624
2022-06-26 13:48:56 GMT 50.237408 -0.773348 28,700 24 489 -2560
2022-06-26 13:48:53 GMT 50.230984 -0.777802 28,875 24 491 -2624
2022-06-26 13:48:51 GMT 50.227478 -0.780246 29,050 24 492 -2240
2022-06-26 13:48:48 GMT 50.221481 -0.784438 29,050 24 492 -2240
2022-06-26 13:48:46 GMT 50.218552 -0.786462 29,125 24 492 -2240
2022-06-26 13:48:44 GMT 50.212097 -0.790943 29,200 24 494 -2176
2022-06-26 13:48:42 GMT 50.208775 -0.793243 29,275 24 495 -2112
2022-06-26 13:48:40 GMT 50.200836 -0.798822 29,450 24 496 -2112
2022-06-26 13:48:36 GMT 50.192276 -0.804749 29,525 24 496 -1856
2022-06-26 13:48:34 GMT 50.187267 -0.808312 29,625 24 497 -2176
2022-06-26 13:48:32 GMT 50.183899 -0.810603 29,800 24 497 -1472
2022-06-26 13:48:28 GMT 50.178471 -0.814399 29,800 24 497 -1344
2022-06-26 13:48:26 GMT 50.175110 -0.816747 29,900 24 496 -1664
2022-06-26 13:48:24 GMT 50.171162 -0.819521 29,900 24 497 -1344
2022-06-26 13:48:22 GMT 50.166740 -0.822564 29,950 24 497 -1024
2022-06-26 13:48:19 GMT 50.160461 -0.826938 29,975 24 497 -128
2022-06-26 13:48:16 GMT 50.154602 -0.831058 30,025 23 497 -1216
2022-06-26 13:48:13 GMT 50.148304 -0.835406 30,000 24 497 -128
2022-06-26 13:48:11 GMT 50.143707 -0.838647 30,000 24 497 -384
2022-06-26 13:48:08 GMT 50.137413 -0.842978 30,075 23 497 -1152
2022-06-26 13:48:05 GMT 50.126472 -0.850550 30,125 23 497 -1280
2022-06-26 13:48:03 GMT 50.126472 -0.850550 30,150 23 497 -1216
2022-06-26 13:48:01 GMT 50.123119 -0.852851 30,175 23 498 -1216
2022-06-26 13:47:59 GMT 50.119766 -0.855199 30,300 23 498 -1216
2022-06-26 13:47:57 GMT 50.114731 -0.858596 30,250 22 499 -1216
2022-06-26 13:47:55 GMT 50.109200 -0.862278 30,300 21 499 -1216
2022-06-26 13:47:52 GMT 50.103474 -0.865990 30,350 19 499 -1216
2022-06-26 13:47:49 GMT 50.096771 -0.869850 30,425 15 500 -1216
2022-06-26 13:47:47 GMT 50.092815 -0.871854 30,450 14 500 -1216
2022-06-26 13:47:44 GMT 50.086391 -0.874675 30,525 11 501 -1216
2022-06-26 13:47:42 GMT 50.082321 -0.876087 30,575 10 501 -1280
2022-06-26 13:47:40 GMT 50.078247 -0.877388 30,675 8 503 -1472
2022-06-26 13:47:37 GMT 50.064926 -0.880280 30,750 6 503 -2368
2022-06-26 13:47:32 GMT 50.058197 -0.881436 30,850 6 503 -2496
2022-06-26 13:47:30 GMT 50.054260 -0.882087 30,925 6 503 -3328
2022-06-26 13:47:27 GMT 50.048218 -0.883137 31,075 6 503 -3648
2022-06-26 13:47:25 GMT 50.041981 -0.884177 31,225 6 502 -3648
2022-06-26 13:47:22 GMT 50.036224 -0.885194 31,375 6 502 -3648
2022-06-26 13:47:20 GMT 50.026756 -0.886849 31,575 7 499 -3584
2022-06-26 13:47:18 GMT 50.026756 -0.886849 31,675 7 499 -3584
2022-06-26 13:47:15 GMT 50.019634 -0.888185 31,825 7 499 -3328
2022-06-26 13:47:13 GMT 50.015072 -0.889076 31,950 7 499 -3456
2022-06-26 13:47:11 GMT 50.010742 -0.889893 32,075 7 499 -3264
2022-06-26 13:47:08 GMT 50.002735 -0.891526 32,250 7 499 -3072
2022-06-26 13:47:05 GMT 49.994934 -0.893073 32,350 7 499 -2944
2022-06-26 13:47:01 GMT 49.987186 -0.894643 32,550 7 499 -2624
2022-06-26 13:46:59 GMT 49.981926 -0.895757 32,650 7 500 -2560
2022-06-26 13:46:57 GMT 49.978958 -0.896398 32,725 7 500 -2496
2022-06-26 13:46:55 GMT 49.974152 -0.897337 32,800 7 500 -2432
2022-06-26 13:46:53 GMT 49.965225 -0.899144 32,925 7 501 -2432
2022-06-26 13:46:48 GMT 49.958084 -0.900590 33,050 7 501 -2560
2022-06-26 13:46:46 GMT 49.949387 -0.902438 33,225 7 501 -2368
2022-06-26 13:46:42 GMT 49.943661 -0.903625 33,350 7 503 -1984
2022-06-26 13:46:40 GMT 49.937889 -0.904813 33,425 7 504 -1984
2022-06-26 13:46:38 GMT 49.930069 -0.906444 33,600 7 504 -1984
2022-06-26 13:46:36 GMT 49.922012 -0.908107 33,600 7 504 -1984
2022-06-26 13:46:33 GMT 49.922012 -0.908107 33,650 7 505 -1920
2022-06-26 13:46:31 GMT 49.918533 -0.908830 33,675 7 505 -1920
2022-06-26 13:46:28 GMT 49.909260 -0.910752 33,850 7 507 -2112
2022-06-26 13:46:25 GMT 49.903954 -0.911791 34,000 7 509 -2112
2022-06-26 13:46:21 GMT 49.893944 -0.913795 34,250 7 510 -2048
2022-06-26 13:46:18 GMT 49.887405 -0.915118 34,175 7 510 -2048
2022-06-26 13:46:15 GMT 49.879002 -0.916839 34,275 7 510 -2176
2022-06-26 13:46:12 GMT 49.873856 -0.917864 34,375 7 511 -2432
2022-06-26 13:46:10 GMT 49.870342 -0.918546 34,525 7 511 -2496
2022-06-26 13:46:07 GMT 49.860985 -0.920476 34,600 7 512 -1472
2022-06-26 13:46:04 GMT 49.855118 -0.921590 34,725 7 511 -3136
2022-06-26 13:46:01 GMT 49.848324 -0.923000 34,850 7 511 -3008
2022-06-26 13:45:59 GMT 49.844833 -0.923647 34,950 7 511 -2880
2022-06-26 13:45:57 GMT 49.838974 -0.924803 35,125 7 512 -1472
2022-06-26 13:45:54 GMT 49.825836 -0.927405 35,175 7 512 -1600
2022-06-26 13:45:51 GMT 49.825836 -0.927405 35,225 7 512 -1472
2022-06-26 13:45:48 GMT 49.811783 -0.930152 35,350 6 511 -1408
2022-06-26 13:45:45 GMT 49.811783 -0.930152 35,375 6 510 -1408
2022-06-26 13:45:42 GMT 49.798645 -0.932609 35,525 6 509 -1408
2022-06-26 13:45:40 GMT 49.794228 -0.933392 35,550 6 509 -1408
2022-06-26 13:45:38 GMT 49.794228 -0.933392 35,550 6 508 -1408
2022-06-26 13:45:35 GMT 49.787434 -0.934580 35,625 6 508 -1472
2022-06-26 13:45:33 GMT 49.782761 -0.935356 35,825 7 507 -1472
2022-06-26 13:45:30 GMT 49.774612 -0.936946 35,800 10 506 -1408
2022-06-26 13:45:27 GMT 49.768578 -0.938366 35,875 10 506 -1408
2022-06-26 13:45:25 GMT 49.764202 -0.939554 36,075 12 506 -1472
2022-06-26 13:45:21 GMT 49.755730 -0.942375 36,000 16 505 -1408
2022-06-26 13:45:19 GMT 49.751404 -0.943957 36,050 21 505 -1472
2022-06-26 13:45:16 GMT 49.744652 -0.946828 36,125 17 505 -1408
2022-06-26 13:45:13 GMT 49.736801 -0.950534 36,175 21 505 -1472
2022-06-26 13:45:11 GMT 49.731754 -0.953287 36,300 21 505 -1472
2022-06-26 13:45:08 GMT 49.726727 -0.956256 36,300 24 505 -1408
2022-06-26 13:45:06 GMT 49.722401 -0.958928 36,425 23 505 -1408
2022-06-26 13:45:03 GMT 49.714764 -0.964273 36,525 25 505 -1408
2022-06-26 13:45:00 GMT 49.709736 -0.968133 36,550 28 506 -1344
2022-06-26 13:44:57 GMT 49.702515 -0.974025 36,575 31 507 -1280
2022-06-26 13:44:55 GMT 49.698658 -0.977486 36,625 33 508 -1216
2022-06-26 13:44:53 GMT 49.695877 -0.980168 36,675 34 508 -1216
2022-06-26 13:44:50 GMT 49.689625 -0.986543 36,700 37 509 -1216
2022-06-26 13:44:46 GMT 49.675461 -1.002792 36,825 37 509 -1472
2022-06-26 13:44:43 GMT 49.675461 -1.002792 36,850 37 509 -1472
2022-06-26 13:44:41 GMT 49.671749 -1.007179 36,900 37 510 -2048
2022-06-26 13:44:38 GMT 49.667816 -1.011826 37,125 37 510 -2368
2022-06-26 13:44:36 GMT 49.662781 -1.017825 37,550 37 510 -2880
2022-06-26 13:44:33 GMT 49.658112 -1.023391 37,250 37 510 -2816
2022-06-26 13:44:31 GMT 49.652897 -1.029597 37,325 37 510 -2816
2022-06-26 13:44:28 GMT 49.648270 -1.035172 37,450 37 510 -2688
2022-06-26 13:44:25 GMT 49.643398 -1.040955 37,550 36 512 -1664
2022-06-26 13:44:23 GMT 49.638790 -1.046522 37,750 37 510 -2048
2022-06-26 13:44:20 GMT 49.627480 -1.059661 37,775 36 513 -1536
2022-06-26 13:44:17 GMT 49.627480 -1.059661 37,775 35 512 -1472
2022-06-26 13:44:14 GMT 49.622498 -1.065240 37,950 33 515 -512
2022-06-26 13:44:11 GMT 49.615517 -1.072800 37,950 33 515 -512
2022-06-26 13:44:08 GMT 49.609791 -1.078739 37,950 31 518 -256
2022-06-26 13:44:06 GMT 49.606796 -1.081792 37,950 31 518 -256
2022-06-26 13:44:04 GMT 49.602386 -1.086162 37,950 31 518 -192
2022-06-26 13:44:02 GMT 49.597549 -1.090899 37,975 30 520 -256
2022-06-26 13:44:00 GMT 49.594521 -1.093808 37,975 31 519 -256
2022-06-26 13:43:58 GMT 49.591446 -1.096703 37,975 30 520 -256
2022-06-26 13:43:56 GMT 49.585072 -1.102493 38,000 29 519 -128
2022-06-26 13:43:53 GMT 49.576923 -1.109619 38,000 28 520 0
2022-06-26 13:43:49 GMT 49.564213 -1.120086 38,000 25 520 0
2022-06-26 13:43:46 GMT 49.564213 -1.120086 38,000 25 520 0
2022-06-26 13:43:44 GMT 49.556076 -1.126388 38,000 23 519 -64
2022-06-26 13:43:42 GMT 49.556076 -1.126388 38,000 25 520 0
2022-06-26 13:43:40 GMT 49.550854 -1.130181 38,000 24 520 0
2022-06-26 13:43:38 GMT 49.547607 -1.132604 38,000 24 520 0
2022-06-26 13:43:34 GMT 49.538841 -1.138644 38,000 22 520 -64
2022-06-26 13:43:32 GMT 49.534187 -1.141687 38,000 22 520 -64
2022-06-26 13:43:30 GMT 49.522179 -1.149185 38,000 21 519 -64
2022-06-26 13:43:25 GMT 49.514145 -1.154070 38,025 21 519 -64
2022-06-26 13:43:23 GMT 49.514145 -1.154070 38,025 21 519 0
2022-06-26 13:43:21 GMT 49.509933 -1.156672 38,025 21 519 0
2022-06-26 13:43:19 GMT 49.505699 -1.159280 38,000 21 518 64
2022-06-26 13:43:17 GMT 49.501694 -1.161660 38,000 21 519 64
2022-06-26 13:43:14 GMT 49.492336 -1.167372 38,000 21 518 64
2022-06-26 13:43:11 GMT 49.487411 -1.170405 38,000 21 518 64
2022-06-26 13:43:09 GMT 49.483631 -1.172716 38,000 21 518 64
2022-06-26 13:43:07 GMT 49.478512 -1.175834 38,000 21 518 64
2022-06-26 13:43:05 GMT 49.475159 -1.177838 38,000 21 518 0
2022-06-26 13:43:02 GMT 49.459351 -1.187463 38,000 21 518 0
2022-06-26 13:42:59 GMT 49.459351 -1.187463 38,000 21 518 0
2022-06-26 13:42:56 GMT 49.453560 -1.190977 38,000 21 518 -64
2022-06-26 13:42:54 GMT 49.448673 -1.193947 38,000 21 518 0
2022-06-26 13:42:52 GMT 49.441544 -1.198305 38,000 21 518 64
2022-06-26 13:42:50 GMT 49.436661 -1.201221 38,000 21 518 64
2022-06-26 13:42:48 GMT 49.436661 -1.201221 38,000 21 517 64
2022-06-26 13:42:44 GMT 49.427307 -1.206876 38,000 21 517 64
2022-06-26 13:42:42 GMT 49.422882 -1.209580 38,000 21 517 64
2022-06-26 13:42:39 GMT 49.415993 -1.213772 38,000 21 512 0
2022-06-26 13:42:35 GMT 49.407990 -1.218567 38,000 21 514 -64
2022-06-26 13:42:33 GMT 49.404678 -1.220567 38,000 21 511 0
2022-06-26 13:42:31 GMT 49.398468 -1.224342 38,000 21 514 -64
2022-06-26 13:42:29 GMT 49.393600 -1.227288 38,000 21 514 -64
2022-06-26 13:42:26 GMT 49.388718 -1.230187 38,000 21 514 -64
2022-06-26 13:42:23 GMT 49.381218 -1.234733 38,000 21 513 0
2022-06-26 13:42:20 GMT 49.375027 -1.238419 38,000 21 512 0
2022-06-26 13:42:18 GMT 49.370178 -1.241314 38,000 21 512 0
2022-06-26 13:42:13 GMT 49.358734 -1.248145 38,000 21 508 0
2022-06-26 13:42:10 GMT 49.351913 -1.252230 38,000 21 511 0
2022-06-26 13:42:07 GMT 49.345325 -1.256200 38,000 21 509 0
2022-06-26 13:42:05 GMT 49.336761 -1.261332 38,000 21 509 0
2022-06-26 13:42:03 GMT 49.336761 -1.261332 38,000 21 509 0
2022-06-26 13:42:00 GMT 49.330170 -1.265188 38,000 21 507 0
2022-06-26 13:41:58 GMT 49.326893 -1.267186 38,000 21 507 0
2022-06-26 13:41:56 GMT 49.320141 -1.271234 38,000 21 507 0
2022-06-26 13:41:53 GMT 49.305084 -1.280259 38,000 21 506 64
2022-06-26 13:41:48 GMT 49.305084 -1.280259 38,000 21 505 64
2022-06-26 13:41:46 GMT 49.298309 -1.284316 38,000 21 505 64
2022-06-26 13:41:43 GMT 49.292908 -1.287569 38,000 21 505 0
2022-06-26 13:41:41 GMT 49.289200 -1.289767 38,000 21 505 0
2022-06-26 13:41:38 GMT 49.282665 -1.293640 38,000 21 505 0
2022-06-26 13:41:35 GMT 49.276382 -1.297443 38,000 21 505 0
2022-06-26 13:41:32 GMT 49.270283 -1.301085 38,000 21 505 0
2022-06-26 13:41:28 GMT 49.259628 -1.307443 38,000 21 505 0
2022-06-26 13:41:25 GMT 49.253105 -1.311348 38,000 21 505 0
2022-06-26 13:41:22 GMT 49.243103 -1.317303 38,000 21 505 0
2022-06-26 13:41:20 GMT 49.243103 -1.317303 38,000 21 505 0
2022-06-26 13:41:17 GMT 49.237465 -1.320672 38,000 21 505 0
2022-06-26 13:41:14 GMT 49.230972 -1.324557 38,000 21 505 0
2022-06-26 13:41:11 GMT 49.224430 -1.328478 38,000 21 505 -64
2022-06-26 13:41:09 GMT 49.219849 -1.331177 38,000 21 505 -64
2022-06-26 13:41:07 GMT 49.215317 -1.333923 38,000 21 505 -64
2022-06-26 13:41:05 GMT 49.205063 -1.339980 38,000 21 505 -64
2022-06-26 13:41:02 GMT 49.205063 -1.339980 38,000 21 505 0
2022-06-26 13:41:00 GMT 49.200733 -1.342573 38,000 21 505 0
2022-06-26 13:40:57 GMT 49.190956 -1.348427 38,000 21 505 0
2022-06-26 13:40:54 GMT 49.183136 -1.353079 38,000 21 505 0
2022-06-26 13:40:52 GMT 49.183136 -1.353079 38,000 21 505 64
2022-06-26 13:40:50 GMT 49.178345 -1.355944 38,000 21 505 64
2022-06-26 13:40:48 GMT 49.173782 -1.358618 38,000 21 505 64
2022-06-26 13:40:46 GMT 49.170547 -1.360614 38,000 21 505 64
2022-06-26 13:40:44 GMT 49.166191 -1.363172 38,000 21 505 64
2022-06-26 13:40:42 GMT 49.156185 -1.369171 38,000 21 506 0
2022-06-26 13:40:40 GMT 49.156185 -1.369171 38,000 21 505 64
2022-06-26 13:40:37 GMT 49.149246 -1.373291 38,000 21 505 0
2022-06-26 13:40:33 GMT 49.139240 -1.379290 38,000 21 505 0
2022-06-26 13:40:30 GMT 49.134659 -1.381953 38,000 21 506 0
2022-06-26 13:40:27 GMT 49.125549 -1.387446 38,000 21 506 0
2022-06-26 13:40:24 GMT 49.121410 -1.389915 38,000 21 506 0
2022-06-26 13:40:21 GMT 49.114883 -1.393785 38,000 21 506 0
2022-06-26 13:40:16 GMT 49.105316 -1.399489 38,000 21 506 0
2022-06-26 13:40:14 GMT 49.099625 -1.402853 38,000 21 506 0
2022-06-26 13:40:12 GMT 49.095291 -1.405455 38,000 21 506 0
2022-06-26 13:40:10 GMT 49.084400 -1.411960 38,000 21 506 64
2022-06-26 13:40:07 GMT 49.084400 -1.411960 38,000 21 506 64
2022-06-26 13:40:05 GMT 49.080490 -1.414345 38,000 21 506 0
2022-06-26 13:40:03 GMT 49.076157 -1.416884 38,000 21 506 0
2022-06-26 13:40:01 GMT 49.071808 -1.419490 38,000 21 506 0
2022-06-26 13:39:56 GMT 49.059174 -1.427025 38,000 21 506 -64
2022-06-26 13:39:53 GMT 49.055054 -1.429561 38,000 21 506 -64
2022-06-26 13:39:50 GMT 49.046738 -1.434439 38,000 21 506 -64
2022-06-26 13:39:48 GMT 49.042175 -1.437185 38,000 21 506 -64
2022-06-26 13:39:46 GMT 49.037613 -1.439913 38,000 21 506 -64
2022-06-26 13:39:43 GMT 49.031097 -1.443835 38,000 21 506 -64
2022-06-26 13:39:39 GMT 49.023884 -1.448099 38,000 21 506 -64
2022-06-26 13:39:35 GMT 49.014339 -1.453809 38,000 21 506 0
2022-06-26 13:39:32 GMT 49.008041 -1.457590 38,000 21 506 64
2022-06-26 13:39:30 GMT 49.002594 -1.460830 38,000 21 506 64
2022-06-26 13:39:27 GMT 48.997147 -1.464069 38,000 21 506 64
2022-06-26 13:39:25 GMT 48.986267 -1.470578 38,000 21 506 64
2022-06-26 13:39:22 GMT 48.986267 -1.470578 38,000 21 506 64
2022-06-26 13:39:19 GMT 48.981705 -1.473324 38,000 21 506 0
2022-06-26 13:39:16 GMT 48.966904 -1.482070 38,000 21 506 0
2022-06-26 13:39:13 GMT 48.966904 -1.482070 38,000 21 506 0
2022-06-26 13:39:11 GMT 48.962585 -1.484704 38,000 21 506 0
2022-06-26 13:39:08 GMT 48.956055 -1.488575 38,000 21 505 -64
2022-06-26 13:39:05 GMT 48.950424 -1.491900 38,000 21 505 0
2022-06-26 13:39:03 GMT 48.946060 -1.494493 38,000 21 505 -64
2022-06-26 13:39:01 GMT 48.940834 -1.497610 38,000 21 505 -64
2022-06-26 13:38:59 GMT 48.930405 -1.503789 38,000 21 505 0
2022-06-26 13:38:56 GMT 48.922585 -1.508452 38,000 21 504 0
2022-06-26 13:38:53 GMT 48.922585 -1.508452 38,000 21 504 0
2022-06-26 13:38:50 GMT 48.916718 -1.511921 38,000 21 504 0
2022-06-26 13:38:47 GMT 48.908478 -1.516818 38,000 21 505 0
2022-06-26 13:38:44 GMT 48.904335 -1.519294 38,000 21 505 0
2022-06-26 13:38:41 GMT 48.898518 -1.522763 38,000 21 505 0
2022-06-26 13:38:38 GMT 48.891766 -1.526810 38,000 21 505 0
2022-06-26 13:38:36 GMT 48.886551 -1.529917 38,000 21 505 0
2022-06-26 13:38:34 GMT 48.883301 -1.531818 38,000 21 505 0
2022-06-26 13:38:31 GMT 48.871609 -1.538809 38,000 21 504 0
2022-06-26 13:38:29 GMT 48.862488 -1.544230 38,000 21 504 0
2022-06-26 13:38:25 GMT 48.862488 -1.544230 38,000 21 504 0
2022-06-26 13:38:22 GMT 48.854897 -1.548711 38,000 21 503 0
2022-06-26 13:38:19 GMT 48.840187 -1.557457 38,000 21 503 0
2022-06-26 13:38:15 GMT 48.840187 -1.557457 38,000 21 504 0
2022-06-26 13:38:10 GMT 48.824799 -1.566608 38,000 21 504 0
2022-06-26 13:38:04 GMT 48.818069 -1.570622 38,000 21 504 0
2022-06-26 13:38:01 GMT 48.811138 -1.574659 38,000 21 504 0
2022-06-26 13:37:59 GMT 48.806763 -1.577242 38,000 21 504 0
2022-06-26 13:37:56 GMT 48.800262 -1.581045 38,000 21 504 0
2022-06-26 13:37:54 GMT 48.796143 -1.583440 38,000 21 504 0
2022-06-26 13:37:52 GMT 48.791355 -1.586223 38,000 21 504 0
2022-06-26 13:37:49 GMT 48.784882 -1.590060 38,000 21 503 0
2022-06-26 13:37:47 GMT 48.779892 -1.592947 38,000 21 503 0
2022-06-26 13:37:44 GMT 48.774876 -1.595909 38,000 21 503 0
2022-06-26 13:37:42 GMT 48.769009 -1.599306 38,000 21 503 0
2022-06-26 13:37:39 GMT 48.763611 -1.602486 38,000 21 503 0
2022-06-26 13:37:34 GMT 48.751877 -1.609286 38,000 21 503 0
2022-06-26 13:37:30 GMT 48.742752 -1.614629 38,000 21 503 0
2022-06-26 13:37:28 GMT 48.738419 -1.617103 38,000 21 503 0
2022-06-26 13:37:24 GMT 48.729717 -1.622146 38,000 21 503 0
2022-06-26 13:37:21 GMT 48.725601 -1.624568 38,000 21 503 0
2022-06-26 13:37:19 GMT 48.719059 -1.628362 38,000 21 503 0
2022-06-26 13:37:17 GMT 48.714962 -1.630747 38,000 21 503 0
2022-06-26 13:37:14 GMT 48.708675 -1.634433 38,000 21 503 0
2022-06-26 13:37:12 GMT 48.704300 -1.636963 38,000 21 504 0
2022-06-26 13:37:08 GMT 48.696293 -1.641661 38,000 21 503 0
2022-06-26 13:37:05 GMT 48.688934 -1.645907 38,000 21 504 64
2022-06-26 13:37:02 GMT 48.682842 -1.649467 38,000 21 504 0
2022-06-26 13:36:59 GMT 48.676136 -1.653370 38,000 21 504 64
2022-06-26 13:36:57 GMT 48.671768 -1.655907 38,000 21 504 64
2022-06-26 13:36:54 GMT 48.656399 -1.664935 38,000 21 504 0
2022-06-26 13:36:50 GMT 48.656399 -1.664935 38,000 21 504 -64
2022-06-26 13:36:47 GMT 48.651836 -1.667609 38,000 21 504 0
2022-06-26 13:36:44 GMT 48.643364 -1.672596 38,000 21 504 0
2022-06-26 13:36:41 GMT 48.631027 -1.679824 38,000 21 504 0
2022-06-26 13:36:38 GMT 48.631027 -1.679824 38,000 21 504 0
2022-06-26 13:36:36 GMT 48.628006 -1.681542 38,000 21 503 0
2022-06-26 13:36:34 GMT 48.621487 -1.685389 38,000 21 503 0
2022-06-26 13:36:32 GMT 48.616085 -1.688570 38,000 21 503 0
2022-06-26 13:36:29 GMT 48.608498 -1.692979 38,000 21 503 0
2022-06-26 13:36:26 GMT 48.605473 -1.694786 38,000 21 503 0
2022-06-26 13:36:24 GMT 48.599808 -1.698092 38,000 21 503 0
2022-06-26 13:36:21 GMT 48.588989 -1.704399 38,000 21 503 0
2022-06-26 13:36:19 GMT 48.588989 -1.704399 38,000 21 503 0
2022-06-26 13:36:17 GMT 48.584431 -1.707073 38,000 21 503 0
2022-06-26 13:36:13 GMT 48.577515 -1.711121 38,000 21 503 0
2022-06-26 13:36:11 GMT 48.567345 -1.717120 38,000 21 503 0
2022-06-26 13:36:09 GMT 48.567345 -1.717120 38,000 21 503 64
2022-06-26 13:36:06 GMT 48.562130 -1.720155 38,000 21 503 64
2022-06-26 13:36:03 GMT 48.555893 -1.723842 38,000 21 503 64
2022-06-26 13:36:00 GMT 48.550026 -1.727239 38,000 21 503 64
2022-06-26 13:35:57 GMT 48.543324 -1.731214 38,000 21 503 0
2022-06-26 13:35:55 GMT 48.534012 -1.736635 38,000 21 503 0
2022-06-26 13:35:53 GMT 48.534012 -1.736635 38,000 21 503 0
2022-06-26 13:35:51 GMT 48.528809 -1.739713 38,000 21 503 0
2022-06-26 13:35:48 GMT 48.522327 -1.743501 38,000 21 502 0
2022-06-26 13:35:45 GMT 48.515808 -1.747249 38,000 21 502 -64
2022-06-26 13:35:42 GMT 48.504959 -1.753517 38,000 21 502 -64
2022-06-26 13:35:40 GMT 48.504959 -1.753517 38,000 21 502 -64
2022-06-26 13:35:37 GMT 48.499985 -1.756439 38,000 21 502 -64
2022-06-26 13:35:33 GMT 48.489349 -1.762601 38,000 21 502 -64
2022-06-26 13:35:28 GMT 48.478317 -1.769010 38,025 21 503 0
2022-06-26 13:35:22 GMT 48.466644 -1.775771 38,000 21 502 64
2022-06-26 13:35:17 GMT 48.455807 -1.782098 38,000 21 502 64
2022-06-26 13:35:14 GMT 48.448265 -1.786507 38,000 21 502 64
2022-06-26 13:35:10 GMT 48.439606 -1.791567 38,000 21 502 64
2022-06-26 13:35:06 GMT 48.432903 -1.795542 38,000 21 502 64
2022-06-26 13:35:03 GMT 48.424477 -1.800457 38,000 21 502 64
2022-06-26 13:35:00 GMT 48.413490 -1.806890 38,000 21 502 64
2022-06-26 13:34:57 GMT 48.413490 -1.806890 38,000 21 502 64
2022-06-26 13:34:55 GMT 48.406788 -1.810793 38,000 21 502 0
2022-06-26 13:34:52 GMT 48.401138 -1.814082 38,000 21 502 0
2022-06-26 13:34:48 GMT 48.384487 -1.823803 38,000 21 502 -64
2022-06-26 13:34:45 GMT 48.384487 -1.823803 38,000 20 502 -64
2022-06-26 13:34:42 GMT 48.379086 -1.826911 38,000 21 502 -64
2022-06-26 13:34:40 GMT 48.374523 -1.829513 38,000 20 502 -64
2022-06-26 13:34:36 GMT 48.367630 -1.833520 38,000 20 502 -64
2022-06-26 13:34:31 GMT 48.356789 -1.839776 38,000 20 502 -64
2022-06-26 13:34:29 GMT 48.351151 -1.843027 38,000 20 501 0
2022-06-26 13:34:27 GMT 48.346848 -1.845562 38,000 20 501 0
2022-06-26 13:34:24 GMT 48.341400 -1.848661 38,000 20 501 0
2022-06-26 13:34:21 GMT 48.334259 -1.852746 38,000 20 501 0
2022-06-26 13:34:17 GMT 48.325600 -1.857701 38,000 20 501 -64
2022-06-26 13:34:14 GMT 48.319107 -1.861408 38,000 20 501 0
2022-06-26 13:34:11 GMT 48.308048 -1.867676 38,000 20 501 0
2022-06-26 13:34:09 GMT 48.308048 -1.867676 38,000 20 501 0
2022-06-26 13:34:06 GMT 48.302032 -1.871127 38,000 20 501 0
2022-06-26 13:34:02 GMT 48.293335 -1.876056 38,000 20 501 64
2022-06-26 13:33:59 GMT 48.288589 -1.878734 38,000 20 501 64
2022-06-26 13:33:57 GMT 48.275185 -1.886396 38,000 20 501 64
2022-06-26 13:33:54 GMT 48.275185 -1.886396 38,000 20 501 64
2022-06-26 13:33:51 GMT 48.269760 -1.889437 38,000 20 501 64
2022-06-26 13:33:49 GMT 48.265408 -1.891889 38,000 20 501 0
2022-06-26 13:33:46 GMT 48.258286 -1.896009 38,000 20 501 0
2022-06-26 13:33:43 GMT 48.252640 -1.899156 38,000 20 501 0
2022-06-26 13:33:40 GMT 48.246368 -1.902731 38,000 20 501 0
2022-06-26 13:33:38 GMT 48.241608 -1.905494 38,000 20 501 0
2022-06-26 13:33:35 GMT 48.235336 -1.909086 38,000 21 501 0
2022-06-26 13:33:32 GMT 48.228443 -1.913067 38,000 21 501 0
2022-06-26 13:33:29 GMT 48.221924 -1.916762 38,000 21 501 0
2022-06-26 13:33:27 GMT 48.218063 -1.918993 38,000 21 501 0
2022-06-26 13:33:24 GMT 48.210709 -1.923241 38,000 21 501 0
2022-06-26 13:33:21 GMT 48.203587 -1.927306 38,000 21 501 0
2022-06-26 13:33:18 GMT 48.198807 -1.930072 38,000 21 501 0
2022-06-26 13:33:15 GMT 48.192123 -1.933875 38,000 21 501 0
2022-06-26 13:33:12 GMT 48.186081 -1.937352 38,000 21 501 0
2022-06-26 13:33:10 GMT 48.181320 -1.940143 38,000 20 501 0
2022-06-26 13:33:08 GMT 48.177238 -1.942484 38,000 20 501 0
2022-06-26 13:33:06 GMT 48.170746 -1.946200 38,000 20 501 0
2022-06-26 13:33:03 GMT 48.166389 -1.948628 38,000 20 501 64
2022-06-26 13:33:00 GMT 48.148911 -1.958656 38,000 20 501 64
2022-06-26 13:32:56 GMT 48.148911 -1.958656 36,350 20 500 0
2022-06-26 13:32:53 GMT 48.138107 -1.964836 38,000 20 500 0
2022-06-26 13:32:50 GMT 48.138107 -1.964836 38,000 20 500 0
2022-06-26 13:32:47 GMT 48.131882 -1.968407 38,000 20 500 0
2022-06-26 13:32:45 GMT 48.126480 -1.971497 38,000 20 500 0
2022-06-26 13:32:42 GMT 48.120850 -1.974655 38,000 20 500 0
2022-06-26 13:32:39 GMT 48.113926 -1.978595 38,000 20 501 0
2022-06-26 13:32:37 GMT 48.104427 -1.984018 38,000 20 501 0
2022-06-26 13:32:35 GMT 48.104427 -1.984018 38,000 20 501 0
2022-06-26 13:32:30 GMT 48.092976 -1.990568 38,000 20 501 0
2022-06-26 13:32:27 GMT 48.088650 -1.993033 38,000 20 501 0
2022-06-26 13:32:23 GMT 48.079384 -1.998314 38,000 20 501 0
2022-06-26 13:32:19 GMT 48.070496 -2.003357 38,000 20 501 0
2022-06-26 13:32:17 GMT 48.066395 -2.005709 38,000 20 501 -64
2022-06-26 13:32:14 GMT 48.052990 -2.013385 38,000 21 501 -64
2022-06-26 13:32:11 GMT 48.052990 -2.013385 38,000 21 501 -64
2022-06-26 13:32:09 GMT 48.048893 -2.015710 38,000 21 501 0
2022-06-26 13:32:06 GMT 48.043488 -2.018806 38,000 21 501 0
2022-06-26 13:32:03 GMT 48.036392 -2.022926 38,000 21 500 0
2022-06-26 13:32:00 GMT 48.028408 -2.027471 38,000 21 501 0
2022-06-26 13:31:58 GMT 48.026222 -2.028738 38,000 21 500 0
2022-06-26 13:31:55 GMT 48.016071 -2.034513 38,000 21 500 0
2022-06-26 13:31:51 GMT 48.010025 -2.038033 38,000 21 500 0
2022-06-26 13:31:49 GMT 48.004669 -2.041122 38,000 21 500 0
2022-06-26 13:31:47 GMT 47.992565 -2.048035 38,000 21 500 0
2022-06-26 13:31:44 GMT 47.992565 -2.048035 38,000 21 500 0
2022-06-26 13:31:39 GMT 47.979622 -2.055500 38,000 21 500 0
2022-06-26 13:31:37 GMT 47.979622 -2.055500 38,000 21 500 0
2022-06-26 13:31:34 GMT 47.973991 -2.058739 38,000 21 500 0
2022-06-26 13:31:29 GMT 47.963238 -2.064937 38,000 21 500 0
2022-06-26 13:31:26 GMT 47.955231 -2.069444 38,000 21 500 0
2022-06-26 13:31:24 GMT 47.950062 -2.072472 38,000 21 500 0
2022-06-26 13:31:21 GMT 47.946625 -2.074425 38,000 21 500 0
2022-06-26 13:31:18 GMT 47.940331 -2.077965 38,000 20 501 0
2022-06-26 13:31:16 GMT 47.929779 -2.084038 38,000 20 501 0
2022-06-26 13:31:09 GMT 47.919384 -2.089938 38,000 20 501 0
2022-06-26 13:31:07 GMT 47.913982 -2.092966 38,000 20 501 0
2022-06-26 13:31:04 GMT 47.906845 -2.097015 38,000 20 500 64
2022-06-26 13:30:59 GMT 47.893478 -2.104706 38,000 20 501 64
2022-06-26 13:30:54 GMT 47.887867 -2.107896 38,000 20 501 64
2022-06-26 13:30:52 GMT 47.882469 -2.110995 38,000 20 501 64
2022-06-26 13:30:50 GMT 47.878372 -2.113289 38,000 20 501 0
2022-06-26 13:30:47 GMT 47.872318 -2.116770 38,000 20 500 -64
2022-06-26 13:30:44 GMT 47.863678 -2.121666 38,000 20 500 0
2022-06-26 13:30:41 GMT 47.859146 -2.124207 38,000 20 500 0
2022-06-26 13:30:37 GMT 47.852859 -2.127756 38,000 20 500 0
2022-06-26 13:30:35 GMT 47.847244 -2.130936 38,000 20 500 0
2022-06-26 13:30:32 GMT 47.840561 -2.134712 38,000 20 500 0
2022-06-26 13:30:29 GMT 47.833832 -2.138489 38,000 20 500 0
2022-06-26 13:30:26 GMT 47.826511 -2.142616 38,000 20 500 0
2022-06-26 13:30:22 GMT 47.818726 -2.147003 38,000 20 500 0
2022-06-26 13:30:19 GMT 47.812042 -2.150780 38,000 20 500 0
2022-06-26 13:30:16 GMT 47.805771 -2.154282 38,000 20 500 0
2022-06-26 13:30:14 GMT 47.799698 -2.157687 38,000 20 500 0
2022-06-26 13:30:11 GMT 47.793880 -2.160926 38,000 20 500 0
2022-06-26 13:30:08 GMT 47.788010 -2.164238 38,000 20 500 0
2022-06-26 13:30:04 GMT 47.776794 -2.170486 38,000 20 500 0
2022-06-26 13:30:01 GMT 47.772446 -2.172958 38,000 20 500 0
2022-06-26 13:29:59 GMT 47.767914 -2.175430 38,000 20 500 0
2022-06-26 13:29:55 GMT 47.759491 -2.180168 38,000 20 500 0
2022-06-26 13:29:51 GMT 47.750401 -2.185223 38,000 20 500 0
2022-06-26 13:29:48 GMT 47.743694 -2.188955 38,000 20 500 0
2022-06-26 13:29:43 GMT 47.727905 -2.197678 38,000 20 500 0
2022-06-26 13:29:40 GMT 47.727905 -2.197678 38,000 20 500 0
2022-06-26 13:29:38 GMT 47.721588 -2.201111 38,000 20 500 0
2022-06-26 13:29:36 GMT 47.718155 -2.203033 38,000 20 500 64
2022-06-26 13:29:33 GMT 47.710365 -2.207407 38,000 20 500 64
2022-06-26 13:29:30 GMT 47.706024 -2.209763 37,975 20 500 64
2022-06-26 13:29:27 GMT 47.699112 -2.213608 38,000 20 500 64
2022-06-26 13:29:23 GMT 47.690002 -2.218689 38,000 20 500 0
2022-06-26 13:29:20 GMT 47.683960 -2.222054 38,000 20 500 0
2022-06-26 13:29:17 GMT 47.677917 -2.225506 38,000 20 500 0
2022-06-26 13:29:13 GMT 47.669491 -2.230225 38,000 20 500 0
2022-06-26 13:29:10 GMT 47.662994 -2.233864 38,000 20 500 0
2022-06-26 13:29:07 GMT 47.650265 -2.241070 38,000 20 500 0
2022-06-26 13:29:04 GMT 47.642487 -2.245468 38,000 20 500 0
2022-06-26 13:29:01 GMT 47.642487 -2.245468 38,000 20 500 0
2022-06-26 13:28:58 GMT 47.637325 -2.248394 38,000 20 500 0
2022-06-26 13:28:56 GMT 47.633415 -2.250577 38,000 20 501 0
2022-06-26 13:28:53 GMT 47.625641 -2.254944 38,000 20 501 0
2022-06-26 13:28:50 GMT 47.618500 -2.258926 38,000 20 500 0
2022-06-26 13:28:47 GMT 47.612465 -2.262338 38,000 20 500 0
2022-06-26 13:28:45 GMT 47.606228 -2.265930 38,000 21 500 0
2022-06-26 13:28:41 GMT 47.600601 -2.269089 38,000 21 500 0
2022-06-26 13:28:37 GMT 47.590897 -2.274651 38,000 21 500 0
2022-06-26 13:28:32 GMT 47.580112 -2.280790 38,000 21 500 0
2022-06-26 13:28:29 GMT 47.573639 -2.284470 38,000 21 500 0
2022-06-26 13:28:26 GMT 47.567169 -2.288185 38,000 21 500 0
2022-06-26 13:28:22 GMT 47.556564 -2.294220 38,000 21 500 0
2022-06-26 13:28:17 GMT 47.548363 -2.298889 38,000 21 500 0
2022-06-26 13:28:15 GMT 47.543839 -2.301498 38,000 21 500 0
2022-06-26 13:28:12 GMT 47.537376 -2.305157 38,000 21 500 0
2022-06-26 13:28:09 GMT 47.531342 -2.308640 38,000 21 500 0
2022-06-26 13:28:06 GMT 47.525116 -2.312210 38,000 21 500 0
2022-06-26 13:28:03 GMT 47.518429 -2.316002 38,000 21 500 64
2022-06-26 13:28:00 GMT 47.511932 -2.319695 38,000 20 500 0
2022-06-26 13:27:57 GMT 47.503765 -2.324313 38,000 20 500 64
2022-06-26 13:27:53 GMT 47.497284 -2.328003 38,000 20 500 64
2022-06-26 13:27:50 GMT 47.490776 -2.331707 38,000 20 500 0
2022-06-26 13:27:47 GMT 47.481934 -2.336637 38,000 20 500 0
2022-06-26 13:27:44 GMT 47.475449 -2.340294 38,000 20 500 0
2022-06-26 13:27:39 GMT 47.463364 -2.347092 38,000 20 500 0
2022-06-26 13:27:35 GMT 47.458191 -2.350044 38,000 20 500 0
2022-06-26 13:27:31 GMT 47.446518 -2.356567 38,000 20 500 0
2022-06-26 13:27:26 GMT 47.435944 -2.362473 38,000 20 500 0
2022-06-26 13:27:22 GMT 47.429005 -2.366286 38,000 20 500 0
2022-06-26 13:27:19 GMT 47.422764 -2.369807 38,000 20 500 0
2022-06-26 13:27:15 GMT 47.414337 -2.374455 38,000 20 500 0
2022-06-26 13:27:11 GMT 47.405685 -2.379295 38,000 20 500 0
2022-06-26 13:27:08 GMT 47.398544 -2.383209 38,000 20 500 0
2022-06-26 13:27:05 GMT 47.392040 -2.386780 38,000 20 500 0
2022-06-26 13:27:02 GMT 47.386871 -2.389664 38,000 20 500 0
2022-06-26 13:26:58 GMT 47.376480 -2.395432 38,000 20 500 0
2022-06-26 13:26:54 GMT 47.365227 -2.401639 38,000 20 499 -64
2022-06-26 13:26:52 GMT 47.365227 -2.401639 38,000 20 499 -64
2022-06-26 13:26:49 GMT 47.356567 -2.406418 38,000 20 499 0
2022-06-26 13:26:46 GMT 47.352036 -2.408890 38,000 20 499 0
2022-06-26 13:26:42 GMT 47.342510 -2.414105 38,000 20 499 0
2022-06-26 13:26:38 GMT 47.334969 -2.418330 38,000 20 499 0
2022-06-26 13:26:35 GMT 47.327591 -2.422348 38,000 20 499 0
2022-06-26 13:26:31 GMT 47.319839 -2.426640 38,000 20 499 0
2022-06-26 13:26:28 GMT 47.312485 -2.430656 38,000 20 499 0
2022-06-26 13:26:25 GMT 47.305801 -2.434364 38,000 20 499 0
2022-06-26 13:26:22 GMT 47.288277 -2.443965 38,000 20 499 0
2022-06-26 13:26:17 GMT 47.288277 -2.443965 38,000 20 499 0
2022-06-26 13:26:14 GMT 47.281570 -2.447627 38,000 20 499 0
2022-06-26 13:26:12 GMT 47.277283 -2.450020 38,000 20 499 0
2022-06-26 13:26:06 GMT 47.255688 -2.461853 38,000 20 499 0
2022-06-26 13:26:02 GMT 47.246796 -2.466712 38,000 20 499 0
2022-06-26 13:25:59 GMT 47.246796 -2.466712 38,000 20 499 0
2022-06-26 13:25:56 GMT 47.243816 -2.468332 38,000 20 499 0
2022-06-26 13:25:52 GMT 47.229527 -2.476149 38,000 20 499 64
2022-06-26 13:25:49 GMT 47.221756 -2.480370 38,000 20 499 0
2022-06-26 13:25:46 GMT 47.221756 -2.480370 38,000 20 499 0
2022-06-26 13:25:43 GMT 47.205971 -2.489037 38,000 20 499 0
2022-06-26 13:25:39 GMT 47.205971 -2.489037 38,000 20 498 -64
2022-06-26 13:25:35 GMT 47.198227 -2.493279 38,000 20 498 0
2022-06-26 13:25:32 GMT 47.191956 -2.496712 38,000 20 498 0
2022-06-26 13:25:29 GMT 47.178783 -2.503967 38,000 20 498 0
2022-06-26 13:25:26 GMT 47.178783 -2.503967 38,000 20 498 0
2022-06-26 13:25:22 GMT 47.170624 -2.508453 38,000 20 498 0
2022-06-26 13:25:19 GMT 47.164772 -2.511714 38,000 20 498 0
2022-06-26 13:25:16 GMT 47.157898 -2.515457 38,000 20 498 0
2022-06-26 13:25:13 GMT 47.149887 -2.519852 38,000 20 498 0
2022-06-26 13:25:10 GMT 47.143452 -2.523405 38,000 20 498 0
2022-06-26 13:25:06 GMT 47.132858 -2.529190 38,000 20 498 0
2022-06-26 13:25:03 GMT 47.129208 -2.531222 38,000 20 498 0
2022-06-26 13:25:00 GMT 47.122742 -2.534752 38,000 20 498 0
2022-06-26 13:24:57 GMT 47.116013 -2.538460 38,000 20 498 0
2022-06-26 13:24:54 GMT 47.109787 -2.541893 38,000 20 498 0
2022-06-26 13:24:49 GMT 47.098576 -2.548053 38,000 20 498 -64
2022-06-26 13:24:46 GMT 47.092339 -2.551434 38,000 20 498 -64
2022-06-26 13:24:43 GMT 47.086075 -2.554871 38,000 20 498 0
2022-06-26 13:24:40 GMT 47.079582 -2.558476 38,000 20 498 64
2022-06-26 13:24:37 GMT 47.073120 -2.562012 38,000 20 498 64
2022-06-26 13:24:33 GMT 47.061951 -2.568123 38,000 20 498 0
2022-06-26 13:24:29 GMT 47.055698 -2.571575 38,000 20 498 0
2022-06-26 13:24:27 GMT 47.048996 -2.575238 38,000 20 498 0
2022-06-26 13:24:24 GMT 47.034119 -2.583366 38,000 20 498 0
2022-06-26 13:24:19 GMT 47.027435 -2.587006 38,000 20 498 0
2022-06-26 13:24:16 GMT 47.027435 -2.587006 38,000 20 498 0
2022-06-26 13:24:09 GMT 47.012558 -2.595108 38,000 20 498 0
2022-06-26 13:24:05 GMT 47.004181 -2.599709 38,000 20 498 0
2022-06-26 13:23:58 GMT 46.983452 -2.610943 38,000 20 498 0
2022-06-26 13:23:50 GMT 46.971176 -2.617630 38,000 20 498 0
2022-06-26 13:23:46 GMT 46.962341 -2.622437 38,000 20 498 0
2022-06-26 13:23:39 GMT 46.940762 -2.634183 38,000 20 498 0
2022-06-26 13:23:36 GMT 46.940762 -2.634183 38,000 20 498 0
2022-06-26 13:23:30 GMT 46.926956 -2.641663 38,000 20 498 0
2022-06-26 13:23:25 GMT 46.918369 -2.646367 38,000 20 498 0
2022-06-26 13:23:21 GMT 46.909286 -2.651276 38,000 20 498 0
2022-06-26 13:23:17 GMT 46.885132 -2.664396 38,000 20 498 0
2022-06-26 13:23:11 GMT 46.885132 -2.664396 38,000 20 498 0
2022-06-26 13:23:05 GMT 46.875870 -2.669396 38,000 20 498 0
2022-06-26 13:23:02 GMT 46.867447 -2.674004 38,000 20 498 0
2022-06-26 13:22:59 GMT 46.860764 -2.677650 38,000 20 498 0
2022-06-26 13:22:55 GMT 46.852341 -2.682205 38,000 20 498 0
2022-06-26 13:22:52 GMT 46.846077 -2.685608 38,000 20 498 0
2022-06-26 13:22:49 GMT 46.840073 -2.688904 38,000 20 498 0
2022-06-26 13:22:46 GMT 46.832062 -2.693191 38,000 20 498 0
2022-06-26 13:22:43 GMT 46.827316 -2.695839 38,000 20 500 0
2022-06-26 13:22:37 GMT 46.805946 -2.707443 38,000 20 499 0
2022-06-26 13:22:33 GMT 46.805946 -2.707443 38,000 20 499 0
2022-06-26 13:22:26 GMT 46.790634 -2.715767 38,000 20 499 0
2022-06-26 13:22:23 GMT 46.765320 -2.729433 38,000 20 499 0
2022-06-26 13:22:15 GMT 46.765320 -2.729433 38,000 20 499 0
2022-06-26 13:22:12 GMT 46.761246 -2.731643 38,000 20 499 0
2022-06-26 13:22:05 GMT 46.744812 -2.740553 38,000 20 499 0
2022-06-26 13:22:02 GMT 46.738308 -2.744041 38,000 20 499 0
2022-06-26 13:21:58 GMT 46.729416 -2.748848 38,000 20 499 0
2022-06-26 13:21:54 GMT 46.720570 -2.753654 38,000 20 500 0
2022-06-26 13:21:49 GMT 46.695248 -2.767387 38,000 20 500 0
2022-06-26 13:21:44 GMT 46.695248 -2.767387 38,000 20 500 0
2022-06-26 13:21:39 GMT 46.688076 -2.771233 38,000 20 500 0
2022-06-26 13:21:34 GMT 46.678986 -2.776125 38,000 20 500 0
2022-06-26 13:21:30 GMT 46.668823 -2.781618 38,000 20 500 0
2022-06-26 13:21:24 GMT 46.656887 -2.788055 38,000 20 501 0
2022-06-26 13:21:21 GMT 46.649094 -2.792202 38,000 20 501 0
2022-06-26 13:21:18 GMT 46.640408 -2.796913 38,000 20 501 0
2022-06-26 13:21:14 GMT 46.634960 -2.799797 38,000 20 501 0
2022-06-26 13:21:11 GMT 46.627579 -2.803791 38,000 20 501 0
2022-06-26 13:21:07 GMT 46.619797 -2.808012 38,000 20 501 0
2022-06-26 13:21:04 GMT 46.613270 -2.811539 38,000 20 501 0
2022-06-26 13:21:00 GMT 46.603500 -2.816787 38,000 20 501 0
2022-06-26 13:20:57 GMT 46.598045 -2.819710 38,000 20 501 0
2022-06-26 13:20:54 GMT 46.591763 -2.823074 38,000 20 501 0
2022-06-26 13:20:47 GMT 46.575485 -2.831860 38,000 20 502 -64
2022-06-26 13:20:43 GMT 46.567841 -2.835946 38,000 20 502 -64
2022-06-26 13:20:39 GMT 46.559174 -2.840652 37,000 20 502 0
2022-06-26 13:20:34 GMT 46.547195 -2.847067 38,000 20 502 0
2022-06-26 13:20:26 GMT 46.530033 -2.856308 38,000 20 502 0
2022-06-26 13:20:23 GMT 46.525238 -2.858849 38,000 20 502 0
2022-06-26 13:20:19 GMT 46.516068 -2.863747 38,000 20 503 0
2022-06-26 13:20:13 GMT 46.502563 -2.870982 38,000 20 503 0
2022-06-26 13:20:08 GMT 46.490833 -2.877251 38,000 20 503 0
2022-06-26 13:20:03 GMT 46.481003 -2.882504 38,000 20 503 0
2022-06-26 13:19:56 GMT 46.465530 -2.890811 38,000 20 504 0
2022-06-26 13:19:53 GMT 46.458996 -2.894279 38,000 20 503 0
2022-06-26 13:19:43 GMT 46.437626 -2.905746 38,000 20 503 0
2022-06-26 13:19:35 GMT 46.417328 -2.916595 38,000 20 504 0
2022-06-26 13:19:32 GMT 46.412750 -2.919014 38,000 20 504 0
2022-06-26 13:19:25 GMT 46.397221 -2.927307 38,000 20 504 0
2022-06-26 13:19:22 GMT 46.390228 -2.931005 38,000 20 504 0
2022-06-26 13:19:15 GMT 46.376038 -2.938575 38,000 20 504 0
2022-06-26 13:19:11 GMT 46.367287 -2.943237 38,000 20 504 0
2022-06-26 13:19:02 GMT 46.348068 -2.953514 38,000 20 504 0
2022-06-26 13:18:59 GMT 46.341934 -2.956729 38,000 20 505 0
2022-06-26 13:18:52 GMT 46.325272 -2.965572 38,000 20 504 0
2022-06-26 13:18:49 GMT 46.304672 -2.976471 38,000 20 505 0
2022-06-26 13:18:43 GMT 46.304672 -2.976471 38,000 20 505 -64
2022-06-26 13:18:38 GMT 46.294384 -2.981895 38,000 20 505 0
2022-06-26 13:18:32 GMT 46.282745 -2.988075 38,000 20 505 0
2022-06-26 13:18:28 GMT 46.273529 -2.992950 38,000 20 505 0
2022-06-26 13:18:22 GMT 46.260590 -2.999817 38,000 20 505 0
2022-06-26 13:18:18 GMT 46.250290 -3.005230 38,000 20 505 0
2022-06-26 13:18:12 GMT 46.237591 -3.011971 38,000 20 505 0
2022-06-26 13:18:06 GMT 46.225067 -3.018561 38,000 20 505 0
2022-06-26 13:18:02 GMT 46.216316 -3.023163 38,000 20 505 0
2022-06-26 13:17:56 GMT 46.201374 -3.031059 38,000 20 505 0
2022-06-26 13:17:52 GMT 46.194580 -3.034638 38,000 20 505 0
2022-06-26 13:17:49 GMT 46.186249 -3.039060 38,000 20 505 0
2022-06-26 13:17:45 GMT 46.178558 -3.043146 38,000 20 505 0
2022-06-26 13:17:41 GMT 46.169998 -3.047634 38,000 20 505 64
2022-06-26 13:17:35 GMT 46.156174 -3.054936 38,000 20 505 0
2022-06-26 13:17:32 GMT 46.149399 -3.058487 38,000 20 505 0
2022-06-26 13:17:22 GMT 46.127914 -3.069855 38,000 20 505 -64
2022-06-26 13:17:14 GMT 46.109478 -3.079536 38,000 20 505 0
2022-06-26 13:17:11 GMT 46.103336 -3.082764 38,000 20 505 0
2022-06-26 13:17:05 GMT 46.091045 -3.089218 38,000 20 505 0
2022-06-26 13:17:01 GMT 46.063625 -3.103638 38,000 20 504 0
2022-06-26 13:16:53 GMT 46.063625 -3.103638 38,000 20 505 0
2022-06-26 13:16:50 GMT 46.058807 -3.106183 38,000 20 504 0
2022-06-26 13:16:41 GMT 46.029236 -3.121792 38,000 20 504 0
2022-06-26 13:16:31 GMT 46.015640 -3.128960 36,000 20 505 0
2022-06-26 13:16:28 GMT 46.008648 -3.132614 36,000 20 505 0
2022-06-26 13:16:20 GMT 45.993073 -3.140750 38,000 20 504 0
2022-06-26 13:16:09 GMT 45.968719 -3.153545 38,000 20 504 0
2022-06-26 13:16:01 GMT 45.944172 -3.166397 38,000 20 504 0
2022-06-26 13:15:58 GMT 45.926670 -3.175529 38,000 20 504 0
2022-06-26 13:15:50 GMT 45.926670 -3.175529 38,000 20 504 0
2022-06-26 13:15:46 GMT 45.917217 -3.180473 38,000 20 504 0
2022-06-26 13:15:40 GMT 45.904953 -3.186906 38,000 20 504 0
2022-06-26 13:15:36 GMT 45.894699 -3.192265 38,000 20 504 0
2022-06-26 13:15:29 GMT 45.880024 -3.199974 38,000 20 505 0
2022-06-26 13:15:26 GMT 45.873646 -3.203270 38,000 20 505 0
2022-06-26 13:15:17 GMT 45.853271 -3.213903 38,000 20 505 -64
2022-06-26 13:15:10 GMT 45.839218 -3.221272 38,000 20 506 0
2022-06-26 13:15:07 GMT 45.829559 -3.226341 38,000 20 507 0
2022-06-26 13:14:58 GMT 45.813492 -3.234737 38,000 20 507 0
2022-06-26 13:14:54 GMT 45.804703 -3.239388 38,000 20 507 0
2022-06-26 13:14:44 GMT 45.780945 -3.251953 38,000 20 508 -64
2022-06-26 13:14:35 GMT 45.754669 -3.265753 38,000 20 509 0
2022-06-26 13:14:25 GMT 45.740318 -3.273308 38,000 20 510 0
2022-06-26 13:14:19 GMT 45.725281 -3.281161 38,000 20 509 0
2022-06-26 13:14:15 GMT 45.717957 -3.284979 38,000 19 510 0
2022-06-26 13:14:12 GMT 45.711090 -3.288530 38,000 19 510 0
2022-06-26 13:14:06 GMT 45.687622 -3.300636 38,000 19 510 0
2022-06-26 13:14:02 GMT 45.687622 -3.300636 38,000 19 510 0
2022-06-26 13:13:55 GMT 45.673611 -3.307915 38,000 19 510 0
2022-06-26 13:13:51 GMT 45.663208 -3.313249 38,000 19 510 0
2022-06-26 13:13:46 GMT 45.651443 -3.319345 38,000 19 510 0
2022-06-26 13:13:37 GMT 45.634369 -3.328102 38,000 19 510 0
2022-06-26 13:13:33 GMT 45.625076 -3.332944 38,000 19 510 0
2022-06-26 13:13:28 GMT 45.612213 -3.339643 38,000 20 509 0
2022-06-26 13:13:25 GMT 45.605598 -3.343071 38,000 20 509 0
2022-06-26 13:13:19 GMT 45.592758 -3.349758 38,000 20 509 0
2022-06-26 13:13:15 GMT 45.583439 -3.354607 38,000 20 509 0
2022-06-26 13:13:08 GMT 45.569752 -3.361748 38,000 20 509 64
2022-06-26 13:13:04 GMT 45.561127 -3.366238 38,000 20 509 64
2022-06-26 13:12:58 GMT 45.546291 -3.373901 38,000 19 509 0
2022-06-26 13:12:54 GMT 45.538330 -3.377969 38,000 19 509 0
2022-06-26 13:12:47 GMT 45.522640 -3.386067 38,000 19 509 0
2022-06-26 13:12:44 GMT 45.512913 -3.391091 38,000 19 509 0
2022-06-26 13:12:36 GMT 45.498528 -3.398460 38,000 19 508 0
2022-06-26 13:12:33 GMT 45.491684 -3.402010 38,000 19 508 0
2022-06-26 13:12:25 GMT 45.474880 -3.410652 38,000 20 508 0
2022-06-26 13:12:21 GMT 45.465179 -3.415702 38,000 20 508 0
2022-06-26 13:12:14 GMT 45.449089 -3.424050 38,000 20 508 0
2022-06-26 13:12:04 GMT 45.427048 -3.435516 38,000 20 507 0
2022-06-26 13:11:53 GMT 45.402397 -3.448300 38,000 19 507 0
2022-06-26 13:11:43 GMT 45.381454 -3.458993 38,000 19 506 0
2022-06-26 13:11:32 GMT 45.357880 -3.470960 38,000 19 506 64
2022-06-26 13:11:21 GMT 45.332756 -3.483671 38,000 19 506 0
2022-06-26 13:11:11 GMT 45.310730 -3.494829 38,000 19 506 0
2022-06-26 13:11:00 GMT 45.286064 -3.507318 38,000 19 506 0
2022-06-26 13:10:50 GMT 45.263813 -3.518573 38,000 19 505 0
2022-06-26 13:10:43 GMT 45.248611 -3.526284 38,000 19 506 0
2022-06-26 13:10:39 GMT 45.240490 -3.530430 38,000 19 506 0
2022-06-26 13:10:28 GMT 45.216095 -3.542890 38,000 19 506 0
2022-06-26 13:10:17 GMT 45.191704 -3.555350 38,000 19 505 0
2022-06-26 13:10:05 GMT 45.166443 -3.568268 38,000 19 505 0
2022-06-26 13:09:51 GMT 45.134815 -3.584491 38,000 19 505 0
2022-06-26 13:09:46 GMT 45.123184 -3.590437 38,000 19 505 0
2022-06-26 13:09:42 GMT 45.115032 -3.594606 38,000 19 505 0
2022-06-26 13:09:34 GMT 45.097733 -3.603450 38,000 19 505 0
2022-06-26 13:09:25 GMT 45.077091 -3.613966 38,000 19 505 0
2022-06-26 13:09:18 GMT 45.062614 -3.621402 38,000 19 505 64
2022-06-26 13:09:11 GMT 45.046143 -3.629804 38,000 19 504 0
2022-06-26 13:09:03 GMT 45.029701 -3.638149 38,000 19 504 0
2022-06-26 13:08:55 GMT 45.011684 -3.647260 38,000 19 504 0
2022-06-26 13:08:51 GMT 45.003754 -3.651254 38,000 19 504 0
2022-06-26 13:08:40 GMT 44.969971 -3.668387 38,000 19 504 64
2022-06-26 13:08:30 GMT 44.956787 -3.675058 38,000 19 504 0
2022-06-26 13:08:21 GMT 44.936596 -3.685243 38,000 19 504 0
2022-06-26 13:08:10 GMT 44.912201 -3.697636 38,000 19 504 64
2022-06-26 13:07:59 GMT 44.889393 -3.709159 38,000 19 504 0
2022-06-26 13:07:48 GMT 44.864998 -3.721485 38,000 19 504 0
2022-06-26 13:07:38 GMT 44.843033 -3.732540 38,000 19 504 0
2022-06-26 13:07:27 GMT 44.819332 -3.744529 38,000 19 504 0
2022-06-26 13:07:16 GMT 44.794739 -3.756866 38,000 19 504 0
2022-06-26 13:07:05 GMT 44.771255 -3.768703 38,000 19 505 0
2022-06-26 13:06:52 GMT 44.742706 -3.782914 38,000 19 505 0
2022-06-26 13:06:45 GMT 44.725571 -3.791460 38,000 19 505 0
2022-06-26 13:06:33 GMT 44.699829 -3.804284 38,000 19 505 0
2022-06-26 13:06:22 GMT 44.675858 -3.816275 38,000 19 505 64
2022-06-26 13:06:12 GMT 44.654957 -3.826659 38,000 19 506 0
2022-06-26 13:06:00 GMT 44.627861 -3.840124 38,000 19 506 0
2022-06-26 13:05:51 GMT 44.606915 -3.850641 38,000 19 506 0
2022-06-26 13:05:41 GMT 44.584614 -3.861761 38,000 19 507 -64
2022-06-26 13:05:29 GMT 44.559429 -3.874355 38,000 19 507 0
2022-06-26 13:05:19 GMT 44.536247 -3.885945 38,000 19 508 64
2022-06-26 13:05:03 GMT 44.502365 -3.902697 38,000 19 508 0
2022-06-26 13:04:55 GMT 44.482899 -3.912406 38,000 19 509 0
2022-06-26 13:04:43 GMT 44.456966 -3.925201 38,000 19 508 0
2022-06-26 13:04:34 GMT 44.437416 -3.934713 38,000 19 509 0
2022-06-26 13:04:31 GMT 44.430527 -3.938130 38,000 19 509 0
2022-06-26 13:04:26 GMT 44.419418 -3.943503 38,000 19 509 0
2022-06-26 13:04:14 GMT 44.391861 -3.956975 38,000 19 509 0
2022-06-26 13:04:03 GMT 44.368286 -3.968484 38,000 19 510 0
2022-06-26 13:03:53 GMT 44.345169 -3.979928 38,000 23 513 0
2022-06-26 13:03:47 GMT 44.331619 -3.986664 38,000 19 510 0
2022-06-26 13:03:43 GMT 44.323223 -3.991119 38,000 23 513 0
2022-06-26 13:03:40 GMT 44.317932 -3.994119 38,000 23 513 0
2022-06-26 13:03:33 GMT 44.301205 -4.004316 38,000 24 513 -64
2022-06-26 13:03:22 GMT 44.277786 -4.018903 38,000 23 514 64
2022-06-26 13:02:56 GMT 44.222305 -4.053040 38,000 23 514 0
2022-06-26 13:02:47 GMT 44.202934 -4.064941 38,000 23 514 -64
2022-06-26 13:02:01 GMT 44.102417 -4.127282 38,000 24 514 0
2022-06-26 13:01:57 GMT 44.092838 -4.133214 38,000 24 514 -64
2022-06-26 13:01:10 GMT 43.990700 -4.196516 38,000 23 514 -64
2022-06-26 13:00:49 GMT 43.946457 -4.223732 38,000 24 513 0
2022-06-26 13:00:46 GMT 43.939075 -4.228298 38,000 23 513 64
2022-06-26 13:00:35 GMT 43.916519 -4.242128 38,000 23 513 0
2022-06-26 13:00:31 GMT 43.906303 -4.248374 38,000 23 513 0
2022-06-26 13:00:24 GMT 43.888687 -4.259118 38,000 23 514 0
2022-06-26 13:00:20 GMT 43.883026 -4.262565 38,000 23 514 0
2022-06-26 13:00:13 GMT 43.867813 -4.271765 38,000 23 514 0
2022-06-26 13:00:02 GMT 43.843689 -4.286393 38,000 23 514 0
2022-06-26 12:59:56 GMT 43.831493 -4.293758 38,000 23 514 0
2022-06-26 12:59:53 GMT 43.823391 -4.298597 38,000 23 514 0
2022-06-26 12:59:47 GMT 43.810135 -4.306641 38,000 23 514 0
2022-06-26 12:59:43 GMT 43.800293 -4.312581 38,000 23 514 0
2022-06-26 12:59:40 GMT 43.797043 -4.314497 38,000 23 514 0
2022-06-26 12:59:37 GMT 43.787872 -4.320047 38,000 23 516 0
2022-06-26 12:59:31 GMT 43.776699 -4.326782 38,000 23 516 0
2022-06-26 12:59:26 GMT 43.766228 -4.333126 38,000 23 516 0
2022-06-26 12:59:22 GMT 43.755520 -4.339600 38,000 23 516 0
2022-06-26 12:59:16 GMT 43.743740 -4.346662 38,000 23 516 0
2022-06-26 12:59:11 GMT 43.732819 -4.353269 38,000 23 516 0
2022-06-26 12:59:06 GMT 43.721443 -4.360134 38,000 23 516 -64
2022-06-26 12:59:01 GMT 43.699375 -4.373474 38,000 23 515 64
2022-06-26 12:58:56 GMT 43.699375 -4.373474 38,000 23 515 64
2022-06-26 12:58:51 GMT 43.688251 -4.380144 38,000 23 515 0
2022-06-26 12:58:46 GMT 43.676880 -4.386994 38,000 23 515 0
2022-06-26 12:58:38 GMT 43.661388 -4.396362 38,000 23 515 0
2022-06-26 12:58:35 GMT 43.653534 -4.401110 38,000 23 515 0
2022-06-26 12:58:25 GMT 43.632385 -4.413949 38,000 23 514 0
2022-06-26 12:58:20 GMT 43.621719 -4.420464 38,000 23 514 0
2022-06-26 12:58:15 GMT 43.610825 -4.427043 38,000 23 514 0
2022-06-26 12:58:09 GMT 43.597961 -4.434836 38,000 23 514 0
2022-06-26 12:58:04 GMT 43.586441 -4.441877 38,000 23 514 0
2022-06-26 12:58:00 GMT 43.577084 -4.447566 38,000 23 514 -64
2022-06-26 12:57:55 GMT 43.565956 -4.454237 38,000 23 514 0
2022-06-26 12:57:49 GMT 43.553761 -4.461626 38,000 23 514 0
2022-06-26 12:57:45 GMT 43.544632 -4.467156 38,000 23 514 0
2022-06-26 12:57:39 GMT 43.529182 -4.476471 38,000 23 513 64
2022-06-26 12:57:35 GMT 43.517265 -4.483664 38,000 23 513 0
2022-06-26 12:57:29 GMT 43.508327 -4.489092 38,000 23 513 0
2022-06-26 12:57:24 GMT 43.500320 -4.493931 38,000 23 513 0
2022-06-26 12:57:19 GMT 43.486633 -4.502223 38,000 23 513 0
2022-06-26 12:57:14 GMT 43.476425 -4.508419 38,000 23 513 -64
2022-06-26 12:57:08 GMT 43.464008 -4.515904 38,000 23 513 0
2022-06-26 12:57:03 GMT 43.453171 -4.522407 38,000 23 513 0
2022-06-26 12:56:59 GMT 43.442551 -4.528858 38,000 23 513 64
2022-06-26 12:56:53 GMT 43.431244 -4.535629 38,000 23 513 64
2022-06-26 12:56:48 GMT 43.419971 -4.542389 38,000 23 512 0
2022-06-26 12:56:42 GMT 43.406937 -4.550256 38,000 23 512 0
2022-06-26 12:56:38 GMT 43.398697 -4.555174 38,000 23 512 0
2022-06-26 12:56:32 GMT 43.385242 -4.563184 38,000 23 512 0
2022-06-26 12:56:27 GMT 43.376537 -4.568351 38,000 23 512 0
2022-06-26 12:56:21 GMT 43.362671 -4.576636 38,000 23 512 64
2022-06-26 12:56:18 GMT 43.353333 -4.582129 38,000 23 511 0
2022-06-26 12:56:13 GMT 43.345276 -4.586920 38,000 23 511 0
2022-06-26 12:56:10 GMT 43.338593 -4.590944 38,000 23 511 0
2022-06-26 12:56:06 GMT 43.329891 -4.596143 38,000 23 511 0
2022-06-26 12:56:01 GMT 43.316666 -4.604038 38,000 23 511 0
2022-06-26 12:55:56 GMT 43.308849 -4.608699 38,000 23 511 0
2022-06-26 12:55:52 GMT 43.299122 -4.614519 38,000 23 512 0
2022-06-26 12:55:47 GMT 43.286728 -4.621923 38,000 23 513 0
2022-06-26 12:55:42 GMT 43.278671 -4.626713 38,000 23 513 0
2022-06-26 12:55:36 GMT 43.264572 -4.635208 38,000 23 514 0
2022-06-26 12:55:32 GMT 43.255409 -4.640612 38,000 23 514 0
2022-06-26 12:55:28 GMT 43.244095 -4.647413 38,000 23 514 0
2022-06-26 12:55:25 GMT 43.241070 -4.649244 38,000 23 514 0
2022-06-26 12:55:21 GMT 43.231888 -4.654754 38,000 23 514 -64
2022-06-26 12:55:16 GMT 43.220123 -4.661800 38,000 23 515 -64
2022-06-26 12:55:13 GMT 43.214676 -4.665070 38,000 23 515 -64
2022-06-26 12:55:10 GMT 43.210766 -4.667424 38,000 23 515 0
2022-06-26 12:55:06 GMT 43.197464 -4.675449 38,000 23 515 0
2022-06-26 12:55:02 GMT 43.184601 -4.683184 38,000 23 515 0
2022-06-26 12:54:55 GMT 43.174988 -4.688990 38,000 23 515 0
2022-06-26 12:54:52 GMT 43.169540 -4.692248 38,000 23 515 0
2022-06-26 12:54:48 GMT 43.161255 -4.697230 38,000 23 515 0
2022-06-26 12:54:46 GMT 43.156677 -4.699977 38,000 23 515 64
2022-06-26 12:54:43 GMT 43.147751 -4.705342 38,000 23 515 64
2022-06-26 12:54:37 GMT 43.133377 -4.713965 38,000 23 514 64
2022-06-26 12:54:34 GMT 43.130310 -4.715754 38,000 23 514 64
2022-06-26 12:54:30 GMT 43.121151 -4.721244 38,000 23 514 0
2022-06-26 12:54:24 GMT 43.108292 -4.728912 38,000 23 514 0
2022-06-26 12:54:21 GMT 43.101974 -4.732680 38,000 23 514 0
2022-06-26 12:54:14 GMT 43.086044 -4.742197 38,000 23 514 -64
2022-06-26 12:54:11 GMT 43.080837 -4.745309 38,000 23 514 -64
2022-06-26 12:54:04 GMT 43.063427 -4.755707 38,000 23 513 0
2022-06-26 12:54:01 GMT 43.058865 -4.758388 38,000 23 513 0
2022-06-26 12:53:58 GMT 43.052582 -4.762115 38,000 23 512 0
2022-06-26 12:53:54 GMT 43.041920 -4.768459 38,000 23 511 0
2022-06-26 12:53:51 GMT 43.036926 -4.771388 38,000 23 511 0
2022-06-26 12:53:45 GMT 43.022369 -4.779968 38,000 23 511 0
2022-06-26 12:53:42 GMT 43.014732 -4.784415 38,000 23 511 0
2022-06-26 12:53:38 GMT 43.007812 -4.788442 38,000 23 511 0
2022-06-26 12:53:34 GMT 42.997147 -4.794638 38,000 23 510 0
2022-06-26 12:53:31 GMT 42.992390 -4.797429 38,000 23 510 0
2022-06-26 12:53:23 GMT 42.974808 -4.807668 38,000 23 509 0
2022-06-26 12:53:20 GMT 42.969818 -4.810606 38,000 23 509 0
2022-06-26 12:53:15 GMT 42.957047 -4.818016 38,000 23 509 0
2022-06-26 12:53:11 GMT 42.948807 -4.822806 38,000 23 509 0
2022-06-26 12:53:08 GMT 42.943417 -4.825941 38,000 23 510 0
2022-06-26 12:53:03 GMT 42.929764 -4.833921 38,000 23 509 0
2022-06-26 12:53:00 GMT 42.926514 -4.835773 38,000 23 509 0
2022-06-26 12:52:55 GMT 42.913109 -4.843663 38,000 23 508 0
2022-06-26 12:52:52 GMT 42.908340 -4.846440 38,000 23 508 0
2022-06-26 12:52:48 GMT 42.899654 -4.851445 38,000 23 508 0
2022-06-26 12:52:45 GMT 42.892067 -4.855826 38,000 23 509 0
2022-06-26 12:52:41 GMT 42.882156 -4.861642 38,000 23 509 0
2022-06-26 12:52:37 GMT 42.875839 -4.865283 38,000 23 509 64
2022-06-26 12:52:33 GMT 42.868286 -4.869690 38,000 23 509 64
2022-06-26 12:52:30 GMT 42.860924 -4.874006 38,000 23 509 0
2022-06-26 12:52:24 GMT 42.847092 -4.882081 38,000 23 509 0
2022-06-26 12:52:20 GMT 42.838440 -4.887191 38,000 23 508 0
2022-06-26 12:52:13 GMT 42.823105 -4.896198 38,000 23 508 0
2022-06-26 12:52:10 GMT 42.817074 -4.899706 38,000 23 508 0
2022-06-26 12:52:06 GMT 42.808228 -4.904948 38,000 23 508 0
2022-06-26 12:52:03 GMT 42.801525 -4.908845 38,000 23 508 0
2022-06-26 12:52:00 GMT 42.794819 -4.912805 38,000 23 508 64
2022-06-26 12:51:56 GMT 42.786850 -4.917443 38,000 23 508 64
2022-06-26 12:51:53 GMT 42.781448 -4.920627 38,000 23 508 64
2022-06-26 12:51:50 GMT 42.773026 -4.925558 38,000 23 508 0
2022-06-26 12:51:46 GMT 42.765472 -4.929990 38,000 23 508 0
2022-06-26 12:51:43 GMT 42.757050 -4.934921 38,000 23 508 -64
2022-06-26 12:51:39 GMT 42.750595 -4.938738 38,000 23 508 -64
2022-06-26 12:51:36 GMT 42.743893 -4.942698 38,000 23 508 -64
2022-06-26 12:51:33 GMT 42.737656 -4.946403 38,000 23 508 0
2022-06-26 12:51:28 GMT 42.726883 -4.952774 38,000 23 508 0
2022-06-26 12:51:23 GMT 42.716354 -4.959079 38,000 23 508 0
2022-06-26 12:51:19 GMT 42.707302 -4.964415 38,000 23 508 0
2022-06-26 12:51:16 GMT 42.701065 -4.968120 38,000 23 507 0
2022-06-26 12:51:11 GMT 42.689892 -4.974763 38,000 23 507 0
2022-06-26 12:51:08 GMT 42.684723 -4.977765 38,000 23 507 0
2022-06-26 12:51:05 GMT 42.677181 -4.982236 38,000 23 507 0
2022-06-26 12:51:03 GMT 42.672668 -4.984919 38,000 23 507 0
2022-06-26 12:50:56 GMT 42.657394 -4.993973 38,000 23 507 0
2022-06-26 12:50:52 GMT 42.650322 -4.998141 38,000 23 507 0
2022-06-26 12:50:49 GMT 42.641693 -5.003211 38,000 23 507 0
2022-06-26 12:50:43 GMT 42.628372 -5.010952 38,000 23 507 0
2022-06-26 12:50:39 GMT 42.619320 -5.016217 38,000 23 506 0
2022-06-26 12:50:36 GMT 42.606628 -5.023623 38,000 23 506 0
2022-06-26 12:50:32 GMT 42.606628 -5.023623 38,000 23 506 0
2022-06-26 12:50:28 GMT 42.597794 -5.028742 38,000 23 506 0
2022-06-26 12:50:25 GMT 42.591572 -5.032377 38,000 23 506 0
2022-06-26 12:50:22 GMT 42.584496 -5.036465 38,000 23 506 0
2022-06-26 12:50:18 GMT 42.575455 -5.041726 38,000 23 506 0
2022-06-26 12:50:15 GMT 42.569229 -5.045346 38,000 23 506 0
2022-06-26 12:50:11 GMT 42.561920 -5.049559 38,000 23 506 0
2022-06-26 12:50:08 GMT 42.553299 -5.054585 38,000 23 506 0
2022-06-26 12:50:01 GMT 42.540436 -5.062076 38,000 23 506 0
2022-06-26 12:49:58 GMT 42.532059 -5.067007 38,000 23 506 0
2022-06-26 12:49:55 GMT 42.525833 -5.070627 38,000 23 506 0
2022-06-26 12:49:51 GMT 42.518921 -5.074560 38,000 23 505 0
2022-06-26 12:49:48 GMT 42.509720 -5.079928 38,000 23 505 0
2022-06-26 12:49:45 GMT 42.504520 -5.082901 38,000 23 506 0
2022-06-26 12:49:42 GMT 42.496811 -5.087419 38,000 23 506 0
2022-06-26 12:49:38 GMT 42.490128 -5.091289 38,000 23 506 0
2022-06-26 12:49:34 GMT 42.481750 -5.096158 38,000 23 506 0
2022-06-26 12:49:30 GMT 42.473373 -5.101027 38,000 23 506 0
2022-06-26 12:49:27 GMT 42.465408 -5.105646 38,000 23 506 0
2022-06-26 12:49:21 GMT 42.452545 -5.113137 38,000 23 506 0
2022-06-26 12:49:15 GMT 42.438602 -5.121226 38,000 23 506 0
2022-06-26 12:49:11 GMT 42.431061 -5.125633 38,000 23 506 0
2022-06-26 12:49:07 GMT 42.424850 -5.129242 38,000 23 506 0
2022-06-26 12:49:04 GMT 42.417755 -5.133362 38,000 23 505 0
2022-06-26 12:49:00 GMT 42.409599 -5.138088 38,000 23 505 0
2022-06-26 12:48:56 GMT 42.394100 -5.146967 38,000 23 504 0
2022-06-26 12:48:53 GMT 42.387905 -5.150608 38,000 23 504 0
2022-06-26 12:48:50 GMT 42.387905 -5.150608 38,000 23 504 0
2022-06-26 12:48:45 GMT 42.376099 -5.157394 38,000 23 504 0
2022-06-26 12:48:41 GMT 42.365795 -5.163319 38,000 23 504 0
2022-06-26 12:48:36 GMT 42.357414 -5.168173 38,000 23 504 0
2022-06-26 12:48:33 GMT 42.344753 -5.175455 38,000 23 504 0
2022-06-26 12:48:30 GMT 42.344753 -5.175455 38,000 23 504 0
2022-06-26 12:48:25 GMT 42.332520 -5.182488 38,000 23 504 0
2022-06-26 12:48:22 GMT 42.325836 -5.186358 38,000 23 504 0
2022-06-26 12:48:19 GMT 42.321762 -5.188730 38,000 23 504 0
2022-06-26 12:48:16 GMT 42.313385 -5.193537 38,000 23 505 0
2022-06-26 12:48:13 GMT 42.306767 -5.197364 38,000 23 505 0
2022-06-26 12:48:10 GMT 42.300529 -5.201004 38,000 23 504 0
2022-06-26 12:48:06 GMT 42.292149 -5.205795 38,000 23 505 0
2022-06-26 12:48:03 GMT 42.285492 -5.209691 38,000 23 505 0
2022-06-26 12:48:00 GMT 42.278835 -5.213524 38,000 23 506 0
2022-06-26 12:47:56 GMT 42.270454 -5.218378 38,000 23 506 0
2022-06-26 12:47:53 GMT 42.264870 -5.221572 38,000 23 506 0
2022-06-26 12:47:49 GMT 42.257126 -5.226059 38,000 23 506 0
2022-06-26 12:47:46 GMT 42.247272 -5.231792 38,000 23 506 0
2022-06-26 12:47:42 GMT 42.241699 -5.234985 38,000 23 506 0
2022-06-26 12:47:39 GMT 42.234798 -5.239009 38,000 23 506 0
2022-06-26 12:47:35 GMT 42.226418 -5.243800 38,000 23 506 0
2022-06-26 12:47:32 GMT 42.213089 -5.251527 38,000 23 506 0
2022-06-26 12:47:29 GMT 42.213089 -5.251527 38,000 23 506 0
2022-06-26 12:47:23 GMT 42.200024 -5.259130 38,000 23 505 0
2022-06-26 12:47:19 GMT 42.190758 -5.264431 38,000 23 505 0
2022-06-26 12:47:15 GMT 42.182381 -5.269286 38,000 23 505 0
2022-06-26 12:47:11 GMT 42.174000 -5.274076 38,000 23 505 0
2022-06-26 12:47:08 GMT 42.167950 -5.277525 38,000 23 505 0
2022-06-26 12:47:03 GMT 42.156143 -5.284361 38,000 23 505 0
2022-06-26 12:46:58 GMT 42.146896 -5.289667 38,000 23 505 0
2022-06-26 12:46:54 GMT 42.138294 -5.294580 38,000 23 505 0
2022-06-26 12:46:51 GMT 42.124969 -5.302277 38,000 23 505 0
2022-06-26 12:46:48 GMT 42.124969 -5.302277 38,000 23 505 0
2022-06-26 12:46:45 GMT 42.116180 -5.307291 38,000 23 505 64
2022-06-26 12:46:42 GMT 42.111855 -5.309782 38,000 23 506 0
2022-06-26 12:46:38 GMT 42.102814 -5.314948 38,000 23 505 0
2022-06-26 12:46:32 GMT 42.088623 -5.323001 38,000 23 506 0
2022-06-26 12:46:27 GMT 42.080658 -5.327558 38,000 23 506 0
2022-06-26 12:46:24 GMT 42.072693 -5.332114 38,000 23 506 0
2022-06-26 12:46:21 GMT 42.067291 -5.335173 38,000 23 506 0
2022-06-26 12:46:17 GMT 42.059574 -5.339611 38,000 23 506 0
2022-06-26 12:46:14 GMT 42.051590 -5.344162 38,000 23 506 0
2022-06-26 12:46:10 GMT 42.043213 -5.348969 38,000 23 506 0
2022-06-26 12:46:07 GMT 42.036942 -5.352527 38,000 23 506 0
2022-06-26 12:46:01 GMT 42.023163 -5.360392 38,000 23 506 0
2022-06-26 12:45:58 GMT 42.014740 -5.365136 38,000 22 507 0
2022-06-26 12:45:54 GMT 42.007187 -5.369443 38,000 23 506 0
2022-06-26 12:45:51 GMT 41.992306 -5.377935 38,000 23 506 0
2022-06-26 12:45:47 GMT 41.992306 -5.377935 38,000 23 506 0
2022-06-26 12:45:43 GMT 41.984116 -5.382614 38,000 22 507 0
2022-06-26 12:45:39 GMT 41.977661 -5.386297 38,000 23 506 0
2022-06-26 12:45:36 GMT 41.970978 -5.390105 38,000 23 506 0
2022-06-26 12:45:33 GMT 41.962326 -5.394990 38,000 23 506 0
2022-06-26 12:45:27 GMT 41.949600 -5.402215 38,000 22 507 0
2022-06-26 12:45:22 GMT 41.940765 -5.407271 38,000 22 507 0
2022-06-26 12:45:19 GMT 41.933212 -5.411578 38,000 22 507 0
2022-06-26 12:45:16 GMT 41.926117 -5.415573 38,000 22 507 0
2022-06-26 12:45:13 GMT 41.918747 -5.419755 38,000 22 507 0
2022-06-26 12:45:10 GMT 41.904099 -5.428120 38,000 23 507 0
2022-06-26 12:45:07 GMT 41.904099 -5.428120 38,000 23 507 0
2022-06-26 12:45:02 GMT 41.896957 -5.432177 38,000 23 507 0
2022-06-26 12:44:59 GMT 41.889404 -5.436485 38,000 23 507 0
2022-06-26 12:44:56 GMT 41.883560 -5.439765 38,000 23 507 0
2022-06-26 12:44:52 GMT 41.874939 -5.444724 38,000 23 507 0
2022-06-26 12:44:48 GMT 41.865875 -5.449843 38,000 23 507 0
2022-06-26 12:44:46 GMT 41.861526 -5.452340 38,000 23 507 0
2022-06-26 12:44:42 GMT 41.852695 -5.457395 38,000 23 507 0
2022-06-26 12:44:38 GMT 41.843849 -5.462441 38,000 23 507 0
2022-06-26 12:44:35 GMT 41.839279 -5.465012 38,000 23 508 0
2022-06-26 12:44:31 GMT 41.829987 -5.470255 38,000 22 508 0
2022-06-26 12:44:28 GMT 41.823090 -5.474193 38,000 23 508 0
2022-06-26 12:44:25 GMT 41.817032 -5.477621 38,000 23 508 0
2022-06-26 12:44:22 GMT 41.809021 -5.482178 38,000 23 508 0
2022-06-26 12:44:19 GMT 41.803864 -5.485116 38,000 23 508 0
2022-06-26 12:44:15 GMT 41.795856 -5.489651 38,000 23 508 0
2022-06-26 12:44:11 GMT 41.786316 -5.495099 38,000 23 508 0
2022-06-26 12:44:06 GMT 41.773327 -5.502490 38,000 23 508 0
2022-06-26 12:44:01 GMT 41.764709 -5.507396 38,000 23 508 0
2022-06-26 12:43:58 GMT 41.751026 -5.515137 38,000 23 508 -64
2022-06-26 12:43:55 GMT 41.751026 -5.515137 38,000 22 509 -64
2022-06-26 12:43:52 GMT 41.743904 -5.519225 38,000 22 509 0
2022-06-26 12:43:48 GMT 41.736549 -5.523376 38,000 22 509 0
2022-06-26 12:43:45 GMT 41.730011 -5.527059 38,000 22 509 0
2022-06-26 12:43:40 GMT 41.720070 -5.532702 38,000 22 509 0
2022-06-26 12:43:36 GMT 41.710968 -5.537858 38,000 22 510 0
2022-06-26 12:43:29 GMT 41.695312 -5.546722 38,000 22 510 0
2022-06-26 12:43:26 GMT 41.688583 -5.550530 38,000 22 510 0
2022-06-26 12:43:20 GMT 41.676029 -5.557613 38,000 22 510 0
2022-06-26 12:43:16 GMT 41.667091 -5.562659 38,000 22 510 0
2022-06-26 12:43:09 GMT 41.652802 -5.570771 38,000 22 510 0
2022-06-26 12:43:04 GMT 41.639099 -5.578495 38,000 22 510 0
2022-06-26 12:43:00 GMT 41.631500 -5.582803 38,000 22 510 0
2022-06-26 12:42:56 GMT 41.621750 -5.588296 38,000 22 510 0
2022-06-26 12:42:48 GMT 41.605877 -5.597279 38,000 22 510 0
2022-06-26 12:42:45 GMT 41.599777 -5.600664 38,000 22 510 0
2022-06-26 12:42:42 GMT 41.592819 -5.604588 38,000 22 510 0
2022-06-26 12:42:39 GMT 41.584808 -5.609145 38,000 22 510 0
2022-06-26 12:42:34 GMT 41.567413 -5.618883 38,000 22 510 0
2022-06-26 12:42:30 GMT 41.567413 -5.618883 38,000 22 510 0
2022-06-26 12:42:27 GMT 41.560867 -5.622566 38,000 22 510 0
2022-06-26 12:42:24 GMT 41.544983 -5.631429 38,000 24 512 0
2022-06-26 12:42:20 GMT 41.544983 -5.631429 38,000 24 512 0
2022-06-26 12:42:16 GMT 41.537613 -5.635799 38,000 24 512 0
2022-06-26 12:42:13 GMT 41.531578 -5.639436 38,000 27 514 0
2022-06-26 12:42:08 GMT 41.507401 -5.655837 38,000 28 516 0
2022-06-26 12:42:02 GMT 41.503189 -5.658833 38,000 28 516 0
2022-06-26 12:41:57 GMT 41.497269 -5.663005 38,000 27 516 0
2022-06-26 12:41:52 GMT 41.485493 -5.671373 38,000 27 516 0
2022-06-26 12:41:47 GMT 41.475994 -5.678079 38,000 27 516 64
2022-06-26 12:41:44 GMT 41.467575 -5.683989 38,000 27 516 0
2022-06-26 12:41:41 GMT 41.463985 -5.686511 38,000 27 516 0
2022-06-26 12:41:36 GMT 41.451096 -5.695600 38,000 28 516 0
2022-06-26 12:41:33 GMT 41.431911 -5.709186 38,000 28 516 0
2022-06-26 12:41:26 GMT 41.431911 -5.709186 38,000 28 516 0
2022-06-26 12:41:23 GMT 41.423717 -5.714998 38,000 28 516 0
2022-06-26 12:41:20 GMT 41.417152 -5.719661 38,000 28 516 0
2022-06-26 12:41:17 GMT 41.400723 -5.731286 38,000 28 516 0
2022-06-26 12:41:13 GMT 41.400723 -5.731286 38,000 28 516 0
2022-06-26 12:41:09 GMT 41.389130 -5.739526 38,000 28 517 0
2022-06-26 12:41:06 GMT 41.389130 -5.739526 38,000 28 517 0
2022-06-26 12:41:00 GMT 41.375427 -5.749207 38,000 28 517 0
2022-06-26 12:40:56 GMT 41.367599 -5.754761 38,000 28 517 0
2022-06-26 12:40:52 GMT 41.359360 -5.760620 38,000 28 517 0
2022-06-26 12:40:48 GMT 41.350956 -5.766574 38,000 28 517 0
2022-06-26 12:40:45 GMT 41.335144 -5.777771 38,000 28 516 0
2022-06-26 12:40:40 GMT 41.335144 -5.777771 38,000 28 516 0
2022-06-26 12:40:36 GMT 41.323975 -5.785706 38,000 28 516 0
2022-06-26 12:40:32 GMT 41.315323 -5.791809 38,000 28 516 0
2022-06-26 12:40:27 GMT 41.304173 -5.799720 38,000 28 516 0
2022-06-26 12:40:24 GMT 41.300995 -5.801941 38,000 28 516 0
2022-06-26 12:40:18 GMT 41.286667 -5.812073 38,000 28 515 0
2022-06-26 12:40:14 GMT 41.279919 -5.816824 38,000 28 515 0
2022-06-26 12:40:10 GMT 41.271515 -5.822815 38,000 28 516 0
2022-06-26 12:40:06 GMT 41.262039 -5.829529 38,000 28 515 0
2022-06-26 12:39:59 GMT 41.246933 -5.840210 38,000 28 514 0
2022-06-26 12:39:56 GMT 41.240814 -5.844539 38,000 28 514 0
2022-06-26 12:39:50 GMT 41.228851 -5.853027 38,000 28 514 0
2022-06-26 12:39:47 GMT 41.223591 -5.856712 38,000 28 514 0
2022-06-26 12:39:45 GMT 41.219212 -5.859833 38,000 28 514 0
2022-06-26 12:39:42 GMT 41.212463 -5.864577 38,000 28 514 0
2022-06-26 12:39:36 GMT 41.199692 -5.873596 38,000 27 514 0
2022-06-26 12:39:33 GMT 41.194016 -5.877563 38,000 27 514 0
2022-06-26 12:39:26 GMT 41.179131 -5.888048 38,000 27 514 0
2022-06-26 12:39:23 GMT 41.173050 -5.892334 38,000 27 514 0
2022-06-26 12:39:17 GMT 41.157944 -5.902954 38,000 28 513 0
2022-06-26 12:39:14 GMT 41.151665 -5.907336 38,000 28 513 0
2022-06-26 12:39:08 GMT 41.140137 -5.915405 38,000 27 512 0
2022-06-26 12:39:04 GMT 41.133232 -5.920258 38,000 27 512 0
2022-06-26 12:39:01 GMT 41.123383 -5.927185 38,000 27 512 0
2022-06-26 12:38:57 GMT 41.118347 -5.930725 38,000 27 512 0
2022-06-26 12:38:55 GMT 41.111847 -5.935242 38,000 27 512 0
2022-06-26 12:38:52 GMT 41.108047 -5.937866 38,000 27 512 0
2022-06-26 12:38:49 GMT 41.100319 -5.943291 38,000 27 512 0
2022-06-26 12:38:45 GMT 41.093197 -5.948285 38,000 27 512 0
2022-06-26 12:38:42 GMT 41.086487 -5.952942 38,000 27 512 0
2022-06-26 12:38:39 GMT 41.080399 -5.957153 38,000 27 510 0
2022-06-26 12:38:35 GMT 41.072433 -5.962705 38,000 27 512 0
2022-06-26 12:38:32 GMT 41.066383 -5.966949 38,000 27 512 0
2022-06-26 12:38:29 GMT 41.059444 -5.971756 38,000 27 512 0
2022-06-26 12:38:26 GMT 41.052155 -5.976868 38,000 27 512 0
2022-06-26 12:38:22 GMT 41.037918 -5.986816 38,000 27 511 0
2022-06-26 12:38:19 GMT 41.037918 -5.986816 38,000 27 511 0
2022-06-26 12:38:16 GMT 41.029560 -5.992667 38,000 27 511 0
2022-06-26 12:38:12 GMT 41.022621 -5.997474 38,000 27 511 0
2022-06-26 12:38:09 GMT 41.017822 -6.000854 38,000 27 511 0
2022-06-26 12:38:04 GMT 41.005074 -6.009709 38,000 27 511 0
2022-06-26 12:37:59 GMT 40.987335 -6.022095 38,000 27 510 0
2022-06-26 12:37:55 GMT 40.987335 -6.022095 38,000 27 510 -64
2022-06-26 12:37:52 GMT 40.979378 -6.027686 38,000 27 510 -64
2022-06-26 12:37:48 GMT 40.964172 -6.038330 38,000 27 510 0
2022-06-26 12:37:44 GMT 40.964172 -6.038330 38,000 27 510 0
2022-06-26 12:37:41 GMT 40.958755 -6.042106 38,000 27 510 0
2022-06-26 12:37:37 GMT 40.942703 -6.053345 38,000 27 509 0
2022-06-26 12:37:33 GMT 40.942703 -6.053345 38,000 27 510 0
2022-06-26 12:37:30 GMT 40.935837 -6.058105 38,000 27 509 0
2022-06-26 12:37:27 GMT 40.930206 -6.062073 38,000 27 509 0
2022-06-26 12:37:23 GMT 40.919788 -6.069322 38,000 27 509 0
2022-06-26 12:37:19 GMT 40.911690 -6.075002 38,000 27 509 0
2022-06-26 12:37:14 GMT 40.901493 -6.082119 38,000 27 509 0
2022-06-26 12:37:08 GMT 40.889603 -6.090393 38,000 27 509 0
2022-06-26 12:37:04 GMT 40.881943 -6.095789 38,000 27 509 0
2022-06-26 12:36:57 GMT 40.867172 -6.106079 38,000 27 509 0
2022-06-26 12:36:53 GMT 40.851791 -6.116821 38,000 27 508 0
2022-06-26 12:36:49 GMT 40.851791 -6.116821 38,000 27 508 0
2022-06-26 12:36:46 GMT 40.844330 -6.122069 38,000 27 508 0
2022-06-26 12:36:42 GMT 40.836411 -6.127563 38,000 27 508 0
2022-06-26 12:36:39 GMT 40.830002 -6.132019 38,000 27 508 0
2022-06-26 12:36:36 GMT 40.824356 -6.135927 38,000 27 507 0
2022-06-26 12:36:33 GMT 40.817513 -6.140733 38,000 27 507 0
2022-06-26 12:36:30 GMT 40.805695 -6.148926 38,000 27 507 0
2022-06-26 12:36:22 GMT 40.794472 -6.156713 38,000 27 507 0
2022-06-26 12:36:17 GMT 40.784740 -6.163517 38,000 27 507 0
2022-06-26 12:36:11 GMT 40.772690 -6.171875 38,000 27 506 0
2022-06-26 12:36:08 GMT 40.764633 -6.177490 38,000 27 506 0
2022-06-26 12:36:05 GMT 40.758636 -6.181641 38,000 27 506 0
2022-06-26 12:36:01 GMT 40.748245 -6.188861 38,000 27 506 0
2022-06-26 12:35:57 GMT 40.742889 -6.192566 38,000 27 506 0
2022-06-26 12:35:54 GMT 40.734787 -6.198181 38,000 27 506 0
2022-06-26 12:35:50 GMT 40.727554 -6.203186 38,000 27 506 0
2022-06-26 12:35:47 GMT 40.722565 -6.206665 38,000 27 506 0
2022-06-26 12:35:44 GMT 40.714691 -6.212097 38,000 27 506 0
2022-06-26 12:35:41 GMT 40.709702 -6.215515 38,000 27 506 0
2022-06-26 12:35:38 GMT 40.701645 -6.221130 38,000 27 506 0
2022-06-26 12:35:33 GMT 40.692307 -6.227539 38,000 27 506 0
2022-06-26 12:35:30 GMT 40.687355 -6.230996 38,000 27 506 0
2022-06-26 12:35:27 GMT 40.680496 -6.235718 38,000 27 506 0
2022-06-26 12:35:22 GMT 40.669945 -6.242981 38,000 27 506 0
2022-06-26 12:35:17 GMT 40.660213 -6.249723 38,000 27 506 0
2022-06-26 12:35:14 GMT 40.652950 -6.254716 38,000 27 506 0
2022-06-26 12:35:10 GMT 40.645111 -6.260193 38,000 27 506 0
2022-06-26 12:35:07 GMT 40.638893 -6.264454 38,000 27 506 0
2022-06-26 12:35:01 GMT 40.627537 -6.272319 38,000 27 506 0
2022-06-26 12:34:57 GMT 40.618195 -6.278748 38,000 27 506 0
2022-06-26 12:34:50 GMT 40.601212 -6.290527 38,000 27 506 0
2022-06-26 12:34:46 GMT 40.596485 -6.293793 38,000 27 506 0
2022-06-26 12:34:42 GMT 40.585918 -6.301096 38,000 27 506 0
2022-06-26 12:34:39 GMT 40.580933 -6.304565 38,000 27 506 0
2022-06-26 12:34:36 GMT 40.575581 -6.308275 38,000 27 506 0
2022-06-26 12:34:31 GMT 40.563950 -6.316284 38,000 27 506 0
2022-06-26 12:34:27 GMT 40.554245 -6.323059 38,000 27 506 -64
2022-06-26 12:34:23 GMT 40.545929 -6.328749 38,000 27 506 0
2022-06-26 12:34:19 GMT 40.538910 -6.333618 38,000 27 506 0
2022-06-26 12:34:15 GMT 40.532501 -6.338074 38,000 27 506 0
2022-06-26 12:34:12 GMT 40.523987 -6.343933 38,000 27 506 0
2022-06-26 12:34:09 GMT 40.516972 -6.348787 38,000 27 506 0
2022-06-26 12:34:06 GMT 40.513046 -6.351562 38,000 27 506 0
2022-06-26 12:34:03 GMT 40.505569 -6.356714 38,000 27 506 0
2022-06-26 12:33:58 GMT 40.495605 -6.363581 38,000 27 506 0
2022-06-26 12:33:55 GMT 40.490623 -6.367014 38,000 27 506 0
2022-06-26 12:33:51 GMT 40.481316 -6.373444 38,000 27 506 0
2022-06-26 12:33:46 GMT 40.469723 -6.381434 38,000 27 507 0
2022-06-26 12:33:42 GMT 40.462646 -6.386292 38,000 27 506 0
2022-06-26 12:33:36 GMT 40.449612 -6.395291 38,000 27 506 0
2022-06-26 12:33:33 GMT 40.443794 -6.399286 38,000 27 506 0
2022-06-26 12:33:30 GMT 40.438385 -6.402954 38,000 27 506 0
2022-06-26 12:33:27 GMT 40.431107 -6.407959 38,000 27 506 0
2022-06-26 12:33:24 GMT 40.425919 -6.411521 38,000 27 506 0
2022-06-26 12:33:20 GMT 40.418655 -6.416453 38,000 27 506 0
2022-06-26 12:33:17 GMT 40.410141 -6.422302 38,000 27 506 0
2022-06-26 12:33:13 GMT 40.399979 -6.429260 38,000 27 506 0
2022-06-26 12:33:10 GMT 40.397095 -6.431274 38,000 27 506 0
2022-06-26 12:33:05 GMT 40.384392 -6.439861 38,000 27 506 0
2022-06-26 12:33:00 GMT 40.375874 -6.445666 38,000 27 506 0
2022-06-26 12:32:57 GMT 40.367981 -6.451050 38,000 27 506 0
2022-06-26 12:32:54 GMT 40.362808 -6.454590 38,000 27 506 0
2022-06-26 12:32:50 GMT 40.353058 -6.461243 38,000 27 506 0
2022-06-26 12:32:47 GMT 40.348892 -6.464050 38,000 27 506 0
2022-06-26 12:32:44 GMT 40.341003 -6.469449 38,000 27 506 0
2022-06-26 12:32:41 GMT 40.330204 -6.476815 38,000 27 506 0
2022-06-26 12:32:38 GMT 40.330204 -6.476815 38,000 27 506 0
2022-06-26 12:32:33 GMT 40.319412 -6.484192 38,000 27 506 0
2022-06-26 12:32:30 GMT 40.311119 -6.489799 38,000 27 506 0
2022-06-26 12:32:24 GMT 40.299480 -6.497726 38,000 27 506 0
2022-06-26 12:32:21 GMT 40.294498 -6.501160 38,000 27 506 0
2022-06-26 12:32:18 GMT 40.288074 -6.505529 38,000 27 506 0
2022-06-26 12:32:15 GMT 40.282242 -6.509521 38,000 27 506 0
2022-06-26 12:32:11 GMT 40.275227 -6.514331 38,000 27 506 0
2022-06-26 12:32:08 GMT 40.267963 -6.519262 38,000 27 506 0
2022-06-26 12:32:04 GMT 40.259628 -6.524902 38,000 27 506 0
2022-06-26 12:32:01 GMT 40.253632 -6.528992 38,000 27 506 0
2022-06-26 12:31:58 GMT 40.246132 -6.534056 38,000 27 505 0
2022-06-26 12:31:54 GMT 40.239521 -6.538551 38,000 27 505 0
2022-06-26 12:31:51 GMT 40.231190 -6.544231 38,000 27 505 0
2022-06-26 12:31:48 GMT 40.225159 -6.548279 38,000 27 505 0
2022-06-26 12:31:45 GMT 40.218750 -6.552673 38,000 27 505 0
2022-06-26 12:31:42 GMT 40.207123 -6.560547 38,000 27 506 0
2022-06-26 12:31:39 GMT 40.199844 -6.565491 38,000 27 506 0
2022-06-26 12:31:32 GMT 40.192200 -6.570679 38,000 27 505 0
2022-06-26 12:31:27 GMT 40.181213 -6.578186 38,000 27 505 -64
2022-06-26 12:31:22 GMT 40.171696 -6.584681 38,025 27 505 -64
2022-06-26 12:31:18 GMT 40.163593 -6.590174 38,000 27 505 0
2022-06-26 12:31:14 GMT 40.154701 -6.596291 38,000 27 505 64
2022-06-26 12:31:10 GMT 40.147488 -6.601223 38,000 27 505 64
2022-06-26 12:31:07 GMT 40.141483 -6.605343 38,000 27 505 64
2022-06-26 12:31:04 GMT 40.135105 -6.609712 38,000 27 504 0
2022-06-26 12:31:01 GMT 40.128891 -6.613953 38,000 27 504 0
2022-06-26 12:30:57 GMT 40.120422 -6.619751 38,000 27 504 0
2022-06-26 12:30:53 GMT 40.113602 -6.624390 38,000 27 504 0
2022-06-26 12:30:50 GMT 40.106369 -6.629272 38,000 27 504 0
2022-06-26 12:30:47 GMT 40.092911 -6.638428 38,000 27 504 0
2022-06-26 12:30:43 GMT 40.092911 -6.638428 38,000 27 504 0
2022-06-26 12:30:40 GMT 40.086502 -6.642761 38,000 27 504 0
2022-06-26 12:30:37 GMT 40.080315 -6.646978 38,000 27 504 64
2022-06-26 12:30:34 GMT 40.074306 -6.651036 38,000 27 504 64
2022-06-26 12:30:31 GMT 40.065262 -6.657227 38,000 27 504 0
2022-06-26 12:30:27 GMT 40.059036 -6.661438 38,000 27 504 0
2022-06-26 12:30:24 GMT 40.044571 -6.671265 38,000 27 504 0
2022-06-26 12:30:20 GMT 40.044571 -6.671265 38,000 27 502 0
2022-06-26 12:30:17 GMT 40.038368 -6.675443 38,000 27 504 0
2022-06-26 12:30:13 GMT 40.029526 -6.681498 38,000 27 504 0
2022-06-26 12:30:10 GMT 40.023518 -6.685555 38,000 27 504 0
2022-06-26 12:30:06 GMT 40.016304 -6.690424 38,000 27 503 0
2022-06-26 12:30:03 GMT 40.009277 -6.695190 38,000 27 502 -64
2022-06-26 12:29:59 GMT 40.000568 -6.701036 38,000 27 502 -64
2022-06-26 12:29:56 GMT 39.995632 -6.704407 38,000 27 502 -64
2022-06-26 12:29:53 GMT 39.988419 -6.709276 38,000 27 503 0
2022-06-26 12:29:50 GMT 39.980988 -6.714355 38,000 27 503 0
2022-06-26 12:29:46 GMT 39.974407 -6.718826 38,000 27 502 0
2022-06-26 12:29:43 GMT 39.967144 -6.723695 38,000 27 502 0
2022-06-26 12:29:39 GMT 39.957275 -6.730408 38,000 27 503 0
2022-06-26 12:29:35 GMT 39.952927 -6.733337 38,000 27 502 0
2022-06-26 12:29:32 GMT 39.946335 -6.737803 38,000 27 502 0
2022-06-26 12:29:28 GMT 39.936234 -6.744607 38,000 27 501 0
2022-06-26 12:29:23 GMT 39.925552 -6.751892 38,000 27 501 0
2022-06-26 12:29:19 GMT 39.918320 -6.756771 38,000 27 501 0
2022-06-26 12:29:16 GMT 39.911747 -6.761230 38,000 27 501 0
2022-06-26 12:29:13 GMT 39.905743 -6.765259 38,000 27 501 0
2022-06-26 12:29:09 GMT 39.889309 -6.776306 38,000 27 501 0
2022-06-26 12:29:05 GMT 39.889309 -6.776306 38,000 27 501 0
2022-06-26 12:29:02 GMT 39.883537 -6.780212 38,000 27 501 0
2022-06-26 12:28:59 GMT 39.876114 -6.785192 38,000 27 500 0
2022-06-26 12:28:56 GMT 39.870781 -6.788757 38,000 27 501 0
2022-06-26 12:28:53 GMT 39.862518 -6.794268 38,000 27 501 0
2022-06-26 12:28:50 GMT 39.857189 -6.797913 38,000 27 501 0
2022-06-26 12:28:46 GMT 39.850624 -6.802307 38,000 27 500 0
2022-06-26 12:28:43 GMT 39.842991 -6.807434 38,000 27 500 0
2022-06-26 12:28:40 GMT 39.837448 -6.811157 38,000 27 501 0
2022-06-26 12:28:37 GMT 39.830235 -6.815979 38,000 27 500 0
2022-06-26 12:28:34 GMT 39.825905 -6.818909 38,000 27 500 0
2022-06-26 12:28:31 GMT 39.820175 -6.822808 38,000 27 500 0
2022-06-26 12:28:28 GMT 39.812988 -6.827645 38,000 27 500 64
2022-06-26 12:28:25 GMT 39.806820 -6.831787 38,000 27 500 0
2022-06-26 12:28:22 GMT 39.800629 -6.835944 38,000 27 500 0
2022-06-26 12:28:18 GMT 39.789963 -6.843109 38,000 27 500 -64
2022-06-26 12:28:15 GMT 39.786255 -6.845557 38,000 27 500 0
2022-06-26 12:28:12 GMT 39.779068 -6.850394 38,000 27 500 0
2022-06-26 12:28:07 GMT 39.771057 -6.855827 38,000 27 500 0
2022-06-26 12:28:04 GMT 39.764694 -6.860066 38,000 27 500 0
2022-06-26 12:28:00 GMT 39.755676 -6.866157 38,000 27 500 0
2022-06-26 12:27:56 GMT 39.747463 -6.871704 38,000 27 500 0
2022-06-26 12:27:53 GMT 39.740902 -6.876099 38,000 27 500 0
2022-06-26 12:27:50 GMT 39.736805 -6.878845 38,000 27 500 0
2022-06-26 12:27:47 GMT 39.729401 -6.883830 38,000 27 500 64
2022-06-26 12:27:44 GMT 39.723038 -6.888069 38,000 27 500 0
2022-06-26 12:27:41 GMT 39.715855 -6.892883 38,000 27 500 0
2022-06-26 12:27:36 GMT 39.707848 -6.898254 38,000 27 500 0
2022-06-26 12:27:33 GMT 39.700680 -6.903076 38,000 27 499 0
2022-06-26 12:27:30 GMT 39.694721 -6.907104 38,000 27 499 0
2022-06-26 12:27:26 GMT 39.686760 -6.912476 38,000 27 499 0
2022-06-26 12:27:23 GMT 39.680801 -6.916443 38,000 27 500 0
2022-06-26 12:27:19 GMT 39.668884 -6.924377 38,000 27 500 0
2022-06-26 12:27:16 GMT 39.665997 -6.926331 38,000 27 499 64
2022-06-26 12:27:13 GMT 39.659866 -6.930403 38,000 27 499 -64
2022-06-26 12:27:10 GMT 39.652451 -6.935364 38,000 27 500 -64
2022-06-26 12:27:06 GMT 39.644852 -6.940434 38,000 27 500 0
2022-06-26 12:27:02 GMT 39.637299 -6.945509 38,000 27 500 0
2022-06-26 12:26:59 GMT 39.631531 -6.949390 38,000 27 500 -64
2022-06-26 12:26:55 GMT 39.623543 -6.954712 38,000 27 499 0
2022-06-26 12:26:52 GMT 39.617386 -6.958884 38,000 27 499 0
2022-06-26 12:26:48 GMT 39.607498 -6.965392 38,000 27 499 64
2022-06-26 12:26:45 GMT 39.600548 -6.970032 38,000 27 499 0
2022-06-26 12:26:42 GMT 39.596821 -6.972534 38,000 27 499 0
2022-06-26 12:26:38 GMT 39.581039 -6.983032 38,000 27 499 0
2022-06-26 12:26:35 GMT 39.581039 -6.983032 38,000 27 499 0
2022-06-26 12:26:32 GMT 39.575081 -6.987000 38,000 27 499 64
2022-06-26 12:26:29 GMT 39.567307 -6.992201 38,000 27 499 0
2022-06-26 12:26:26 GMT 39.561954 -6.995728 38,000 27 498 0
2022-06-26 12:26:23 GMT 39.557858 -6.998474 38,000 27 499 0
2022-06-26 12:26:20 GMT 39.549244 -7.004211 38,000 27 499 64
2022-06-26 12:26:15 GMT 39.534714 -7.013994 38,000 27 498 0
2022-06-26 12:26:12 GMT 39.534714 -7.013994 38,000 27 499 0
2022-06-26 12:26:08 GMT 39.526108 -7.019775 38,000 27 499 0
2022-06-26 12:26:05 GMT 39.513771 -7.027954 38,000 27 498 0
2022-06-26 12:26:02 GMT 39.513771 -7.027954 38,000 27 498 0
2022-06-26 12:25:58 GMT 39.505371 -7.033579 38,000 27 499 128
2022-06-26 12:25:55 GMT 39.499054 -7.037818 38,000 27 499 128
2022-06-26 12:25:52 GMT 39.492870 -7.041931 38,000 27 499 256
2022-06-26 12:25:48 GMT 39.486328 -7.046296 37,975 27 499 320
2022-06-26 12:25:44 GMT 39.475647 -7.053345 37,950 27 498 320
2022-06-26 12:25:40 GMT 39.466244 -7.059631 37,925 27 498 320
2022-06-26 12:25:37 GMT 39.461700 -7.062597 37,900 27 497 320
2022-06-26 12:25:33 GMT 39.454559 -7.067374 37,875 27 497 320
2022-06-26 12:25:30 GMT 39.449432 -7.070777 37,875 27 497 320
2022-06-26 12:25:27 GMT 39.443108 -7.075012 37,850 27 497 320
2022-06-26 12:25:24 GMT 39.434738 -7.080569 37,825 27 496 320
2022-06-26 12:25:21 GMT 39.429840 -7.083853 37,825 27 496 320
2022-06-26 12:25:18 GMT 39.423740 -7.087891 37,800 27 495 320
2022-06-26 12:25:14 GMT 39.413128 -7.094971 37,775 27 494 320
2022-06-26 12:25:11 GMT 39.402977 -7.101746 37,775 27 494 320
2022-06-26 12:25:08 GMT 39.402977 -7.101746 37,750 27 493 384
2022-06-26 12:25:04 GMT 39.386730 -7.112488 37,700 27 493 448
2022-06-26 12:25:00 GMT 39.386730 -7.112488 37,700 27 493 448
2022-06-26 12:24:56 GMT 39.378632 -7.117859 37,625 27 493 512
2022-06-26 12:24:53 GMT 39.372532 -7.121887 37,600 27 493 576
2022-06-26 12:24:50 GMT 39.366619 -7.125793 37,600 27 493 576
2022-06-26 12:24:47 GMT 39.351212 -7.135986 37,575 27 492 576
2022-06-26 12:24:43 GMT 39.346138 -7.139343 37,525 27 492 576
2022-06-26 12:24:40 GMT 39.346138 -7.139343 37,500 27 492 576
2022-06-26 12:24:36 GMT 39.339890 -7.143502 37,475 27 492 576
2022-06-26 12:24:33 GMT 39.330544 -7.149658 37,350 27 491 256
2022-06-26 12:24:30 GMT 39.325096 -7.153259 37,400 27 492 640
2022-06-26 12:24:25 GMT 39.317001 -7.158668 37,375 27 492 576
2022-06-26 12:24:22 GMT 39.307663 -7.164817 37,325 27 491 576
2022-06-26 12:24:19 GMT 39.304825 -7.166668 37,325 27 491 576
2022-06-26 12:24:14 GMT 39.292694 -7.174729 37,250 27 491 640
2022-06-26 12:24:10 GMT 39.286644 -7.178772 37,200 27 491 448
2022-06-26 12:24:05 GMT 39.272278 -7.188283 37,200 27 490 256
2022-06-26 12:24:02 GMT 39.268066 -7.191089 37,175 27 490 640
2022-06-26 12:23:59 GMT 39.257996 -7.197717 37,075 27 490 896
2022-06-26 12:23:56 GMT 39.251953 -7.201717 37,100 27 490 832
2022-06-26 12:23:53 GMT 39.251953 -7.201717 37,025 27 490 896
2022-06-26 12:23:50 GMT 39.245911 -7.205750 37,025 27 489 896
2022-06-26 12:23:47 GMT 39.237858 -7.211060 36,975 27 490 960
2022-06-26 12:23:43 GMT 39.230408 -7.216064 36,925 27 490 960
2022-06-26 12:23:40 GMT 39.223892 -7.220227 36,875 24 488 896
2022-06-26 12:23:36 GMT 39.212673 -7.227051 36,800 23 487 896
2022-06-26 12:23:33 GMT 39.209564 -7.228825 36,775 23 487 896
2022-06-26 12:23:28 GMT 39.201500 -7.233337 36,725 23 487 896
2022-06-26 12:23:24 GMT 39.190559 -7.239441 36,525 23 487 896
2022-06-26 12:23:20 GMT 39.178970 -7.245911 36,550 23 487 896
2022-06-26 12:23:17 GMT 39.178970 -7.245911 36,550 23 487 896
2022-06-26 12:23:14 GMT 39.171524 -7.250081 36,500 23 487 960
2022-06-26 12:23:10 GMT 39.163467 -7.254559 36,425 23 487 960
2022-06-26 12:23:07 GMT 39.157696 -7.257812 36,400 23 487 896
2022-06-26 12:23:02 GMT 39.144653 -7.265068 36,300 23 488 896
2022-06-26 12:22:58 GMT 39.138420 -7.268555 36,150 23 488 832
2022-06-26 12:22:53 GMT 39.128693 -7.273987 36,175 23 487 768
2022-06-26 12:22:50 GMT 39.120621 -7.278442 36,125 23 487 768
2022-06-26 12:22:47 GMT 39.116684 -7.280652 36,125 23 487 768
2022-06-26 12:22:43 GMT 39.107555 -7.285706 36,050 23 486 512
2022-06-26 12:22:38 GMT 39.096806 -7.291626 36,025 23 485 128
2022-06-26 12:22:34 GMT 39.089767 -7.295519 36,025 23 484 64
2022-06-26 12:22:31 GMT 39.081757 -7.299997 36,025 23 482 -64
2022-06-26 12:22:27 GMT 39.075806 -7.303281 36,000 23 480 256
2022-06-26 12:22:20 GMT 39.060493 -7.311768 36,000 23 479 192
2022-06-26 12:22:17 GMT 39.053974 -7.315369 36,000 23 478 64
2022-06-26 12:22:11 GMT 39.041779 -7.322144 36,000 23 477 -128
2022-06-26 12:22:07 GMT 39.033646 -7.326687 36,000 23 477 0
2022-06-26 12:22:03 GMT 39.024742 -7.331604 36,000 23 477 0
2022-06-26 12:22:00 GMT 39.018265 -7.335225 36,000 23 477 0
2022-06-26 12:21:57 GMT 39.014221 -7.337463 36,000 23 477 0
2022-06-26 12:21:54 GMT 39.006351 -7.341797 36,000 23 476 0
2022-06-26 12:21:51 GMT 39.002117 -7.344177 36,000 23 476 0
2022-06-26 12:21:47 GMT 38.993179 -7.349077 36,000 23 476 0
2022-06-26 12:21:42 GMT 38.982052 -7.355225 36,000 23 475 0
2022-06-26 12:21:39 GMT 38.977203 -7.357914 36,000 23 475 0
2022-06-26 12:21:36 GMT 38.972168 -7.360720 36,000 23 475 0
2022-06-26 12:21:32 GMT 38.961243 -7.366699 36,000 23 475 0
2022-06-26 12:21:28 GMT 38.954212 -7.370605 36,000 23 474 0
2022-06-26 12:21:24 GMT 38.948349 -7.373840 36,000 23 474 0
2022-06-26 12:21:20 GMT 38.939667 -7.378633 36,000 23 474 64
2022-06-26 12:21:17 GMT 38.932800 -7.382385 36,000 23 474 64
2022-06-26 12:21:14 GMT 38.925934 -7.386156 36,000 23 474 64
2022-06-26 12:21:11 GMT 38.914261 -7.392605 36,000 23 474 0
2022-06-26 12:21:08 GMT 38.909618 -7.395142 36,000 23 474 0
2022-06-26 12:21:05 GMT 38.909618 -7.395142 36,000 23 474 0
2022-06-26 12:21:01 GMT 38.895721 -7.402815 36,000 23 474 0
2022-06-26 12:20:55 GMT 38.888248 -7.406921 36,000 23 474 0
2022-06-26 12:20:50 GMT 38.878189 -7.412428 36,000 23 474 0
2022-06-26 12:20:48 GMT 38.872742 -7.415413 36,000 23 474 0
2022-06-26 12:20:45 GMT 38.869720 -7.417114 36,000 23 474 0
2022-06-26 12:20:42 GMT 38.854385 -7.425504 36,000 23 473 0
2022-06-26 12:20:38 GMT 38.854385 -7.425504 36,000 23 473 0
2022-06-26 12:20:35 GMT 38.848572 -7.428668 36,000 23 473 0
2022-06-26 12:20:31 GMT 38.840286 -7.433206 36,000 23 473 0
2022-06-26 12:20:29 GMT 38.834885 -7.436192 36,000 23 473 0
2022-06-26 12:20:25 GMT 38.828011 -7.439941 36,000 23 473 0
2022-06-26 12:20:22 GMT 38.821400 -7.443604 36,000 23 473 0
2022-06-26 12:20:18 GMT 38.814743 -7.447205 36,000 23 473 0
2022-06-26 12:20:14 GMT 38.807297 -7.451294 36,000 23 473 0
2022-06-26 12:20:10 GMT 38.799847 -7.455383 36,000 23 473 0
2022-06-26 12:20:07 GMT 38.785400 -7.463359 36,000 23 473 0
2022-06-26 12:20:04 GMT 38.785400 -7.463359 36,000 23 473 0
2022-06-26 12:20:01 GMT 38.780960 -7.465747 36,000 23 473 0
2022-06-26 12:19:57 GMT 38.771301 -7.471061 36,000 23 473 0
2022-06-26 12:19:54 GMT 38.765865 -7.474060 36,000 23 473 0
2022-06-26 12:19:51 GMT 38.760269 -7.477152 36,000 23 473 0
2022-06-26 12:19:48 GMT 38.753632 -7.480794 36,000 23 472 0
2022-06-26 12:19:44 GMT 38.745987 -7.485046 36,000 23 472 0
2022-06-26 12:19:40 GMT 38.738724 -7.489014 36,000 23 472 0
2022-06-26 12:19:38 GMT 38.734131 -7.491601 36,000 23 472 0
2022-06-26 12:19:34 GMT 38.725502 -7.496338 36,000 23 472 0
2022-06-26 12:19:28 GMT 38.712433 -7.503543 36,000 23 473 0
2022-06-26 12:19:24 GMT 38.705383 -7.507424 36,000 23 473 0
2022-06-26 12:19:21 GMT 38.698547 -7.511169 36,000 23 473 0
2022-06-26 12:19:17 GMT 38.692108 -7.514708 36,000 23 473 0
2022-06-26 12:19:14 GMT 38.683094 -7.519714 36,000 23 473 0
2022-06-26 12:19:11 GMT 38.670200 -7.526733 36,000 23 473 0
2022-06-26 12:19:06 GMT 38.670200 -7.526733 36,000 23 473 0
2022-06-26 12:19:03 GMT 38.663773 -7.530292 36,000 23 473 0
2022-06-26 12:19:00 GMT 38.656513 -7.534241 36,000 23 473 0
2022-06-26 12:18:56 GMT 38.650497 -7.537576 36,000 23 473 0
2022-06-26 12:18:53 GMT 38.642853 -7.541756 36,000 23 473 0
2022-06-26 12:18:50 GMT 38.635796 -7.545593 36,000 23 473 0
2022-06-26 12:18:47 GMT 38.630768 -7.548340 36,000 23 473 0
2022-06-26 12:18:44 GMT 38.624905 -7.551575 36,000 23 473 0
2022-06-26 12:18:41 GMT 38.618500 -7.555071 36,000 23 473 0
2022-06-26 12:18:37 GMT 38.610626 -7.559370 36,000 23 473 0
2022-06-26 12:18:31 GMT 38.588516 -7.571491 36,000 23 473 0
2022-06-26 12:18:27 GMT 38.588516 -7.571491 36,000 23 473 0
2022-06-26 12:18:24 GMT 38.583252 -7.574357 36,000 23 473 0
2022-06-26 12:18:20 GMT 38.575241 -7.578775 36,000 23 473 0
2022-06-26 12:18:17 GMT 38.569180 -7.582031 36,000 23 473 0
2022-06-26 12:18:14 GMT 38.565968 -7.583801 36,000 23 473 0
2022-06-26 12:18:11 GMT 38.558121 -7.588090 36,000 23 473 0
2022-06-26 12:18:09 GMT 38.553913 -7.590393 36,000 23 473 0
2022-06-26 12:18:06 GMT 38.548885 -7.593140 36,000 23 473 0
2022-06-26 12:18:02 GMT 38.538597 -7.598755 36,000 23 473 0
2022-06-26 12:17:59 GMT 38.534592 -7.600927 36,000 23 473 0
2022-06-26 12:17:53 GMT 38.521465 -7.608093 36,000 23 473 0
2022-06-26 12:17:49 GMT 38.507404 -7.615723 36,000 23 473 0
2022-06-26 12:17:46 GMT 38.507404 -7.615723 36,000 23 474 0
2022-06-26 12:17:43 GMT 38.500534 -7.619496 36,000 23 474 0
2022-06-26 12:17:40 GMT 38.497330 -7.621228 36,000 23 474 0
2022-06-26 12:17:38 GMT 38.491058 -7.624631 36,000 23 474 0
2022-06-26 12:17:35 GMT 38.487259 -7.626721 36,000 23 474 0
2022-06-26 12:17:32 GMT 38.478775 -7.631287 36,000 23 474 -64
2022-06-26 12:17:29 GMT 38.472748 -7.634602 36,000 23 474 -64
2022-06-26 12:17:25 GMT 38.466675 -7.637878 36,000 23 474 0
2022-06-26 12:17:20 GMT 38.456406 -7.643499 36,000 23 474 0
2022-06-26 12:17:18 GMT 38.451172 -7.646362 36,000 23 474 0
2022-06-26 12:17:13 GMT 38.442093 -7.651245 36,000 23 474 0
2022-06-26 12:17:10 GMT 38.435669 -7.654784 36,000 23 474 0
2022-06-26 12:17:08 GMT 38.430634 -7.657530 36,000 23 474 0
2022-06-26 12:17:05 GMT 38.418137 -7.664337 36,000 23 474 0
2022-06-26 12:17:02 GMT 38.410675 -7.668340 36,000 23 474 0
2022-06-26 12:16:59 GMT 38.410675 -7.668340 36,000 23 474 0
2022-06-26 12:16:54 GMT 38.403828 -7.672099 36,000 23 474 0
2022-06-26 12:16:51 GMT 38.396378 -7.676159 36,000 23 474 0
2022-06-26 12:16:48 GMT 38.390717 -7.679210 36,000 23 473 0
2022-06-26 12:16:45 GMT 38.379665 -7.685235 36,000 23 473 0
2022-06-26 12:16:39 GMT 38.371380 -7.689713 36,000 23 474 0
2022-06-26 12:16:33 GMT 38.360916 -7.695397 36,000 23 474 0
2022-06-26 12:16:30 GMT 38.355286 -7.698436 36,000 23 474 0
2022-06-26 12:16:28 GMT 38.351028 -7.700715 36,000 23 474 0
2022-06-26 12:16:24 GMT 38.334511 -7.709656 36,000 23 474 0
2022-06-26 12:16:20 GMT 38.334511 -7.709656 36,000 23 474 0
2022-06-26 12:16:18 GMT 38.329483 -7.712402 36,000 23 474 0
2022-06-26 12:16:13 GMT 38.320824 -7.717119 36,000 23 473 0
2022-06-26 12:16:10 GMT 38.314167 -7.720702 36,000 23 473 0
2022-06-26 12:16:07 GMT 38.308304 -7.723866 36,000 23 473 0
2022-06-26 12:16:03 GMT 38.301498 -7.727596 36,000 23 473 0
2022-06-26 12:16:00 GMT 38.293213 -7.732037 36,000 23 473 0
2022-06-26 12:15:57 GMT 38.287586 -7.735091 36,000 23 473 0
2022-06-26 12:15:53 GMT 38.281540 -7.738349 36,000 23 473 0
2022-06-26 12:15:49 GMT 38.269455 -7.744894 36,000 23 473 0
2022-06-26 12:15:41 GMT 38.254761 -7.752841 36,000 23 472 0
2022-06-26 12:15:38 GMT 38.248714 -7.756109 36,000 22 473 0
2022-06-26 12:15:35 GMT 38.244713 -7.758258 36,000 22 473 0
2022-06-26 12:15:32 GMT 38.239059 -7.761315 36,000 22 473 0
2022-06-26 12:15:28 GMT 38.230793 -7.765782 36,000 22 473 0
2022-06-26 12:15:25 GMT 38.224731 -7.769029 36,000 22 473 0
2022-06-26 12:15:22 GMT 38.218918 -7.772184 36,000 22 473 0
2022-06-26 12:15:19 GMT 38.210823 -7.776529 36,000 22 473 0
2022-06-26 12:15:13 GMT 38.197510 -7.783694 36,000 23 474 0
2022-06-26 12:15:08 GMT 38.191086 -7.787144 36,000 23 474 0
2022-06-26 12:15:06 GMT 38.186829 -7.789424 36,000 23 474 0
2022-06-26 12:15:02 GMT 38.175568 -7.795559 36,000 23 474 0
2022-06-26 12:14:58 GMT 38.169716 -7.798681 36,000 23 474 0
2022-06-26 12:14:56 GMT 38.165680 -7.800877 36,000 23 474 0
2022-06-26 12:14:52 GMT 38.151142 -7.808712 36,000 23 474 0
2022-06-26 12:14:49 GMT 38.151142 -7.808712 36,000 23 474 0
2022-06-26 12:14:46 GMT 38.145325 -7.811876 36,000 23 474 0
2022-06-26 12:14:41 GMT 38.136246 -7.816772 36,000 23 474 0
2022-06-26 12:14:38 GMT 38.129379 -7.820512 36,000 23 474 0
2022-06-26 12:14:35 GMT 38.124561 -7.823102 36,000 23 474 0
2022-06-26 12:14:32 GMT 38.115280 -7.828109 36,000 23 474 0
2022-06-26 12:14:29 GMT 38.111023 -7.830388 36,000 23 474 0
2022-06-26 12:14:26 GMT 38.103149 -7.834654 36,000 23 474 0
2022-06-26 12:14:22 GMT 38.096878 -7.838044 36,000 23 474 0
2022-06-26 12:14:19 GMT 38.091461 -7.840954 36,000 23 474 0
2022-06-26 12:14:17 GMT 38.087402 -7.843128 36,000 23 474 0
2022-06-26 12:14:14 GMT 38.081543 -7.846284 36,000 23 474 0
2022-06-26 12:14:08 GMT 38.069870 -7.852653 36,000 23 474 0
2022-06-26 12:14:06 GMT 38.064602 -7.855463 36,000 23 474 0
2022-06-26 12:14:02 GMT 38.057526 -7.859285 36,000 23 474 0
2022-06-26 12:13:59 GMT 38.050495 -7.863106 36,000 23 474 0
2022-06-26 12:13:56 GMT 38.044006 -7.866562 36,000 23 474 0
2022-06-26 12:13:53 GMT 38.036545 -7.870594 36,000 23 474 0
2022-06-26 12:13:49 GMT 38.030273 -7.873983 36,000 23 474 0
2022-06-26 12:13:46 GMT 38.024239 -7.877197 36,000 23 474 0
2022-06-26 12:13:43 GMT 38.017582 -7.880780 36,000 23 474 0
2022-06-26 12:13:39 GMT 38.009262 -7.885262 36,000 22 474 0
2022-06-26 12:13:35 GMT 38.002213 -7.889002 36,000 22 474 0
2022-06-26 12:13:32 GMT 37.996170 -7.892303 36,000 22 474 0
2022-06-26 12:13:29 GMT 37.989304 -7.895956 36,000 22 474 0
2022-06-26 12:13:27 GMT 37.984451 -7.898527 36,000 22 474 0
2022-06-26 12:13:23 GMT 37.979370 -7.901215 36,000 22 474 0
2022-06-26 12:13:19 GMT 37.969254 -7.906650 36,000 22 474 0
2022-06-26 12:13:14 GMT 37.958973 -7.912127 36,000 22 474 0
2022-06-26 12:13:11 GMT 37.953323 -7.915182 36,000 22 474 0
2022-06-26 12:13:08 GMT 37.948471 -7.917753 36,000 22 474 0
2022-06-26 12:13:04 GMT 37.940964 -7.921785 36,000 22 474 0
2022-06-26 12:13:01 GMT 37.933697 -7.925680 36,000 22 474 0
2022-06-26 12:12:58 GMT 37.928421 -7.928506 36,000 22 474 0
2022-06-26 12:12:54 GMT 37.917526 -7.934350 36,000 23 474 0
2022-06-26 12:12:50 GMT 37.912491 -7.937038 36,000 23 474 0
2022-06-26 12:12:48 GMT 37.907639 -7.939667 36,000 23 474 64
2022-06-26 12:12:45 GMT 37.898922 -7.944309 36,000 23 474 0
2022-06-26 12:12:42 GMT 37.894871 -7.946459 36,000 23 474 0
2022-06-26 12:12:38 GMT 37.887424 -7.950519 36,000 23 474 0
2022-06-26 12:12:33 GMT 37.875916 -7.956731 36,000 23 474 64
2022-06-26 12:12:30 GMT 37.872070 -7.958777 36,000 23 474 0
2022-06-26 12:12:27 GMT 37.866009 -7.961983 36,000 22 474 0
2022-06-26 12:12:24 GMT 37.858330 -7.966103 36,000 22 474 0
2022-06-26 12:12:21 GMT 37.852463 -7.969267 36,000 22 474 0
2022-06-26 12:12:17 GMT 37.844330 -7.973561 36,000 22 474 0
2022-06-26 12:12:13 GMT 37.837280 -7.977360 36,000 22 474 0
2022-06-26 12:12:10 GMT 37.831188 -7.980612 36,000 22 474 0
2022-06-26 12:12:07 GMT 37.822083 -7.985424 36,000 22 474 0
2022-06-26 12:12:03 GMT 37.816040 -7.988697 36,000 22 474 0
2022-06-26 12:12:00 GMT 37.811172 -7.991300 36,000 22 474 0
2022-06-26 12:11:57 GMT 37.804321 -7.994950 36,000 22 474 0
2022-06-26 12:11:54 GMT 37.792362 -8.001331 36,000 22 474 0
2022-06-26 12:11:51 GMT 37.792362 -8.001331 36,000 22 474 0
2022-06-26 12:11:47 GMT 37.784496 -8.005510 36,000 22 474 0
2022-06-26 12:11:44 GMT 37.777233 -8.009391 36,000 22 474 64
2022-06-26 12:11:41 GMT 37.770344 -8.013093 36,000 22 474 0
2022-06-26 12:11:38 GMT 37.765316 -8.015780 36,000 22 474 0
2022-06-26 12:11:32 GMT 37.752960 -8.022357 36,000 22 474 0
2022-06-26 12:11:27 GMT 37.735569 -8.031663 36,000 22 474 0
2022-06-26 12:11:24 GMT 37.735569 -8.031663 36,000 22 474 0
2022-06-26 12:11:21 GMT 37.729286 -8.035006 36,000 22 474 0
2022-06-26 12:11:16 GMT 37.720814 -8.039544 36,000 22 475 0
2022-06-26 12:11:11 GMT 37.708237 -8.046200 36,000 22 475 0
2022-06-26 12:11:07 GMT 37.703568 -8.048654 36,000 22 475 0
2022-06-26 12:11:03 GMT 37.695488 -8.052979 36,000 22 475 0
2022-06-26 12:11:00 GMT 37.688187 -8.056835 36,000 22 475 0
2022-06-26 12:10:57 GMT 37.683712 -8.059248 36,000 22 475 0
2022-06-26 12:10:55 GMT 37.679901 -8.061277 36,000 22 475 0
2022-06-26 12:10:52 GMT 37.673794 -8.064502 36,000 22 475 0
2022-06-26 12:10:49 GMT 37.659039 -8.072324 36,000 22 475 0
2022-06-26 12:10:46 GMT 37.659039 -8.072324 36,000 22 475 0
2022-06-26 12:10:41 GMT 37.650101 -8.077055 36,000 22 475 0
2022-06-26 12:10:37 GMT 37.640579 -8.082139 36,000 22 475 0
2022-06-26 12:10:33 GMT 37.634506 -8.085340 36,000 22 475 0
2022-06-26 12:10:30 GMT 37.626404 -8.089580 36,000 22 475 0
2022-06-26 12:10:26 GMT 37.617874 -8.094119 36,000 22 475 0
2022-06-26 12:10:23 GMT 37.614212 -8.096047 36,000 22 475 0
2022-06-26 12:10:20 GMT 37.607941 -8.099320 36,000 22 474 0
2022-06-26 12:10:17 GMT 37.602245 -8.102298 36,000 22 475 0
2022-06-26 12:10:14 GMT 37.593723 -8.106776 36,000 22 474 0
2022-06-26 12:10:10 GMT 37.587662 -8.110014 36,000 22 474 0
2022-06-26 12:10:07 GMT 37.581757 -8.113111 36,000 22 475 0
2022-06-26 12:10:05 GMT 37.576874 -8.115672 36,000 22 475 0
2022-06-26 12:10:02 GMT 37.569580 -8.119481 36,000 22 475 0
2022-06-26 12:09:59 GMT 37.564499 -8.122169 36,000 22 475 0
2022-06-26 12:09:56 GMT 37.560471 -8.124273 36,000 22 475 64
2022-06-26 12:09:53 GMT 37.552155 -8.128629 36,000 22 476 0
2022-06-26 12:09:50 GMT 37.548294 -8.130643 36,000 22 476 0
2022-06-26 12:09:47 GMT 37.540558 -8.134733 36,000 22 476 0
2022-06-26 12:09:43 GMT 37.533463 -8.138473 36,000 22 476 0
2022-06-26 12:09:40 GMT 37.527805 -8.141466 36,000 22 475 -64
2022-06-26 12:09:37 GMT 37.520508 -8.145369 36,000 23 475 0
2022-06-26 12:09:34 GMT 37.513191 -8.149228 36,000 23 475 0
2022-06-26 12:09:31 GMT 37.508331 -8.151797 36,000 23 476 0
2022-06-26 12:09:27 GMT 37.499409 -8.156572 36,000 23 476 0
2022-06-26 12:09:24 GMT 37.486839 -8.163319 36,000 23 476 64
2022-06-26 12:09:21 GMT 37.479534 -8.167201 36,000 22 476 64
2022-06-26 12:09:17 GMT 37.469376 -8.172601 36,000 22 476 0
2022-06-26 12:09:13 GMT 37.469376 -8.172601 36,000 22 476 0
2022-06-26 12:09:09 GMT 37.463516 -8.175757 36,000 23 475 -64
2022-06-26 12:09:06 GMT 37.458214 -8.178545 36,000 23 475 0
2022-06-26 12:09:03 GMT 37.449505 -8.183202 36,000 22 476 0
2022-06-26 12:09:00 GMT 37.437729 -8.189412 36,000 22 476 0
2022-06-26 12:08:57 GMT 37.429630 -8.193711 36,000 22 476 0
2022-06-26 12:08:53 GMT 37.429630 -8.193711 36,000 22 476 0
2022-06-26 12:08:49 GMT 37.423950 -8.196696 36,000 22 476 0
2022-06-26 12:08:46 GMT 37.408951 -8.204625 36,000 22 475 0
2022-06-26 12:08:42 GMT 37.408951 -8.204625 36,000 22 475 0
2022-06-26 12:08:38 GMT 37.400620 -8.209008 36,000 22 475 0
2022-06-26 12:08:35 GMT 37.388855 -8.215202 36,000 22 475 0
2022-06-26 12:08:32 GMT 37.388855 -8.215202 36,000 22 475 64
2022-06-26 12:08:29 GMT 37.376678 -8.221630 36,000 22 475 64
2022-06-26 12:08:26 GMT 37.376678 -8.221630 36,000 22 476 0
2022-06-26 12:08:24 GMT 37.372231 -8.223983 36,000 22 475 0
2022-06-26 12:08:20 GMT 37.356819 -8.232103 36,000 22 475 0
2022-06-26 12:08:16 GMT 37.356819 -8.232103 36,000 22 475 0
2022-06-26 12:08:12 GMT 37.341385 -8.240214 36,000 22 476 0
2022-06-26 12:08:09 GMT 37.341385 -8.240214 36,000 22 476 0
2022-06-26 12:08:06 GMT 37.335938 -8.243135 36,000 22 476 0
2022-06-26 12:08:04 GMT 37.330856 -8.245765 36,000 22 476 0
2022-06-26 12:07:59 GMT 37.323116 -8.249837 36,000 22 476 0
2022-06-26 12:07:57 GMT 37.309113 -8.257219 36,000 22 476 0
2022-06-26 12:07:54 GMT 37.309113 -8.257219 36,000 22 476 0
2022-06-26 12:07:50 GMT 37.303253 -8.260258 36,000 22 476 0
2022-06-26 12:07:46 GMT 37.295334 -8.264465 36,000 22 476 0
2022-06-26 12:07:43 GMT 37.290066 -8.267212 36,000 22 476 0
2022-06-26 12:07:39 GMT 37.280708 -8.272108 36,000 22 476 0
2022-06-26 12:07:36 GMT 37.272423 -8.276526 36,000 22 476 0
2022-06-26 12:07:33 GMT 37.270157 -8.277672 36,000 22 475 0
2022-06-26 12:07:30 GMT 37.261047 -8.282464 36,000 22 475 0
2022-06-26 12:07:26 GMT 37.254730 -8.285781 36,000 22 475 0
2022-06-26 12:07:23 GMT 37.248871 -8.288892 36,000 22 475 0
2022-06-26 12:07:19 GMT 37.233673 -8.296898 36,000 22 475 0
2022-06-26 12:07:15 GMT 37.229004 -8.299353 36,000 22 475 0
2022-06-26 12:07:13 GMT 37.229004 -8.299353 36,000 22 475 0
2022-06-26 12:07:09 GMT 37.220051 -8.303992 36,000 22 474 0
2022-06-26 12:07:05 GMT 37.213165 -8.307593 36,000 22 474 0
2022-06-26 12:07:03 GMT 37.208084 -8.310281 36,000 22 474 0
2022-06-26 12:06:59 GMT 37.198357 -8.315337 36,000 22 474 0
2022-06-26 12:06:56 GMT 37.193283 -8.317964 36,000 22 474 0
2022-06-26 12:06:53 GMT 37.187416 -8.321069 36,000 22 474 0
2022-06-26 12:06:50 GMT 37.174847 -8.327637 36,000 22 474 0
2022-06-26 12:06:46 GMT 37.174847 -8.327637 36,000 22 474 0
2022-06-26 12:06:43 GMT 37.166935 -8.331757 36,000 22 474 0
2022-06-26 12:06:38 GMT 37.156586 -8.337162 36,000 22 474 0
2022-06-26 12:06:35 GMT 37.151943 -8.339578 36,000 22 474 0
2022-06-26 12:06:32 GMT 37.139793 -8.345907 36,000 22 474 0
2022-06-26 12:06:29 GMT 37.139793 -8.345907 36,000 22 474 0
2022-06-26 12:06:25 GMT 37.131454 -8.350252 36,000 22 474 0
2022-06-26 12:06:23 GMT 37.126007 -8.353116 36,000 22 474 0
2022-06-26 12:06:20 GMT 37.118088 -8.357265 36,000 22 474 0
2022-06-26 12:06:16 GMT 37.113419 -8.359661 36,000 22 474 0
2022-06-26 12:06:13 GMT 37.104927 -8.364118 36,000 22 474 0
2022-06-26 12:06:10 GMT 37.100224 -8.366567 36,000 22 475 0
2022-06-26 12:06:05 GMT 37.091148 -8.371343 36,000 22 475 0
2022-06-26 12:06:02 GMT 37.084862 -8.374627 36,000 22 475 0
2022-06-26 12:05:59 GMT 37.071083 -8.381792 36,000 22 474 0
2022-06-26 12:05:56 GMT 37.071083 -8.381792 36,000 22 474 0
2022-06-26 12:05:52 GMT 37.064426 -8.385315 36,000 22 474 0
2022-06-26 12:05:49 GMT 37.059353 -8.387942 36,000 22 474 0
2022-06-26 12:05:46 GMT 37.052277 -8.391704 36,000 22 474 0
2022-06-26 12:05:43 GMT 37.047203 -8.394331 36,000 22 474 0
2022-06-26 12:05:39 GMT 37.037521 -8.399457 36,000 22 474 0
2022-06-26 12:05:36 GMT 37.031422 -8.402630 36,000 22 473 0
2022-06-26 12:05:33 GMT 37.025555 -8.405675 36,000 22 473 0
2022-06-26 12:05:29 GMT 37.018478 -8.409377 36,000 22 473 0
2022-06-26 12:05:23 GMT 37.005959 -8.415945 36,000 22 473 0
2022-06-26 12:05:20 GMT 36.997833 -8.420144 36,000 22 473 0
2022-06-26 12:05:16 GMT 36.988953 -8.424819 36,000 22 473 0
2022-06-26 12:05:12 GMT 36.984695 -8.427040 36,000 22 473 0
2022-06-26 12:05:09 GMT 36.976627 -8.431231 36,000 22 473 0
2022-06-26 12:05:04 GMT 36.967922 -8.435768 36,000 22 473 0
2022-06-26 12:05:01 GMT 36.960846 -8.439470 36,000 22 473 0
2022-06-26 12:04:57 GMT 36.954983 -8.442515 36,000 22 472 0
2022-06-26 12:04:52 GMT 36.942459 -8.449024 36,000 22 472 0
2022-06-26 12:04:48 GMT 36.928539 -8.456308 36,000 22 472 0
2022-06-26 12:04:45 GMT 36.928539 -8.456308 36,000 22 472 0
2022-06-26 12:04:42 GMT 36.923904 -8.458713 36,000 22 472 0
2022-06-26 12:04:39 GMT 36.915436 -8.463154 36,000 22 472 0
2022-06-26 12:04:33 GMT 36.905357 -8.468369 36,000 22 472 0
2022-06-26 12:04:31 GMT 36.900284 -8.470996 36,000 22 472 0
2022-06-26 12:04:28 GMT 36.885178 -8.478874 36,000 22 472 0
2022-06-26 12:04:24 GMT 36.885178 -8.478874 36,000 22 472 -64
2022-06-26 12:04:21 GMT 36.880730 -8.481206 36,000 22 472 -64
2022-06-26 12:04:18 GMT 36.868011 -8.487815 36,000 22 471 0
2022-06-26 12:04:15 GMT 36.868011 -8.487815 36,000 22 472 0
2022-06-26 12:04:11 GMT 36.859737 -8.492073 36,000 22 471 0
2022-06-26 12:04:08 GMT 36.853500 -8.495354 36,000 22 471 0
2022-06-26 12:04:04 GMT 36.846451 -8.499012 36,000 22 471 0
2022-06-26 12:04:01 GMT 36.839813 -8.502425 36,000 22 471 0
2022-06-26 12:03:58 GMT 36.833359 -8.505821 36,000 22 471 0
2022-06-26 12:03:54 GMT 36.825531 -8.509884 36,000 22 471 0
2022-06-26 12:03:51 GMT 36.813278 -8.516274 36,000 22 471 0
2022-06-26 12:03:48 GMT 36.806622 -8.519722 36,000 22 471 0
2022-06-26 12:03:44 GMT 36.806622 -8.519722 36,000 22 471 0
2022-06-26 12:03:41 GMT 36.800217 -8.523045 36,000 22 471 0
2022-06-26 12:03:37 GMT 36.792160 -8.527222 36,000 22 470 0
2022-06-26 12:03:32 GMT 36.780270 -8.533397 36,000 22 471 64
2022-06-26 12:03:29 GMT 36.775848 -8.535676 36,000 22 471 0
2022-06-26 12:03:26 GMT 36.769611 -8.538890 36,000 22 470 0
2022-06-26 12:03:23 GMT 36.763596 -8.541985 36,000 22 470 0
2022-06-26 12:03:20 GMT 36.757553 -8.545143 36,000 22 470 0
2022-06-26 12:03:17 GMT 36.745125 -8.551571 36,000 22 470 0
2022-06-26 12:03:14 GMT 36.736465 -8.556071 36,000 22 470 0
2022-06-26 12:03:10 GMT 36.736465 -8.556071 36,000 22 470 0
2022-06-26 12:03:07 GMT 36.731438 -8.558700 36,000 22 470 0
2022-06-26 12:03:04 GMT 36.725418 -8.561783 36,000 22 470 0
2022-06-26 12:03:00 GMT 36.718414 -8.565445 36,000 22 470 0
2022-06-26 12:02:57 GMT 36.710350 -8.569570 36,000 22 470 0
2022-06-26 12:02:54 GMT 36.705551 -8.572083 36,000 22 470 0
2022-06-26 12:02:50 GMT 36.698502 -8.575745 36,000 22 469 0
2022-06-26 12:02:47 GMT 36.689072 -8.580608 36,000 22 469 0
2022-06-26 12:02:44 GMT 36.684654 -8.582894 36,000 22 469 0
2022-06-26 12:02:40 GMT 36.678635 -8.585987 36,000 22 469 0
2022-06-26 12:02:37 GMT 36.671631 -8.589592 36,000 22 469 0
2022-06-26 12:02:34 GMT 36.664581 -8.593197 36,000 22 469 0
2022-06-26 12:02:30 GMT 36.657990 -8.596630 36,000 22 468 0
2022-06-26 12:02:27 GMT 36.649738 -8.600834 36,000 22 468 0
2022-06-26 12:02:24 GMT 36.644341 -8.603639 36,000 22 468 0
2022-06-26 12:02:20 GMT 36.629910 -8.611061 36,000 22 468 0
2022-06-26 12:02:17 GMT 36.623886 -8.614140 36,000 22 468 0
2022-06-26 12:02:14 GMT 36.623886 -8.614140 36,000 22 468 0
2022-06-26 12:02:09 GMT 36.608074 -8.622281 36,000 22 468 0
2022-06-26 12:02:03 GMT 36.603466 -8.624618 36,000 22 468 0
2022-06-26 12:01:58 GMT 36.593262 -8.629875 36,000 22 468 0
2022-06-26 12:01:55 GMT 36.587639 -8.632800 36,000 22 468 0
2022-06-26 12:01:52 GMT 36.582825 -8.635254 36,000 22 468 0
2022-06-26 12:01:49 GMT 36.575626 -8.638935 36,000 22 468 0
2022-06-26 12:01:46 GMT 36.568226 -8.642792 36,000 22 468 0
2022-06-26 12:01:43 GMT 36.563805 -8.645013 36,000 22 468 0
2022-06-26 12:01:40 GMT 36.558609 -8.647728 36,000 22 468 0
2022-06-26 12:01:36 GMT 36.548584 -8.652878 36,000 22 468 0
2022-06-26 12:01:33 GMT 36.543415 -8.655590 36,000 22 468 0
2022-06-26 12:01:29 GMT 36.536011 -8.659389 36,000 22 468 0
2022-06-26 12:01:26 GMT 36.527573 -8.663692 36,000 22 468 0
2022-06-26 12:01:22 GMT 36.519581 -8.667862 36,000 22 468 0
2022-06-26 12:01:19 GMT 36.515167 -8.670101 36,000 22 468 0
2022-06-26 12:01:15 GMT 36.506779 -8.674407 36,000 22 468 0
2022-06-26 12:01:12 GMT 36.494980 -8.680515 36,000 22 468 0
2022-06-26 12:01:09 GMT 36.494980 -8.680515 36,000 22 468 0
2022-06-26 12:01:06 GMT 36.489944 -8.683090 36,000 22 468 0
2022-06-26 12:01:03 GMT 36.482941 -8.686695 36,000 22 468 0
2022-06-26 12:00:59 GMT 36.474564 -8.691004 36,000 22 468 0
2022-06-26 12:00:56 GMT 36.469345 -8.693676 36,000 22 468 0
2022-06-26 12:00:53 GMT 36.463165 -8.696880 36,000 22 467 0
2022-06-26 12:00:49 GMT 36.455524 -8.700763 36,000 22 467 0
2022-06-26 12:00:45 GMT 36.445724 -8.705807 36,000 22 467 0
2022-06-26 12:00:42 GMT 36.441925 -8.707752 36,000 22 467 0
2022-06-26 12:00:38 GMT 36.432953 -8.712387 36,000 22 467 0
2022-06-26 12:00:35 GMT 36.426147 -8.715840 36,000 22 467 0
2022-06-26 12:00:32 GMT 36.421326 -8.718281 36,000 22 467 0
2022-06-26 12:00:29 GMT 36.415348 -8.721391 36,000 22 467 0
2022-06-26 12:00:26 GMT 36.407528 -8.725365 36,000 22 467 0
2022-06-26 12:00:23 GMT 36.402328 -8.728065 36,000 22 467 0
2022-06-26 12:00:19 GMT 36.394726 -8.731969 36,000 22 467 0
2022-06-26 12:00:15 GMT 36.388321 -8.735218 36,000 22 467 0
2022-06-26 12:00:12 GMT 36.380714 -8.739098 36,000 22 467 0
2022-06-26 12:00:09 GMT 36.374725 -8.742199 36,000 22 467 0
2022-06-26 12:00:06 GMT 36.366943 -8.746147 36,000 22 466 0
2022-06-26 12:00:03 GMT 36.361767 -8.748799 36,000 22 466 0
2022-06-26 12:00:01 GMT 36.358566 -8.750439 36,000 22 465 0
2022-06-26 11:59:57 GMT 36.352386 -8.753643 36,000 22 465 0
2022-06-26 11:59:54 GMT 36.344822 -8.757506 36,000 22 465 0
2022-06-26 11:59:51 GMT 36.338676 -8.760662 36,000 22 465 0
2022-06-26 11:59:48 GMT 36.332703 -8.763714 36,000 22 465 0
2022-06-26 11:59:42 GMT 36.321579 -8.769436 36,000 22 464 0
2022-06-26 11:59:40 GMT 36.317596 -8.771439 36,000 22 464 0
2022-06-26 11:59:36 GMT 36.309025 -8.775797 36,000 22 464 0
2022-06-26 11:59:32 GMT 36.301117 -8.779907 36,000 22 464 0
2022-06-26 11:59:26 GMT 36.290955 -8.785057 36,000 22 464 0
2022-06-26 11:59:22 GMT 36.282028 -8.789635 36,000 22 464 0
2022-06-26 11:59:16 GMT 36.270538 -8.795528 36,000 22 464 0
2022-06-26 11:59:12 GMT 36.261795 -8.799992 36,000 22 464 0
2022-06-26 11:59:09 GMT 36.256027 -8.802910 36,000 22 464 0
2022-06-26 11:59:04 GMT 36.243942 -8.809107 36,000 22 464 0
2022-06-26 11:59:01 GMT 36.240730 -8.810743 36,000 22 464 0
2022-06-26 11:58:59 GMT 36.236168 -8.813022 36,000 22 464 0
2022-06-26 11:58:56 GMT 36.231003 -8.815710 36,000 22 464 0
2022-06-26 11:58:52 GMT 36.211170 -8.825820 36,000 22 464 0
2022-06-26 11:58:46 GMT 36.211170 -8.825820 36,000 22 464 0
2022-06-26 11:58:42 GMT 36.201256 -8.830904 36,000 22 464 0
2022-06-26 11:58:36 GMT 36.190968 -8.836163 36,000 22 464 0
2022-06-26 11:58:32 GMT 36.181458 -8.841076 36,000 22 464 0
2022-06-26 11:58:26 GMT 36.171322 -8.846215 36,000 22 464 0
2022-06-26 11:58:22 GMT 36.161407 -8.851261 36,000 22 464 0
2022-06-26 11:58:17 GMT 36.151886 -8.856125 36,000 22 464 64
2022-06-26 11:58:14 GMT 36.148140 -8.858078 36,000 22 464 64
2022-06-26 11:58:11 GMT 36.141769 -8.861332 36,000 22 464 0
2022-06-26 11:58:01 GMT 36.121719 -8.871574 36,000 22 464 0
2022-06-26 11:57:56 GMT 36.110432 -8.877304 36,000 22 464 0
2022-06-26 11:57:51 GMT 36.101074 -8.882037 36,000 22 464 0
2022-06-26 11:57:47 GMT 36.094139 -8.885602 36,000 22 464 -64
2022-06-26 11:57:44 GMT 36.087994 -8.888699 36,000 22 464 64
2022-06-26 11:57:40 GMT 36.081059 -8.892264 36,000 22 464 0
2022-06-26 11:57:37 GMT 36.074074 -8.895770 36,000 22 464 0
2022-06-26 11:57:34 GMT 36.067749 -8.899040 36,000 22 464 0
2022-06-26 11:57:30 GMT 36.059418 -8.903275 36,000 22 464 64
2022-06-26 11:57:24 GMT 36.047928 -8.909111 36,000 22 464 0
2022-06-26 11:57:20 GMT 36.037994 -8.914178 36,000 22 464 0
2022-06-26 11:57:17 GMT 36.034012 -8.916206 36,000 22 464 0
2022-06-26 11:57:11 GMT 36.018539 -8.924046 36,000 22 464 0
2022-06-26 11:57:06 GMT 36.012951 -8.926859 36,000 22 464 0
2022-06-26 11:57:01 GMT 36.001236 -8.932800 36,000 23 464 0
2022-06-26 11:56:53 GMT 35.985672 -8.941352 36,000 26 467 -64
2022-06-26 11:56:50 GMT 35.975739 -8.947334 36,000 27 469 0
2022-06-26 11:56:43 GMT 35.964767 -8.954500 36,000 29 470 0
2022-06-26 11:56:40 GMT 35.958858 -8.958532 36,000 30 471 0
2022-06-26 11:56:35 GMT 35.951706 -8.963699 36,000 31 471 0
2022-06-26 11:56:31 GMT 35.943512 -8.969879 36,000 33 474 0
2022-06-26 11:56:29 GMT 35.940002 -8.972674 36,000 34 475 64
2022-06-26 11:56:24 GMT 35.930695 -8.980350 36,000 34 475 64
2022-06-26 11:56:21 GMT 35.925064 -8.985100 36,000 34 475 64
2022-06-26 11:56:18 GMT 35.921616 -8.987985 36,000 34 475 0
2022-06-26 11:56:12 GMT 35.908859 -8.998679 36,000 34 476 0
2022-06-26 11:56:09 GMT 35.903553 -9.003062 36,000 34 476 0
2022-06-26 11:56:06 GMT 35.898651 -9.007187 36,000 34 476 0
2022-06-26 11:56:02 GMT 35.890274 -9.014168 36,000 34 476 0
2022-06-26 11:55:59 GMT 35.883911 -9.019547 36,000 34 476 0
2022-06-26 11:55:55 GMT 35.879333 -9.023323 36,000 34 476 0
2022-06-26 11:55:50 GMT 35.869896 -9.031229 36,000 34 476 0
2022-06-26 11:55:48 GMT 35.865509 -9.034882 36,000 34 476 0
2022-06-26 11:55:45 GMT 35.860931 -9.038715 36,000 34 476 0
2022-06-26 11:55:40 GMT 35.851639 -9.046440 36,000 34 475 0
2022-06-26 11:55:38 GMT 35.846897 -9.050397 36,000 34 476 0
2022-06-26 11:55:35 GMT 35.843037 -9.053611 36,000 34 476 0
2022-06-26 11:55:32 GMT 35.836487 -9.059086 36,000 34 477 0
2022-06-26 11:55:29 GMT 35.831024 -9.063662 36,000 34 477 0
2022-06-26 11:55:26 GMT 35.826279 -9.067612 36,000 34 477 0
2022-06-26 11:55:21 GMT 35.816574 -9.075680 36,000 34 477 0
2022-06-26 11:55:18 GMT 35.809425 -9.081603 36,000 34 478 0
2022-06-26 11:55:10 GMT 35.794968 -9.093647 36,000 34 478 0
2022-06-26 11:55:07 GMT 35.790943 -9.096972 36,000 34 479 -64
2022-06-26 11:55:00 GMT 35.777710 -9.108009 36,000 34 480 -64
2022-06-26 11:54:56 GMT 35.771111 -9.113510 36,000 34 480 0
2022-06-26 11:54:53 GMT 35.764687 -9.118886 36,000 34 480 -64
2022-06-26 11:54:48 GMT 35.756241 -9.125977 36,000 34 480 0
2022-06-26 11:54:44 GMT 35.749092 -9.131976 36,000 34 480 64
2022-06-26 11:54:40 GMT 35.740807 -9.138872 36,000 34 481 0
2022-06-26 11:54:37 GMT 35.734177 -9.144402 36,000 34 481 0
2022-06-26 11:54:34 GMT 35.730518 -9.147521 36,000 34 481 0
2022-06-26 11:54:30 GMT 35.722778 -9.153957 36,000 34 482 0
2022-06-26 11:54:28 GMT 35.718742 -9.157338 36,000 34 482 0
2022-06-26 11:54:24 GMT 35.711334 -9.163513 36,000 34 482 0
2022-06-26 11:54:19 GMT 35.701767 -9.171524 36,000 34 482 0
2022-06-26 11:54:14 GMT 35.692951 -9.178960 36,000 34 482 0
2022-06-26 11:54:09 GMT 35.682449 -9.187717 36,000 34 482 -64
2022-06-26 11:54:04 GMT 35.674702 -9.194213 36,000 34 482 -64
2022-06-26 11:53:59 GMT 35.665855 -9.201576 36,000 34 482 -64
2022-06-26 11:53:56 GMT 35.658829 -9.207401 36,000 34 482 0
2022-06-26 11:53:53 GMT 35.655899 -9.209862 36,000 34 482 0
2022-06-26 11:53:50 GMT 35.648117 -9.216328 36,000 34 482 0
2022-06-26 11:53:43 GMT 35.636158 -9.226353 36,000 34 482 0
2022-06-26 11:53:40 GMT 35.629486 -9.231834 36,000 34 482 0
2022-06-26 11:53:33 GMT 35.617119 -9.242132 36,000 34 482 0
2022-06-26 11:53:29 GMT 35.609947 -9.248151 36,000 34 482 0
2022-06-26 11:53:23 GMT 35.599239 -9.257033 36,000 34 481 0
2022-06-26 11:53:19 GMT 35.590530 -9.264221 36,000 34 481 64
2022-06-26 11:53:13 GMT 35.580574 -9.272461 36,000 34 481 0
2022-06-26 11:53:08 GMT 35.570389 -9.280872 36,000 34 481 0
2022-06-26 11:53:02 GMT 35.561188 -9.288540 36,000 34 481 0
2022-06-26 11:52:59 GMT 35.553761 -9.294667 36,000 34 481 0
2022-06-26 11:52:52 GMT 35.543053 -9.303491 36,000 34 481 0
2022-06-26 11:52:49 GMT 35.536953 -9.308576 36,000 34 481 0
2022-06-26 11:52:47 GMT 35.531227 -9.313309 36,000 34 481 0
2022-06-26 11:52:39 GMT 35.516281 -9.325676 36,000 34 481 0
2022-06-26 11:52:36 GMT 35.505203 -9.334888 36,000 34 482 0
2022-06-26 11:52:32 GMT 35.505203 -9.334888 36,000 34 482 0
2022-06-26 11:52:28 GMT 35.497665 -9.341125 36,000 34 481 -64
2022-06-26 11:52:22 GMT 35.485096 -9.351586 36,000 34 481 0
2022-06-26 11:52:19 GMT 35.481628 -9.354458 36,000 34 481 -64
2022-06-26 11:52:14 GMT 35.472382 -9.362125 36,000 34 481 -64
2022-06-26 11:52:11 GMT 35.467072 -9.366589 36,000 34 480 0
2022-06-26 11:52:07 GMT 35.456932 -9.374961 36,000 34 480 0
2022-06-26 11:52:00 GMT 35.446976 -9.383240 36,000 34 480 0
2022-06-26 11:51:57 GMT 35.439800 -9.389161 36,000 34 480 0
2022-06-26 11:51:49 GMT 35.425789 -9.400791 36,000 34 480 0
2022-06-26 11:51:46 GMT 35.420063 -9.405524 36,000 34 480 0
2022-06-26 11:51:39 GMT 35.406967 -9.416370 36,000 34 480 0
2022-06-26 11:51:37 GMT 35.402931 -9.419724 36,000 34 480 0
2022-06-26 11:51:29 GMT 35.388172 -9.431880 36,000 34 480 -64
2022-06-26 11:51:21 GMT 35.373604 -9.443918 36,000 34 480 0
2022-06-26 11:51:18 GMT 35.369385 -9.447441 36,000 34 480 0
2022-06-26 11:51:15 GMT 35.363663 -9.452190 36,000 34 480 0
2022-06-26 11:51:09 GMT 35.351349 -9.462384 36,000 34 480 0
2022-06-26 11:51:05 GMT 35.345627 -9.467059 36,000 34 480 0
2022-06-26 11:51:00 GMT 35.336243 -9.474850 36,000 34 480 0
2022-06-26 11:50:56 GMT 35.327957 -9.481716 36,000 34 480 0
2022-06-26 11:50:50 GMT 35.316715 -9.490960 36,000 34 480 0
2022-06-26 11:50:47 GMT 35.312988 -9.494019 36,000 34 480 0
2022-06-26 11:50:44 GMT 35.305801 -9.499969 36,000 33 480 0
2022-06-26 11:50:37 GMT 35.294186 -9.509544 36,000 34 480 0
2022-06-26 11:50:35 GMT 35.289577 -9.513342 36,000 34 480 0
2022-06-26 11:50:28 GMT 35.277054 -9.523686 36,000 33 481 0
2022-06-26 11:50:19 GMT 35.259178 -9.538412 36,000 33 481 0
2022-06-26 11:50:16 GMT 35.256199 -9.540808 36,000 33 481 0
2022-06-26 11:50:07 GMT 35.239391 -9.554599 36,000 33 480 0
2022-06-26 11:49:57 GMT 35.220016 -9.570493 36,000 33 480 0
2022-06-26 11:49:48 GMT 35.203033 -9.584427 36,000 33 480 0
2022-06-26 11:49:37 GMT 35.181244 -9.602219 36,000 33 480 0
2022-06-26 11:49:26 GMT 35.161880 -9.618026 36,000 33 480 0
2022-06-26 11:49:17 GMT 35.144714 -9.632039 36,000 33 480 0
2022-06-26 11:49:15 GMT 35.141922 -9.634281 36,000 33 480 0
2022-06-26 11:49:07 GMT 35.126221 -9.647061 36,000 33 480 0
2022-06-26 11:49:04 GMT 35.121414 -9.650985 36,000 33 480 0
2022-06-26 11:48:58 GMT 35.109417 -9.660759 36,000 33 479 0
2022-06-26 11:48:54 GMT 35.103149 -9.665895 36,000 33 479 0
2022-06-26 11:48:46 GMT 35.089325 -9.677217 36,000 33 479 0
2022-06-26 11:48:42 GMT 35.082138 -9.683103 36,000 33 479 0
2022-06-26 11:48:37 GMT 35.071293 -9.692001 36,000 33 479 0
2022-06-26 11:48:31 GMT 35.063377 -9.698467 36,000 33 479 0
2022-06-26 11:48:27 GMT 35.052109 -9.707654 36,000 33 479 0
2022-06-26 11:48:21 GMT 35.043823 -9.714436 36,000 33 479 0
2022-06-26 11:48:16 GMT 35.033524 -9.722900 36,000 33 479 0
2022-06-26 11:48:10 GMT 35.023041 -9.731476 36,000 33 479 0
2022-06-26 11:48:05 GMT 35.013428 -9.739324 36,000 33 479 0
2022-06-26 11:47:59 GMT 35.003513 -9.747448 36,000 33 479 0
2022-06-26 11:47:57 GMT 34.998158 -9.751854 36,000 33 479 0
2022-06-26 11:47:54 GMT 34.992432 -9.756489 36,000 33 479 0
2022-06-26 11:47:51 GMT 34.987125 -9.760838 36,000 33 479 0
2022-06-26 11:47:45 GMT 34.975487 -9.770336 36,000 33 479 0
2022-06-26 11:47:40 GMT 34.967422 -9.776935 36,000 34 478 0
2022-06-26 11:47:36 GMT 34.960602 -9.782540 36,000 34 478 0
2022-06-26 11:47:34 GMT 34.955292 -9.786913 36,000 34 478 0
2022-06-26 11:47:30 GMT 34.949203 -9.791845 36,000 34 478 0
2022-06-26 11:47:26 GMT 34.941505 -9.798203 36,000 34 478 0
2022-06-26 11:47:23 GMT 34.936150 -9.802551 36,000 33 478 0
2022-06-26 11:47:16 GMT 34.922745 -9.813482 36,000 33 478 0
2022-06-26 11:47:12 GMT 34.914093 -9.820544 36,000 33 478 0
2022-06-26 11:47:05 GMT 34.902866 -9.829731 36,000 33 478 0
2022-06-26 11:47:02 GMT 34.896606 -9.834838 36,000 33 478 0
2022-06-26 11:46:55 GMT 34.885208 -9.844142 36,000 33 478 0
2022-06-26 11:46:53 GMT 34.881500 -9.847113 36,000 33 478 0
2022-06-26 11:46:43 GMT 34.861267 -9.863593 36,000 33 479 0
2022-06-26 11:46:33 GMT 34.843643 -9.877998 36,000 33 478 -64
2022-06-26 11:46:25 GMT 34.828152 -9.890556 36,000 33 478 0
2022-06-26 11:46:22 GMT 34.823410 -9.894478 36,000 33 479 0
2022-06-26 11:46:13 GMT 34.805012 -9.909439 36,000 33 479 0
2022-06-26 11:46:05 GMT 34.786766 -9.924259 36,000 33 479 0
2022-06-26 11:46:03 GMT 34.786766 -9.924259 36,000 33 479 0
2022-06-26 11:45:54 GMT 34.771633 -9.936562 36,000 33 479 -64
2022-06-26 11:45:44 GMT 34.754288 -9.950586 36,000 33 479 64
2022-06-26 11:45:34 GMT 34.734924 -9.966281 36,000 33 480 -64
2022-06-26 11:45:24 GMT 34.716053 -9.981480 36,000 33 480 0
2022-06-26 11:45:13 GMT 34.697159 -9.996662 36,000 33 480 0
2022-06-26 11:45:03 GMT 34.678482 -10.011684 36,000 33 479 0
2022-06-26 11:44:53 GMT 34.659771 -10.026684 36,000 33 480 0
2022-06-26 11:44:44 GMT 34.643234 -10.039878 36,000 33 480 0
2022-06-26 11:44:33 GMT 34.621506 -10.057240 36,000 33 481 -64
2022-06-26 11:44:22 GMT 34.601761 -10.072949 36,000 33 481 0
2022-06-26 11:44:13 GMT 34.583939 -10.087223 36,000 33 481 0
2022-06-26 11:44:02 GMT 34.565174 -10.102329 36,000 33 482 0
2022-06-26 11:43:52 GMT 34.545959 -10.118016 36,000 33 482 0
2022-06-26 11:43:41 GMT 34.525375 -10.134716 36,000 33 482 0
2022-06-26 11:43:33 GMT 34.511856 -10.145706 36,000 33 482 0
2022-06-26 11:43:23 GMT 34.491810 -10.161839 36,000 33 482 0
2022-06-26 11:43:14 GMT 34.475464 -10.175021 36,000 33 481 0
2022-06-26 11:43:10 GMT 34.468395 -10.180721 36,000 33 481 0
2022-06-26 11:43:03 GMT 34.455032 -10.191422 36,000 33 481 0
2022-06-26 11:43:00 GMT 34.450195 -10.195312 36,000 33 481 0
2022-06-26 11:42:53 GMT 34.436279 -10.206523 36,000 33 481 0
2022-06-26 11:42:51 GMT 34.432735 -10.209332 36,000 33 481 0
2022-06-26 11:42:41 GMT 34.413975 -10.224380 36,000 33 482 0
2022-06-26 11:42:34 GMT 34.400009 -10.235538 36,000 33 482 0
2022-06-26 11:42:31 GMT 34.394653 -10.239887 36,000 33 481 0
2022-06-26 11:42:20 GMT 34.375523 -10.255165 36,000 33 481 0
2022-06-26 11:42:13 GMT 34.360474 -10.267228 36,000 33 481 0
2022-06-26 11:42:10 GMT 34.356388 -10.270500 36,000 33 481 0
2022-06-26 11:42:02 GMT 34.343216 -10.281073 36,000 33 481 0
2022-06-26 11:42:00 GMT 34.338375 -10.284920 36,000 33 481 0
2022-06-26 11:41:52 GMT 34.324814 -10.295759 36,000 33 481 0
2022-06-26 11:41:50 GMT 34.319286 -10.300198 36,000 33 481 0
2022-06-26 11:41:43 GMT 34.306671 -10.310326 36,000 33 481 0
2022-06-26 11:41:40 GMT 34.300369 -10.315321 36,000 33 481 0
2022-06-26 11:41:32 GMT 34.286270 -10.326588 36,000 33 481 -64
2022-06-26 11:41:03 GMT 34.232529 -10.369468 36,000 33 479 0
2022-06-26 11:40:58 GMT 34.223419 -10.376643 36,000 33 479 0
2022-06-26 11:40:51 GMT 34.210121 -10.387287 36,000 33 479 0
2022-06-26 11:40:47 GMT 34.201950 -10.393739 36,000 33 479 0
2022-06-26 11:40:42 GMT 34.191971 -10.401699 36,000 33 479 0
2022-06-26 11:40:32 GMT 34.175171 -10.415095 36,000 33 478 0
2022-06-26 11:40:23 GMT 34.157043 -10.429501 36,000 33 478 0
2022-06-26 11:40:13 GMT 34.138596 -10.444186 36,000 33 478 0
2022-06-26 11:40:08 GMT 34.130844 -10.450401 36,000 33 478 0
2022-06-26 11:40:01 GMT 34.118649 -10.460072 36,000 33 477 0
2022-06-26 11:39:51 GMT 34.100773 -10.474262 36,000 33 477 0
2022-06-26 11:39:40 GMT 34.080288 -10.490456 36,000 33 477 64
2022-06-26 11:39:30 GMT 34.061527 -10.505390 36,000 33 477 0
2022-06-26 11:39:23 GMT 34.048462 -10.515822 36,000 33 477 0
2022-06-26 11:39:20 GMT 34.042953 -10.520210 36,000 33 477 0
2022-06-26 11:39:16 GMT 34.035038 -10.526505 36,000 33 476 0
2022-06-26 11:39:07 GMT 34.017536 -10.540352 36,000 33 476 0
2022-06-26 11:38:56 GMT 33.998795 -10.555283 36,000 33 476 0
2022-06-26 11:38:46 GMT 33.980015 -10.570164 36,000 33 475 0
2022-06-26 11:38:36 GMT 33.961815 -10.584583 36,000 33 475 0
2022-06-26 11:38:26 GMT 33.941936 -10.600319 36,000 33 475 -64
2022-06-26 11:38:15 GMT 33.921871 -10.616112 36,000 33 475 -64
2022-06-26 11:38:11 GMT 33.914337 -10.622042 36,000 33 475 0
2022-06-26 11:38:05 GMT 33.905159 -10.629330 36,000 33 475 0
2022-06-26 11:37:35 GMT 33.849884 -10.672769 36,000 33 475 0
2022-06-26 11:37:26 GMT 33.833328 -10.685749 36,000 33 475 0
2022-06-26 11:36:47 GMT 33.759727 -10.743713 36,000 33 475 0
2022-06-26 11:36:09 GMT 33.690811 -10.797991 36,000 33 476 0
2022-06-26 11:36:03 GMT 33.679596 -10.806847 36,000 33 476 0
2022-06-26 11:35:53 GMT 33.660805 -10.821648 36,000 33 476 0
2022-06-26 11:35:43 GMT 33.643158 -10.835602 36,000 33 476 64
2022-06-26 11:35:04 GMT 33.571472 -10.891914 36,000 33 476 0
2022-06-26 11:34:56 GMT 33.555222 -10.904659 36,000 33 476 0
2022-06-26 11:34:51 GMT 33.547668 -10.910601 36,000 33 476 0
2022-06-26 11:34:20 GMT 33.488937 -10.956500 36,000 33 476 0
2022-06-26 11:32:32 GMT 33.290588 -11.110693 36,000 33 477 0
2022-06-26 11:32:29 GMT 33.283546 -11.116146 36,000 33 477 0
2022-06-26 11:32:19 GMT 33.266323 -11.129431 36,000 33 476 0
2022-06-26 11:32:09 GMT 33.246368 -11.144971 36,000 33 476 0
2022-06-26 11:31:57 GMT 33.225861 -11.160956 36,000 33 477 0
2022-06-26 11:31:49 GMT 33.209946 -11.173264 36,000 33 477 0
2022-06-26 11:31:38 GMT 33.190292 -11.188477 36,000 33 477 0
2022-06-26 11:31:29 GMT 33.172348 -11.202374 36,000 33 477 0
2022-06-26 11:31:18 GMT 33.153625 -11.216821 36,000 33 477 64
2022-06-26 11:31:08 GMT 33.133621 -11.232257 36,000 33 477 0
2022-06-26 11:30:58 GMT 33.115494 -11.246320 36,000 33 477 -64
2022-06-26 11:28:42 GMT 32.862808 -11.440915 36,000 32 478 0
2022-06-26 11:28:27 GMT 32.835201 -11.462047 36,000 32 479 -64
2022-06-26 11:28:20 GMT 32.821796 -11.472361 36,000 32 480 0
2022-06-26 11:28:04 GMT 32.793400 -11.494166 36,000 32 481 64
2022-06-26 11:27:54 GMT 32.774277 -11.508728 36,000 32 481 0
2022-06-26 11:27:44 GMT 32.755692 -11.522900 36,000 32 483 0
2022-06-26 11:27:34 GMT 32.735439 -11.538391 36,000 32 482 0
2022-06-26 11:27:23 GMT 32.716278 -11.553113 36,000 32 482 0
2022-06-26 11:27:13 GMT 32.697144 -11.567780 36,000 32 482 64
2022-06-26 11:27:02 GMT 32.675400 -11.584424 36,000 32 483 0
We lost coverage of the aircraft here for a total of 10 minutes
2022-06-26 11:16:39 GMT 31.514841 -12.456793 36,000 32 481 0
2022-06-26 11:14:49 GMT 31.306915 -12.610635 36,000 32 485 0
2022-06-26 11:14:45 GMT 31.298931 -12.616534 36,000 32 485 0
2022-06-26 11:14:35 GMT 31.279953 -12.630561 36,000 32 485 0
2022-06-26 11:14:19 GMT 31.248962 -12.653396 36,000 32 486 0
2022-06-26 11:14:15 GMT 31.241392 -12.658997 36,000 32 486 0
2022-06-26 11:14:00 GMT 31.213028 -12.679784 36,000 32 486 0
2022-06-26 11:13:55 GMT 31.203140 -12.687055 36,000 32 486 0
2022-06-26 11:13:36 GMT 31.167980 -12.712939 36,000 32 486 0
2022-06-26 11:13:35 GMT 31.165100 -12.715005 36,000 32 486 0
2022-06-26 11:13:25 GMT 31.145142 -12.729708 36,000 32 487 0
2022-06-26 11:13:02 GMT 31.103165 -12.760405 35,925 32 485 896
2022-06-26 11:12:53 GMT 31.085815 -12.773061 35,775 32 486 896
2022-06-26 11:12:40 GMT 31.060863 -12.791327 35,600 32 486 832
2022-06-26 11:12:34 GMT 31.048248 -12.800555 35,500 32 487 832
2022-06-26 11:12:24 GMT 31.028975 -12.814673 35,375 32 487 832
2022-06-26 11:12:07 GMT 30.996597 -12.838386 35,125 32 487 832
2022-06-26 11:12:03 GMT 30.991058 -12.842425 35,100 32 487 768
2022-06-26 11:11:53 GMT 30.970831 -12.857245 34,950 32 485 896
2022-06-26 11:11:43 GMT 30.951605 -12.871307 34,800 32 485 896
2022-06-26 11:11:32 GMT 30.931215 -12.886194 34,650 32 485 896
2022-06-26 11:11:21 GMT 30.910313 -12.901465 34,475 32 485 832
2022-06-26 11:11:16 GMT 30.899281 -12.909485 34,400 32 484 960
2022-06-26 11:11:10 GMT 30.888248 -12.917505 34,300 32 484 960
2022-06-26 11:11:01 GMT 30.871719 -12.929616 34,175 32 484 960
2022-06-26 11:10:51 GMT 30.852493 -12.943564 34,000 32 484 896
2022-06-26 11:10:43 GMT 30.838852 -12.953527 33,900 32 484 896
2022-06-26 11:10:41 GMT 30.833313 -12.957566 33,850 32 483 960
2022-06-26 11:10:35 GMT 30.821915 -12.965860 33,750 32 483 960
2022-06-26 11:10:30 GMT 30.813034 -12.972322 33,675 32 483 960
2022-06-26 11:10:25 GMT 30.803741 -12.979054 33,600 32 483 960
2022-06-26 11:10:20 GMT 30.795191 -12.985291 33,525 32 483 896
2022-06-26 11:10:15 GMT 30.784973 -12.992733 33,450 32 483 832
2022-06-26 11:10:05 GMT 30.765839 -13.006574 33,325 32 481 832
2022-06-26 11:09:53 GMT 30.744827 -13.021815 33,075 32 481 960
2022-06-26 11:09:50 GMT 30.736908 -13.027523 33,075 32 481 960
2022-06-26 11:09:39 GMT 30.716934 -13.042035 32,925 32 480 960
2022-06-26 11:09:29 GMT 30.698090 -13.055689 32,750 32 478 960
2022-06-26 11:09:26 GMT 30.693008 -13.059351 32,700 32 478 1024
2022-06-26 11:09:19 GMT 30.678726 -13.069745 32,550 32 478 1280
2022-06-26 11:09:14 GMT 30.669891 -13.076154 32,475 32 478 1216
2022-06-26 11:09:07 GMT 30.655952 -13.086200 32,375 32 478 1024
2022-06-26 11:09:05 GMT 30.652227 -13.088947 32,300 32 478 960
2022-06-26 11:08:55 GMT 30.634771 -13.101581 32,125 32 478 1088
2022-06-26 11:08:49 GMT 30.623133 -13.110040 32,025 32 478 1088
2022-06-26 11:08:45 GMT 30.615824 -13.115314 31,950 32 477 1152
2022-06-26 11:08:34 GMT 30.596329 -13.129470 31,750 32 477 1280
2022-06-26 11:08:25 GMT 30.577972 -13.142826 31,475 32 477 1280
2022-06-26 11:08:15 GMT 30.558701 -13.156828 31,300 32 478 1344
2022-06-26 11:08:05 GMT 30.539383 -13.170830 31,100 31 477 1088
2022-06-26 11:07:58 GMT 30.526657 -13.180039 30,975 31 476 960
2022-06-26 11:07:55 GMT 30.520996 -13.184088 30,925 31 476 896
2022-06-26 11:07:50 GMT 30.511459 -13.190972 30,850 32 475 960
2022-06-26 11:07:44 GMT 30.501398 -13.198260 30,775 32 474 960
2022-06-26 11:07:38 GMT 30.490814 -13.205943 30,700 32 473 832
2022-06-26 11:07:34 GMT 30.483011 -13.211554 30,625 31 472 768
2022-06-26 11:07:29 GMT 30.473141 -13.218585 30,550 31 470 896
2022-06-26 11:07:24 GMT 30.464622 -13.224738 30,500 31 469 960
2022-06-26 11:07:19 GMT 30.454102 -13.232263 30,400 31 469 960
2022-06-26 11:07:14 GMT 30.445629 -13.238306 30,325 31 468 1024
2022-06-26 11:07:12 GMT 30.442841 -13.240303 30,300 31 467 1088
2022-06-26 11:07:08 GMT 30.435480 -13.245557 30,225 31 467 1088
2022-06-26 11:07:04 GMT 30.427382 -13.251379 30,150 31 466 960
2022-06-26 11:06:58 GMT 30.415466 -13.259906 30,050 31 464 896
2022-06-26 11:06:54 GMT 30.409424 -13.264214 30,000 31 463 1024
2022-06-26 11:06:51 GMT 30.403219 -13.268683 29,950 31 463 1088
2022-06-26 11:06:48 GMT 30.397587 -13.272748 29,900 32 462 896
2022-06-26 11:06:43 GMT 30.388824 -13.279024 29,825 32 461 640
2022-06-26 11:06:37 GMT 30.378176 -13.286755 29,750 32 458 896
2022-06-26 11:06:34 GMT 30.371843 -13.291315 29,700 32 459 1088
2022-06-26 11:06:28 GMT 30.361450 -13.298896 29,600 31 458 896
2022-06-26 11:06:23 GMT 30.351974 -13.305413 29,525 28 456 960
2022-06-26 11:06:13 GMT 30.333389 -13.316453 29,350 23 454 1088
2022-06-26 11:06:07 GMT 30.322220 -13.321946 29,250 21 453 1024
2022-06-26 11:06:02 GMT 30.312817 -13.326031 29,175 18 451 1024
2022-06-26 11:05:53 GMT 30.293655 -13.332825 28,975 12 449 1216
2022-06-26 11:05:43 GMT 30.273338 -13.337567 28,800 8 446 1152
2022-06-26 11:05:36 GMT 30.259644 -13.339772 28,675 8 445 1152
2022-06-26 11:05:33 GMT 30.252457 -13.340957 28,600 8 444 1280
2022-06-26 11:05:23 GMT 30.232931 -13.344159 28,375 8 443 1344
2022-06-26 11:05:13 GMT 30.212173 -13.347473 28,150 7 442 1280
2022-06-26 11:05:05 GMT 30.196381 -13.350058 27,975 7 441 1408
2022-06-26 11:05:02 GMT 30.191345 -13.350866 27,925 7 440 1344
2022-06-26 11:04:58 GMT 30.183060 -13.352212 27,825 7 439 1280
2022-06-26 11:04:51 GMT 30.166718 -13.354851 27,650 7 439 1408
2022-06-26 11:04:45 GMT 30.156464 -13.356521 27,575 8 438 1472
2022-06-26 11:04:42 GMT 30.150394 -13.357452 27,450 8 438 1472
2022-06-26 11:04:36 GMT 30.137741 -13.359537 27,300 8 437 1408
2022-06-26 11:04:32 GMT 30.130144 -13.360748 27,200 8 437 1472
2022-06-26 11:04:28 GMT 30.122498 -13.361960 27,100 8 436 1536
2022-06-26 11:04:25 GMT 30.117096 -13.362876 27,050 8 436 1536
2022-06-26 11:04:22 GMT 30.110092 -13.364006 26,950 8 436 1536
2022-06-26 11:04:20 GMT 30.105705 -13.364703 26,900 8 436 1600
2022-06-26 11:04:17 GMT 30.101898 -13.365299 26,850 8 435 1600
2022-06-26 11:04:15 GMT 30.096085 -13.366268 26,775 8 435 1536
2022-06-26 11:04:12 GMT 30.089905 -13.367238 26,675 8 435 1536
2022-06-26 11:04:05 GMT 30.076721 -13.369392 26,525 7 434 1536
2022-06-26 11:04:02 GMT 30.069952 -13.370471 26,425 7 434 1664
2022-06-26 11:03:55 GMT 30.056406 -13.372668 26,225 7 433 1600
2022-06-26 11:03:52 GMT 30.049471 -13.373822 26,150 7 433 1600
2022-06-26 11:03:41 GMT 30.029406 -13.377008 25,875 7 432 1600
2022-06-26 11:03:35 GMT 30.017117 -13.378986 25,725 7 431 1472
2022-06-26 11:03:31 GMT 30.008968 -13.380304 25,625 8 430 1472
2022-06-26 11:03:26 GMT 29.999100 -13.381897 25,500 7 429 1536
2022-06-26 11:03:21 GMT 29.989464 -13.383435 25,375 7 428 1536
2022-06-26 11:03:15 GMT 29.977638 -13.385358 25,225 7 428 1472
2022-06-26 11:03:11 GMT 29.969788 -13.386625 25,125 7 427 1472
2022-06-26 11:03:06 GMT 29.959213 -13.388295 24,975 7 426 1664
2022-06-26 11:03:04 GMT 29.955526 -13.388928 24,925 7 426 1600
2022-06-26 11:03:01 GMT 29.949646 -13.389857 24,850 7 425 1536
2022-06-26 11:02:56 GMT 29.938908 -13.391565 24,700 7 424 1472
2022-06-26 11:02:51 GMT 29.930157 -13.392993 24,600 8 423 1600
2022-06-26 11:02:48 GMT 29.924332 -13.393896 24,525 8 422 1664
2022-06-26 11:02:45 GMT 29.910604 -13.396104 24,375 8 422 1600
2022-06-26 11:02:41 GMT 29.910604 -13.396104 24,325 8 421 1600
2022-06-26 11:02:39 GMT 29.906507 -13.396750 24,275 7 420 1600
2022-06-26 11:02:33 GMT 29.896313 -13.398420 24,125 7 420 1600
2022-06-26 11:02:30 GMT 29.889145 -13.399550 24,025 7 419 1664
2022-06-26 11:02:28 GMT 29.885139 -13.400197 23,975 7 419 1664
2022-06-26 11:02:21 GMT 29.871872 -13.402370 23,775 7 418 1728
2022-06-26 11:02:19 GMT 29.866699 -13.403162 23,700 7 417 1664
2022-06-26 11:02:14 GMT 29.859072 -13.404397 23,600 8 416 1600
2022-06-26 11:02:11 GMT 29.853333 -13.405327 23,500 8 415 1792
2022-06-26 11:02:08 GMT 29.847794 -13.406225 23,425 8 415 1792
2022-06-26 11:02:04 GMT 29.839966 -13.407493 23,300 8 415 1792
2022-06-26 11:02:01 GMT 29.833885 -13.408490 23,200 8 414 1728
2022-06-26 11:01:57 GMT 29.827423 -13.409500 23,100 7 413 1792
2022-06-26 11:01:54 GMT 29.820419 -13.410662 22,975 7 412 1920
2022-06-26 11:01:51 GMT 29.814148 -13.411666 22,875 7 412 1984
2022-06-26 11:01:48 GMT 29.808842 -13.412476 22,775 7 412 2048
2022-06-26 11:01:43 GMT 29.799391 -13.414037 22,625 7 412 1984
2022-06-26 11:01:41 GMT 29.795792 -13.414571 22,550 7 411 1920
2022-06-26 11:01:38 GMT 29.789335 -13.415599 22,450 7 411 1792
2022-06-26 11:01:33 GMT 29.782167 -13.416784 22,350 7 410 1792
2022-06-26 11:01:31 GMT 29.777069 -13.417581 22,250 7 410 1792
2022-06-26 11:01:27 GMT 29.769699 -13.418796 22,150 7 409 1792
2022-06-26 11:01:24 GMT 29.763519 -13.419747 22,050 8 408 1792
2022-06-26 11:01:21 GMT 29.758240 -13.420608 21,950 8 408 1792
2022-06-26 11:01:17 GMT 29.750559 -13.421846 21,825 8 408 1856
2022-06-26 11:01:13 GMT 29.743622 -13.422977 21,725 8 407 1856
2022-06-26 11:01:11 GMT 29.739340 -13.423623 21,650 8 406 1856
2022-06-26 11:01:07 GMT 29.731657 -13.424862 21,525 8 406 1792
2022-06-26 11:01:04 GMT 29.725885 -13.425778 21,425 7 404 1792
2022-06-26 11:01:01 GMT 29.720306 -13.426719 21,350 7 403 1792
2022-06-26 11:00:57 GMT 29.712524 -13.427932 21,225 7 403 1792
2022-06-26 11:00:54 GMT 29.706985 -13.428832 21,125 7 402 1792
2022-06-26 11:00:51 GMT 29.701263 -13.429783 21,025 8 401 1792
2022-06-26 11:00:46 GMT 29.693665 -13.430997 20,925 8 400 1792
2022-06-26 11:00:43 GMT 29.688131 -13.431863 20,825 8 400 1920
2022-06-26 11:00:40 GMT 29.682999 -13.432740 20,725 8 399 1984
2022-06-26 11:00:34 GMT 29.670135 -13.434800 20,500 8 398 1792
2022-06-26 11:00:30 GMT 29.664093 -13.435751 20,400 8 397 1792
2022-06-26 11:00:23 GMT 29.651541 -13.437787 20,175 7 396 2048
2022-06-26 11:00:20 GMT 29.646057 -13.438656 20,075 7 395 2048
2022-06-26 11:00:16 GMT 29.636784 -13.440157 19,900 7 395 1920
2022-06-26 11:00:12 GMT 29.632416 -13.440875 19,825 8 394 1920
2022-06-26 11:00:10 GMT 29.628067 -13.441561 19,750 8 394 1920
2022-06-26 11:00:05 GMT 29.618488 -13.443119 19,600 8 393 1920
2022-06-26 11:00:02 GMT 29.614517 -13.443727 19,525 7 392 1920
2022-06-26 11:00:00 GMT 29.609644 -13.444519 19,425 7 392 1984
2022-06-26 10:59:55 GMT 29.599915 -13.446081 19,250 7 391 2048
2022-06-26 10:59:52 GMT 29.597029 -13.446512 19,200 7 390 2048
2022-06-26 10:59:50 GMT 29.590897 -13.447477 19,075 7 390 1984
2022-06-26 10:59:44 GMT 29.573181 -13.450276 18,825 7 389 1920
2022-06-26 10:59:40 GMT 29.573181 -13.450276 18,775 7 388 1984
2022-06-26 10:59:35 GMT 29.563046 -13.451897 18,575 7 387 1984
2022-06-26 10:59:32 GMT 29.560532 -13.452274 18,525 7 387 1984
2022-06-26 10:59:28 GMT 29.554138 -13.453287 18,425 7 386 1920
2022-06-26 10:59:23 GMT 29.543472 -13.454977 18,225 7 384 1856
2022-06-26 10:59:19 GMT 29.536417 -13.456098 18,100 7 383 1728
2022-06-26 10:59:13 GMT 29.526222 -13.457713 17,950 7 381 1856
2022-06-26 10:59:09 GMT 29.518681 -13.458898 17,800 7 380 2048
2022-06-26 10:59:03 GMT 29.508362 -13.460523 17,600 7 379 1984
2022-06-26 10:58:59 GMT 29.501410 -13.461645 17,475 7 377 1984
2022-06-26 10:58:54 GMT 29.487864 -13.463799 17,200 8 375 2112
2022-06-26 10:58:47 GMT 29.481485 -13.464822 17,075 8 375 2176
2022-06-26 10:58:42 GMT 29.471649 -13.466439 16,875 7 375 2176
2022-06-26 10:58:39 GMT 29.463423 -13.467623 16,700 5 374 2112
2022-06-26 10:58:33 GMT 29.456543 -13.468340 16,550 3 372 2176
2022-06-26 10:58:28 GMT 29.448120 -13.468921 16,375 1 371 2176
2022-06-26 10:58:22 GMT 29.438507 -13.469185 16,150 0 370 2304
2022-06-26 10:58:19 GMT 29.431824 -13.469080 16,000 358 369 2176
2022-06-26 10:58:16 GMT 29.426880 -13.468869 15,900 357 368 2112
2022-06-26 10:58:13 GMT 29.420408 -13.468377 15,775 356 367 2176
2022-06-26 10:58:08 GMT 29.413834 -13.467707 15,650 354 366 2368
2022-06-26 10:58:02 GMT 29.403744 -13.466276 15,350 352 364 2688
2022-06-26 10:57:58 GMT 29.396530 -13.465013 15,175 352 365 2752
2022-06-26 10:57:52 GMT 29.386518 -13.463314 14,900 352 364 2624
2022-06-26 10:57:48 GMT 29.379684 -13.462161 14,725 352 363 2368
2022-06-26 10:57:43 GMT 29.371811 -13.460840 14,550 352 362 2304
2022-06-26 10:57:41 GMT 29.368643 -13.460298 14,475 352 363 2368
2022-06-26 10:57:38 GMT 29.363150 -13.459383 14,350 352 362 2496
2022-06-26 10:57:32 GMT 29.352209 -13.457498 14,075 352 361 2176
2022-06-26 10:57:28 GMT 29.346437 -13.456475 13,950 352 358 2048
2022-06-26 10:57:23 GMT 29.338348 -13.455136 13,775 352 357 2496
2022-06-26 10:57:21 GMT 29.335590 -13.454644 13,700 352 357 2624
2022-06-26 10:57:18 GMT 29.329493 -13.453620 13,550 352 357 2560
2022-06-26 10:57:11 GMT 29.318848 -13.451755 13,275 352 355 2304
2022-06-26 10:57:06 GMT 29.311203 -13.450435 13,100 352 354 2368
2022-06-26 10:57:03 GMT 29.305145 -13.449420 12,950 352 353 2496
2022-06-26 10:57:01 GMT 29.302259 -13.448935 12,875 352 353 2496
2022-06-26 10:56:57 GMT 29.295776 -13.447794 12,700 352 352 2304
2022-06-26 10:56:53 GMT 29.289322 -13.446685 12,575 352 350 2240
2022-06-26 10:56:51 GMT 29.285431 -13.445998 12,475 352 349 2304
2022-06-26 10:56:47 GMT 29.279961 -13.445058 12,350 352 348 2368
2022-06-26 10:56:42 GMT 29.273254 -13.443938 12,175 352 347 2496
2022-06-26 10:56:40 GMT 29.269114 -13.443227 12,075 352 347 2432
2022-06-26 10:56:37 GMT 29.263853 -13.442311 11,950 352 345 2368
2022-06-26 10:56:30 GMT 29.252563 -13.440452 11,650 352 343 2432
2022-06-26 10:56:27 GMT 29.247561 -13.439564 11,525 352 342 2496
2022-06-26 10:56:22 GMT 29.240936 -13.438498 11,350 352 341 2496
2022-06-26 10:56:17 GMT 29.232012 -13.436979 11,150 352 338 2176
2022-06-26 10:56:12 GMT 29.225189 -13.435857 11,000 352 336 1792
2022-06-26 10:56:10 GMT 29.220703 -13.435117 10,925 352 334 1280
2022-06-26 10:56:06 GMT 29.216091 -13.434394 10,875 352 330 1088
2022-06-26 10:56:02 GMT 29.209900 -13.433425 10,800 353 326 960
2022-06-26 10:55:59 GMT 29.204773 -13.432582 10,750 353 321 896
2022-06-26 10:55:56 GMT 29.201111 -13.432001 10,725 353 317 1024
2022-06-26 10:55:52 GMT 29.195389 -13.431103 10,650 353 312 1216
2022-06-26 10:55:49 GMT 29.190033 -13.430311 10,575 353 309 1152
2022-06-26 10:55:45 GMT 29.185913 -13.429677 10,525 353 303 768
2022-06-26 10:55:42 GMT 29.180969 -13.428885 10,475 353 301 704
2022-06-26 10:55:38 GMT 29.175568 -13.428040 10,400 353 296 1152
2022-06-26 10:55:32 GMT 29.167305 -13.426747 10,225 352 292 2240
2022-06-26 10:55:29 GMT 29.161812 -13.425885 10,050 352 291 2432
2022-06-26 10:55:21 GMT 29.152967 -13.424377 9,775 352 289 2368
2022-06-26 10:55:18 GMT 29.147827 -13.423444 9,625 351 288 2304
2022-06-26 10:55:11 GMT 29.139267 -13.421754 9,350 350 285 2752
2022-06-26 10:55:08 GMT 29.134857 -13.420823 9,175 353 285 3136
2022-06-26 10:55:02 GMT 29.127045 -13.419747 8,900 0 286 2624
2022-06-26 10:54:58 GMT 29.121405 -13.419908 8,725 8 287 2176
2022-06-26 10:54:48 GMT 29.108089 -13.423570 8,350 25 286 2368
2022-06-26 10:54:42 GMT 29.101547 -13.427353 8,125 34 287 2368
2022-06-26 10:54:37 GMT 29.096329 -13.431790 7,925 43 287 2368
2022-06-26 10:54:29 GMT 29.089325 -13.440294 7,625 51 284 2432
2022-06-26 10:54:27 GMT 29.087311 -13.443093 7,525 51 284 2560
2022-06-26 10:54:21 GMT 29.082394 -13.450281 7,250 51 282 2944
2022-06-26 10:54:16 GMT 29.078901 -13.455344 7,025 51 281 2752
2022-06-26 10:54:11 GMT 29.074713 -13.461429 6,800 51 278 2624
2022-06-26 10:54:07 GMT 29.070328 -13.467759 6,550 51 277 3136
2022-06-26 10:54:01 GMT 29.066380 -13.473547 6,250 51 277 3456
2022-06-26 10:53:56 GMT 29.062609 -13.478932 6,000 51 277 3136
2022-06-26 10:53:51 GMT 29.058701 -13.484609 5,775 51 275 2496
2022-06-26 10:53:45 GMT 29.054182 -13.491103 5,550 51 272 2432
2022-06-26 10:53:42 GMT 29.050831 -13.495950 5,400 51 269 2112
2022-06-26 10:53:35 GMT 29.046341 -13.502514 5,225 52 260 1216
2022-06-26 10:53:31 GMT 29.043383 -13.506883 5,150 52 254 1664
2022-06-26 10:53:26 GMT 29.039062 -13.513342 4,900 52 249 3072
2022-06-26 10:53:19 GMT 29.034769 -13.519700 4,550 52 249 3456
2022-06-26 10:53:15 GMT 29.032024 -13.523739 4,325 52 249 3328
2022-06-26 10:53:05 GMT 29.024670 -13.534833 3,750 53 246 3392
2022-06-26 10:52:54 GMT 29.017365 -13.545192 3,200 45 242 2880
2022-06-26 10:52:45 GMT 29.009399 -13.553682 2,825 36 232 1408
2022-06-26 10:52:34 GMT 29.000601 -13.560845 2,575 34 214 1920
2022-06-26 10:52:28 GMT 28.995993 -13.564453 2,375 34 211 2624
2022-06-26 10:52:24 GMT 28.992325 -13.567376 2,175 34 209 2112
2022-06-26 10:52:18 GMT 28.987846 -13.571023 2,025 37 203 1344
2022-06-26 10:52:17 GMT 28.986008 -13.572552 1,975 38 199 1600
2022-06-26 10:52:14 GMT 28.983765 -13.574612 1,900 39 196 1536
2022-06-26 10:52:12 GMT 28.983078 -13.575299 1,875 39 195 1472
2022-06-26 10:52:10 GMT 28.981796 -13.576461 1,825 39 194 1344
2022-06-26 10:52:09 GMT 28.981096 -13.577109 1,800 40 191 1152
2022-06-26 10:52:08 GMT 28.980118 -13.578078 1,775 40 190 1152
2022-06-26 10:52:07 GMT 28.978775 -13.579366 1,725 40 186 896
2022-06-26 10:52:05 GMT 28.978271 -13.579894 1,725 41 184 768
2022-06-26 10:52:04 GMT 28.976954 -13.581202 1,700 41 180 768
2022-06-26 10:52:02 GMT 28.976120 -13.582007 1,675 41 177 896
2022-06-26 10:52:01 GMT 28.975525 -13.582588 1,675 41 177 896
2022-06-26 10:51:59 GMT 28.974289 -13.583802 1,625 41 175 1024
2022-06-26 10:51:58 GMT 28.973602 -13.584489 1,625 41 173 1088
2022-06-26 10:51:56 GMT 28.972483 -13.585672 1,575 40 170 1088
2022-06-26 10:51:55 GMT 28.971926 -13.586210 1,550 40 169 1280
2022-06-26 10:51:52 GMT 28.970062 -13.587988 1,475 40 164 1856
2022-06-26 10:51:50 GMT 28.968979 -13.589084 1,425 40 164 1856
2022-06-26 10:51:48 GMT 28.968061 -13.590034 1,375 40 163 2048
2022-06-26 10:51:47 GMT 28.967194 -13.590880 1,325 39 163 2176
2022-06-26 10:51:45 GMT 28.966478 -13.591542 1,275 38 162 2176
2022-06-26 10:51:43 GMT 28.965134 -13.592782 1,175 37 162 2368
2022-06-26 10:51:42 GMT 28.964584 -13.593257 1,150 35 161 2432
2022-06-26 10:51:41 GMT 28.963919 -13.593804 1,100 34 160 2496
2022-06-26 10:51:39 GMT 28.962662 -13.594842 1,000 31 159 3072
2022-06-26 10:51:38 GMT 28.961451 -13.595796 900 30 159 3200
2022-06-26 10:51:36 GMT 28.960939 -13.596120 850 29 158 3136
2022-06-26 10:51:34 GMT 28.958679 -13.597588 700 27 159 3840
2022-06-26 10:51:33 GMT 28.958679 -13.597588 650 27 159 4032
2022-06-26 10:51:32 GMT 28.956985 -13.598592 475 26 161 3968
2022-06-26 10:51:29 GMT 28.956051 -13.599135 375 26 163 3968
2022-06-26 10:51:28 GMT 28.955475 -13.599490 325 26 164 3904
2022-06-26 10:51:26 GMT 28.954096 -13.600266 200 26 165 3712
2022-06-26 10:51:25 GMT 28.953537 -13.600536 150 26 166 3584
2022-06-26 10:51:24 GMT 28.951904 -13.601497 25 26 168 2368
2022-06-26 10:51:22 GMT 28.951117 -13.601936 0 26 165 1792
2022-06-26 10:51:20 GMT 28.949814 -13.602690 -50 26 161 896
2022-06-26 10:51:19 GMT 28.949114 -13.603121 -75 27 158 512
2022-06-26 10:51:16 GMT 28.947392 -13.604090 -75 26 146 192
2022-06-26 10:51:15 GMT 28.946503 -13.604613 -75 26 143 192
2022-06-26 10:51:12 GMT 28.944180 -13.605975 -75 26 126 128
2022-06-26 10:51:10 GMT 28.943665 -13.606250 -75 26 122 64
2022-06-26 10:51:07 GMT 28.942457 -13.606944 -75 26 114 64
2022-06-26 10:51:06 GMT 28.942017 -13.607201 -75 26 109 64
2022-06-26 10:51:05 GMT 28.941061 -13.607752 -75 26 100 128
2022-06-26 10:51:03 GMT 28.940641 -13.608021 -75 26 96 64
2022-06-26 10:51:02 GMT 28.940277 -13.608258 -75 26 91 64
2022-06-26 10:51:01 GMT 28.939478 -13.608668 -75 26 81 64
2022-06-26 10:50:58 GMT 28.938801 -13.609089 0 25 74
2022-06-26 10:50:57 GMT 28.938477 -13.609274 0 25 68
2022-06-26 10:50:56 GMT 28.937895 -13.609610 0 25 58
2022-06-26 10:50:54 GMT 28.937656 -13.609750 0 25 52
2022-06-26 10:50:52 GMT 28.937164 -13.610027 0 25 42
2022-06-26 10:50:51 GMT 28.936953 -13.610149 0 25 37
2022-06-26 10:50:50 GMT 28.936790 -13.610243 0 25 31
2022-06-26 10:50:49 GMT 28.936512 -13.610410 0 25 20
2022-06-26 10:50:47 GMT 28.936363 -13.610489 0 28 15
2022-06-26 10:50:36 GMT 28.936169 -13.610608 0 28 0
2022-06-26 10:50:26 GMT 28.936161 -13.610606 0 28 0
2022-06-26 10:50:21 GMT 28.936169 -13.610608 0 28 0
2022-06-26 10:50:06 GMT 28.936161 -13.610606 0 28 0
2022-06-26 10:50:05 GMT 28.936169 -13.610608 0 28 0
2022-06-26 10:50:04 GMT 28.936169 -13.610608 0 28 0
2022-06-26 10:50:01 GMT 28.936169 -13.610608 0 28 0
2022-06-26 10:49:59 GMT 28.936161 -13.610606 0 28 0
2022-06-26 10:49:57 GMT 28.936157 -13.610608 0 28 0
2022-06-26 10:49:51 GMT 28.936157 -13.610608 0 28 0
2022-06-26 10:49:49 GMT 28.936169 -13.610608 0 28 0
2022-06-26 10:49:48 GMT 28.936169 -13.610621 0 28 2
2022-06-26 10:49:46 GMT 28.936157 -13.610621 0 28 2
2022-06-26 10:49:44 GMT 28.936134 -13.610621 0 33 3
2022-06-26 10:49:43 GMT 28.936123 -13.610621 0 36 4
2022-06-26 10:49:41 GMT 28.936090 -13.610633 0 47 4
2022-06-26 10:49:40 GMT 28.936068 -13.610633 0 56 5
2022-06-26 10:49:38 GMT 28.936033 -13.610660 0 67 5
2022-06-26 10:49:37 GMT 28.936022 -13.610660 0 75 5
2022-06-26 10:49:36 GMT 28.936010 -13.610687 0 84 5
2022-06-26 10:49:33 GMT 28.935986 -13.610753 0 101 6
2022-06-26 10:49:32 GMT 28.935987 -13.610795 0 109 7
2022-06-26 10:49:31 GMT 28.935997 -13.610846 0 115 8
2022-06-26 10:49:29 GMT 28.936008 -13.610885 0 115 9
2022-06-26 10:49:28 GMT 28.936033 -13.610930 0 115 9
2022-06-26 10:49:26 GMT 28.936054 -13.610991 0 115 10
2022-06-26 10:49:24 GMT 28.936090 -13.611091 0 115 10
2022-06-26 10:49:23 GMT 28.936111 -13.611123 0 118 11
2022-06-26 10:49:20 GMT 28.936184 -13.611293 0 118 12
2022-06-26 10:49:09 GMT 28.936428 -13.611832 0 123 10
2022-06-26 10:48:59 GMT 28.936695 -13.612182 0 165 6
2022-06-26 10:48:47 GMT 28.936890 -13.612219 0 196 0
2022-06-26 10:48:28 GMT 28.936884 -13.612209 0 196 0
2022-06-26 10:48:22 GMT 28.936884 -13.612209 0 196 0
2022-06-26 10:48:17 GMT 28.936884 -13.612209 0 196 0
2022-06-26 10:48:12 GMT 28.936884 -13.612209 0 196 0
2022-06-26 10:48:07 GMT 28.936884 -13.612209 0 196 0
2022-06-26 10:48:03 GMT 28.936884 -13.612209 0 196 0
2022-06-26 10:47:57 GMT 28.936890 -13.612219 0 196 0
2022-06-26 10:47:52 GMT 28.936890 -13.612219 0 196 0
2022-06-26 10:47:48 GMT 28.936884 -13.612209 0 196 0
2022-06-26 10:47:47 GMT 28.936884 -13.612209 0 196 0
2022-06-26 10:47:43 GMT 28.936890 -13.612219 0 196 0
2022-06-26 10:47:42 GMT 28.936884 -13.612209 0 196 0
2022-06-26 10:47:41 GMT 28.936884 -13.612209 0 196 0
2022-06-26 10:47:38 GMT 28.936884 -13.612209 0 196 0
2022-06-26 10:47:35 GMT 28.936890 -13.612219 0 196 0
2022-06-26 10:47:34 GMT 28.936884 -13.612209 0 196 0
2022-06-26 10:47:32 GMT 28.936890 -13.612219 0 196 0
2022-06-26 10:47:30 GMT 28.936890 -13.612206 0 196 1
2022-06-26 10:47:29 GMT 28.936890 -13.612206 0 196 2
2022-06-26 10:47:28 GMT 28.936907 -13.612209 0 196 2
2022-06-26 10:47:26 GMT 28.936907 -13.612209 0 196 2
2022-06-26 10:47:25 GMT 28.936913 -13.612206 0 196 3
2022-06-26 10:47:23 GMT 28.936935 -13.612206 0 199 3
2022-06-26 10:47:21 GMT 28.936975 -13.612195 0 202 4
2022-06-26 10:47:19 GMT 28.936975 -13.612195 0 202 4
2022-06-26 10:47:17 GMT 28.937012 -13.612182 0 205 4
2022-06-26 10:47:16 GMT 28.937027 -13.612179 0 205 4
2022-06-26 10:47:15 GMT 28.937050 -13.612166 0 208 5
2022-06-26 10:47:13 GMT 28.937080 -13.612155 0 208 5
2022-06-26 10:47:12 GMT 28.937092 -13.612141 0 208 6
2022-06-26 10:47:10 GMT 28.937140 -13.612114 0 208 6
2022-06-26 10:47:08 GMT 28.937243 -13.612061 0 208 7
2022-06-26 10:47:06 GMT 28.937267 -13.612047 0 208 7
2022-06-26 10:47:04 GMT 28.937290 -13.612020 0 208 7
2022-06-26 10:47:02 GMT 28.937336 -13.611995 0 208 8
2022-06-26 10:47:01 GMT 28.937384 -13.611980 0 208 9
2022-06-26 10:46:59 GMT 28.937418 -13.611953 0 208 9
2022-06-26 10:46:57 GMT 28.937489 -13.611912 0 208 10
2022-06-26 10:46:56 GMT 28.937546 -13.611886 0 208 11
2022-06-26 10:46:54 GMT 28.937611 -13.611849 0 208 12
2022-06-26 10:46:53 GMT 28.937668 -13.611810 0 208 12
2022-06-26 10:46:51 GMT 28.937815 -13.611724 0 208 14
2022-06-26 10:46:49 GMT 28.937874 -13.611691 0 208 14
2022-06-26 10:46:48 GMT 28.937943 -13.611657 0 208 14
2022-06-26 10:46:46 GMT 28.938023 -13.611612 0 208 14
2022-06-26 10:46:45 GMT 28.938080 -13.611572 0 208 14
2022-06-26 10:46:44 GMT 28.938198 -13.611509 0 208 15
2022-06-26 10:46:42 GMT 28.938269 -13.611468 0 208 16
2022-06-26 10:46:41 GMT 28.938377 -13.611400 0 208 17
2022-06-26 10:46:39 GMT 28.938477 -13.611347 0 208 18
2022-06-26 10:46:37 GMT 28.938606 -13.611268 0 208 20
2022-06-26 10:46:36 GMT 28.938652 -13.611242 0 208 20
2022-06-26 10:46:34 GMT 28.938837 -13.611132 0 208 22
2022-06-26 10:46:33 GMT 28.938919 -13.611091 0 208 23
2022-06-26 10:46:30 GMT 28.939362 -13.610833 0 208 26
2022-06-26 10:46:28 GMT 28.939362 -13.610833 0 208 26
2022-06-26 10:46:27 GMT 28.939489 -13.610755 0 208 26
2022-06-26 10:46:25 GMT 28.939751 -13.610608 0 208 27
2022-06-26 10:46:24 GMT 28.940071 -13.610423 0 208 28
2022-06-26 10:46:22 GMT 28.940071 -13.610423 0 208 28
2022-06-26 10:46:21 GMT 28.940304 -13.610283 0 208 28
2022-06-26 10:46:18 GMT 28.940491 -13.610176 0 208 28
2022-06-26 10:46:17 GMT 28.940619 -13.610108 0 208 28
2022-06-26 10:46:15 GMT 28.940987 -13.609882 0 208 28
2022-06-26 10:46:13 GMT 28.941147 -13.609803 0 208 27
2022-06-26 10:46:12 GMT 28.941362 -13.609664 0 208 27
2022-06-26 10:46:10 GMT 28.941456 -13.609610 0 208 27
2022-06-26 10:46:08 GMT 28.941666 -13.609489 0 208 26
2022-06-26 10:46:07 GMT 28.941788 -13.609420 0 208 26
2022-06-26 10:46:06 GMT 28.942131 -13.609220 0 208 26
2022-06-26 10:46:04 GMT 28.942131 -13.609220 0 208 26
2022-06-26 10:46:02 GMT 28.942411 -13.609058 0 208 26
2022-06-26 10:46:01 GMT 28.942411 -13.609058 0 208 26
2022-06-26 10:46:00 GMT 28.942738 -13.608870 0 208 25
2022-06-26 10:45:58 GMT 28.942738 -13.608870 0 208 25
2022-06-26 10:45:57 GMT 28.942841 -13.608812 0 208 25
2022-06-26 10:45:56 GMT 28.942932 -13.608759 0 208 25
2022-06-26 10:45:54 GMT 28.943150 -13.608627 0 208 25
2022-06-26 10:45:53 GMT 28.943253 -13.608575 0 208 25
2022-06-26 10:45:51 GMT 28.943481 -13.608442 0 208 25
2022-06-26 10:45:50 GMT 28.943584 -13.608376 0 208 25
2022-06-26 10:45:49 GMT 28.943890 -13.608196 0 208 25
2022-06-26 10:45:47 GMT 28.943890 -13.608196 0 208 25
2022-06-26 10:45:44 GMT 28.944191 -13.608020 0 208 25
2022-06-26 10:45:41 GMT 28.944466 -13.607861 0 208 24
2022-06-26 10:45:39 GMT 28.944693 -13.607739 0 208 23
2022-06-26 10:45:37 GMT 28.944889 -13.607631 0 208 23
2022-06-26 10:45:36 GMT 28.945072 -13.607518 0 208 22
2022-06-26 10:45:33 GMT 28.945309 -13.607375 0 208 22
2022-06-26 10:45:31 GMT 28.945404 -13.607320 0 208 21
2022-06-26 10:45:30 GMT 28.945587 -13.607214 0 208 21
2022-06-26 10:45:28 GMT 28.945667 -13.607175 0 208 21
2022-06-26 10:45:25 GMT 28.945919 -13.607030 0 208 20
2022-06-26 10:45:24 GMT 28.946007 -13.606971 0 208 20
2022-06-26 10:45:23 GMT 28.946089 -13.606917 0 208 20
2022-06-26 10:45:21 GMT 28.946239 -13.606831 0 208 19
2022-06-26 10:45:20 GMT 28.946308 -13.606796 0 208 19
2022-06-26 10:45:18 GMT 28.946472 -13.606702 0 208 18
2022-06-26 10:45:16 GMT 28.946537 -13.606660 0 208 18
2022-06-26 10:45:14 GMT 28.946697 -13.606567 0 208 18
2022-06-26 10:45:13 GMT 28.946777 -13.606528 0 208 18
2022-06-26 10:45:10 GMT 28.946995 -13.606409 0 208 17
2022-06-26 10:45:09 GMT 28.947136 -13.606325 0 208 17
2022-06-26 10:45:07 GMT 28.947201 -13.606277 0 208 16
2022-06-26 10:45:05 GMT 28.947334 -13.606204 0 208 16
2022-06-26 10:45:04 GMT 28.947403 -13.606163 0 208 15
2022-06-26 10:45:03 GMT 28.947475 -13.606118 0 208 15
2022-06-26 10:45:02 GMT 28.947521 -13.606092 0 208 15
2022-06-26 10:45:01 GMT 28.947636 -13.606015 0 208 14
2022-06-26 10:44:59 GMT 28.947695 -13.605988 0 208 14
2022-06-26 10:44:57 GMT 28.947819 -13.605920 0 208 13
2022-06-26 10:44:55 GMT 28.947899 -13.605868 0 205 12
2022-06-26 10:44:54 GMT 28.947956 -13.605841 0 205 12
2022-06-26 10:44:53 GMT 28.948055 -13.605786 0 205 12
2022-06-26 10:44:51 GMT 28.948116 -13.605749 0 202 11
2022-06-26 10:44:50 GMT 28.948217 -13.605706 0 194 11
2022-06-26 10:44:48 GMT 28.948254 -13.605683 0 191 11
2022-06-26 10:44:47 GMT 28.948345 -13.605652 0 177 11
2022-06-26 10:44:45 GMT 28.948404 -13.605652 0 171 11
2022-06-26 10:44:42 GMT 28.948532 -13.605679 0 149 10
2022-06-26 10:44:40 GMT 28.948603 -13.605706 0 137 9
2022-06-26 10:44:39 GMT 28.948648 -13.605746 0 132 9
2022-06-26 10:44:38 GMT 28.948677 -13.605775 0 126 9
2022-06-26 10:44:37 GMT 28.948700 -13.605802 0 123 9
2022-06-26 10:44:35 GMT 28.948757 -13.605894 0 118 10
2022-06-26 10:44:31 GMT 28.948824 -13.606042 0 118 11
2022-06-26 10:44:30 GMT 28.948860 -13.606118 0 118 11
2022-06-26 10:44:29 GMT 28.948870 -13.606150 0 118 11
2022-06-26 10:44:28 GMT 28.948906 -13.606224 0 118 11
2022-06-26 10:44:27 GMT 28.949020 -13.606487 0 115 10
2022-06-26 10:44:23 GMT 28.949020 -13.606487 0 112 9
2022-06-26 10:44:14 GMT 28.949100 -13.606818 0 64 7
2022-06-26 10:44:09 GMT 28.949034 -13.606985 0 25 4
2022-06-26 10:44:01 GMT 28.948835 -13.607119 0 25 4
2022-06-26 10:43:55 GMT 28.948757 -13.607162 0 25 0
2022-06-26 10:43:50 GMT 28.948719 -13.607187 0 25 0
2022-06-26 10:43:45 GMT 28.948711 -13.607188 0 25 0
2022-06-26 10:43:40 GMT 28.948719 -13.607187 0 25 0
2022-06-26 10:43:35 GMT 28.948711 -13.607188 0 25 0
2022-06-26 10:43:30 GMT 28.948711 -13.607188 0 25 0
2022-06-26 10:43:25 GMT 28.948711 -13.607188 0 25 0
2022-06-26 10:43:20 GMT 28.948719 -13.607187 0 25 0
2022-06-26 10:43:15 GMT 28.948711 -13.607188 0 25 0
2022-06-26 10:43:10 GMT 28.948719 -13.607187 0 25 0
2022-06-26 10:43:00 GMT 28.948719 -13.607187 0 25 0
2022-06-26 10:42:51 GMT 28.948719 -13.607187 0 25 0
2022-06-26 10:42:44 GMT 28.948711 -13.607188 0 25 0
2022-06-26 10:42:40 GMT 28.948719 -13.607187 0 25 0
2022-06-26 10:42:35 GMT 28.948719 -13.607187 0 25 0
2022-06-26 10:42:29 GMT 28.948719 -13.607187 0 25 0
2022-06-26 10:42:15 GMT 28.948711 -13.607188 0 25 0
2022-06-26 10:42:10 GMT 28.948711 -13.607188 0 25 0
2022-06-26 10:42:00 GMT 28.948719 -13.607187 0 25 0
2022-06-26 10:41:50 GMT 28.948719 -13.607187 0 25 0
2022-06-26 10:41:34 GMT 28.948719 -13.607187 0 25 0
2022-06-26 10:41:30 GMT 28.948708 -13.607187 0 25 0
2022-06-26 10:41:28 GMT 28.948711 -13.607188 0 25 0
2022-06-26 10:41:27 GMT 28.948711 -13.607188 0 25 0
2022-06-26 10:41:25 GMT 28.948708 -13.607187 0 25 0
2022-06-26 10:41:23 GMT 28.948708 -13.607187 0 25 0
2022-06-26 10:41:21 GMT 28.948711 -13.607188 0 25 0
2022-06-26 10:41:18 GMT 28.948708 -13.607187 0 25 0
2022-06-26 10:41:17 GMT 28.948711 -13.607188 0 25 0
2022-06-26 10:41:13 GMT 28.948708 -13.607187 0 25 0
2022-06-26 10:41:11 GMT 28.948708 -13.607187 0 25 0
2022-06-26 10:41:08 GMT 28.948708 -13.607187 0 25 0
2022-06-26 10:41:05 GMT 28.948711 -13.607188 0 25 0
2022-06-26 10:41:03 GMT 28.948719 -13.607187 0 25 3
2022-06-26 10:41:01 GMT 28.948730 -13.607173 0 25 3
2022-06-26 10:40:57 GMT 28.948765 -13.607160 0 25 3

Making use of Plane Finder data

You are free to use the raw flight data, aircraft information and images provided in this report for your own purposes provided the data is correctly attributed to Plane Finder. We ask that you please credit Plane Finder and link to planefinder.net in close proximity to the content.

Optionally one of the following logos (no smaller then 150x24px) can be used and must link to planefinder.net

Embedding the Plane Finder map

You are welcome to embed the Plane Finder playback map on your website to offer visitors a more interactive experience. We suggest using the following HTML code:

<iframe src="//planefinder.net/data/report/LS1402-G-JZHW-7700-squawk-2022-06-26/map" width="800" height="600" seamless="seamless"></iframe>

Where our data comes from

Plane Finder has a global network of data feeds and antenna radars that receive data broadcast directly from aircraft. The primary technologies used are ADS-B and MLAT. We also show feeds from the FAA and a FLARM glider feed.

Click here to find out more about the Plane Finder network.

How we collect our data